Provisional Data: Portage Creek near Emporium, PA


Please select a monitoring station.
Please select start date.
Please select start date.

Toggle Unit: C/F Toggle Unit: C/F
Sample Time Temperature (C) Temperature (F) Specific Conductivity (mS/cm) pH   Turbidity (NTU+) DO (mg/L)
4/22/2023 7:00:00 PM 12.82 55.076 0.064 7.28
4/22/2023 7:15:00 PM 12.72 54.896 0.064 7.25
4/22/2023 7:30:00 PM 12.63 54.734 0.064 7.23
4/22/2023 7:45:00 PM 12.52 54.536 0.064 7.22
4/22/2023 8:00:00 PM 12.4 54.32 0.064 7.18
4/22/2023 8:15:00 PM 12.31 54.158 0.064 7.2
4/22/2023 8:30:00 PM 12.21 53.978 0.064 7.18
4/22/2023 8:45:00 PM 12.13 53.834 0.064 7.13
4/22/2023 9:00:00 PM 12.07 53.726 0.064 7.15
4/22/2023 9:15:00 PM 12 53.6 0.064 7.15
4/22/2023 9:30:00 PM 11.93 53.474 0.063 7.15
4/22/2023 9:45:00 PM 11.87 53.366 0.063 7.15
4/22/2023 10:00:00 PM 11.82 53.276 0.063 7.14
4/22/2023 10:15:00 PM 11.76 53.168 0.063 7.11
4/22/2023 10:30:00 PM 11.7 53.06 0.063 7.16
4/22/2023 10:45:00 PM 11.64 52.952 0.063 7.15
4/22/2023 11:00:00 PM 11.56 52.808 0.063 7.16
4/22/2023 11:15:00 PM 11.49 52.682 0.063 7.16
4/22/2023 11:30:00 PM 11.42 52.556 0.063 7.11
4/22/2023 11:45:00 PM 11.36 52.448 0.063 7.16
4/23/2023 12:00:00 AM 11.3 52.34 0.064 7.16
4/23/2023 12:15:00 AM 11.25 52.25 0.064 7.14
4/23/2023 12:30:00 AM 11.21 52.178 0.064 7.17
4/23/2023 12:45:00 AM 11.15 52.07 0.064 7.14
4/23/2023 1:00:00 AM 11.11 51.998 0.065 7.16
4/23/2023 1:15:00 AM 11.06 51.908 0.066 7.16
4/23/2023 1:30:00 AM 11.01 51.818 0.066 7.16
4/23/2023 1:45:00 AM 10.97 51.746 0.066 7.18
4/23/2023 2:00:00 AM 10.92 51.656 0.066 7.13
4/23/2023 2:15:00 AM 10.87 51.566 0.065 7.16
4/23/2023 2:30:00 AM 10.82 51.476 0.065 7.18
4/23/2023 2:45:00 AM 10.78 51.404 0.065 7.17
4/23/2023 3:00:00 AM 10.72 51.296 0.065 7.13
4/23/2023 3:15:00 AM 10.66 51.188 0.066 7.16
4/23/2023 3:30:00 AM 10.61 51.098 0.066 7.17
4/23/2023 3:45:00 AM 10.56 51.008 0.066 7.18
4/23/2023 4:00:00 AM 10.51 50.918 0.066 7.14
4/23/2023 4:15:00 AM 10.45 50.81 0.066 7.17
4/23/2023 4:30:00 AM 10.4 50.72 0.066 7.17
4/23/2023 4:45:00 AM 10.34 50.612 0.066 7.18
4/23/2023 5:00:00 AM 10.28 50.504 0.066 7.18
4/23/2023 5:15:00 AM 10.22 50.396 0.066 7.14
4/23/2023 5:30:00 AM 10.15 50.27 0.066 7.18
4/23/2023 5:45:00 AM 10.1 50.18 0.066 7.19
4/23/2023 6:00:00 AM 10.05 50.09 0.066 7.2
4/23/2023 6:15:00 AM 10.02 50.036 0.066 7.22
4/23/2023 6:30:00 AM 9.99 49.982 0.066 7.21
4/23/2023 6:45:00 AM 9.97 49.946 0.066 7.25
4/23/2023 7:00:00 AM 9.94 49.892 0.066 7.22
4/23/2023 7:15:00 AM 9.91 49.838 0.066 7.27
4/23/2023 7:30:00 AM 9.89 49.802 0.066 7.27
4/23/2023 7:45:00 AM 9.87 49.766 0.066 7.3
4/23/2023 8:00:00 AM 9.85 49.73 0.066 7.26
4/23/2023 8:15:00 AM 9.91 49.838 0.066 7.3
4/23/2023 8:30:00 AM 9.97 49.946 0.066 7.33
4/23/2023 8:45:00 AM 9.96 49.928 0.066 7.31
4/23/2023 9:00:00 AM 10.04 50.072 0.066 7.36
4/23/2023 9:15:00 AM 10.04 50.072 0.066 7.36
4/23/2023 9:30:00 AM 10.2 50.36 0.066 7.34
4/23/2023 9:45:00 AM 10.36 50.648 0.066 7.4
4/23/2023 10:00:00 AM 10.39 50.702 0.065 7.4
4/23/2023 10:15:00 AM 10.54 50.972 0.065 7.41
4/23/2023 10:30:00 AM 10.87 51.566 0.065 7.43
4/23/2023 10:45:00 AM 11.03 51.854 0.065 7.43
4/23/2023 11:00:00 AM 11.03 51.854 0.065 7.44
4/23/2023 11:15:00 AM 11.01 51.818 0.065 7.44
4/23/2023 11:30:00 AM 10.93 51.674 0.065 7.39
4/23/2023 11:45:00 AM 10.88 51.584 0.065 7.39
4/23/2023 12:00:00 PM 10.87 51.566 0.065 7.39
4/23/2023 12:15:00 PM 10.88 51.584 0.065 7.4
4/23/2023 12:30:00 PM 10.87 51.566 0.065 7.4
4/23/2023 12:45:00 PM 10.84 51.512 0.065 7.41
4/23/2023 1:00:00 PM 10.77 51.386 0.065 7.4
4/23/2023 1:15:00 PM 10.71 51.278 0.065 7.4
4/23/2023 1:30:00 PM 10.66 51.188 0.065 7.39
4/23/2023 1:45:00 PM 10.75 51.35 0.065 7.42
4/23/2023 2:00:00 PM 10.81 51.458 0.065 7.39
4/23/2023 2:15:00 PM 10.82 51.476 0.065 7.43
4/23/2023 2:30:00 PM 10.82 51.476 0.065 7.43
4/23/2023 2:45:00 PM 10.8 51.44 0.065 7.41
4/23/2023 3:00:00 PM 10.77 51.386 0.065 7.42
4/23/2023 3:15:00 PM 10.77 51.386 0.065 7.38
4/23/2023 3:30:00 PM 10.77 51.386 0.065 7.42
4/23/2023 3:45:00 PM 10.75 51.35 0.065 7.43
4/23/2023 4:00:00 PM 10.72 51.296 0.065 7.43
4/23/2023 4:15:00 PM 10.67 51.206 0.065 7.42
4/23/2023 4:30:00 PM 10.63 51.134 0.065 7.39
4/23/2023 4:45:00 PM 10.59 51.062 0.065 7.37
4/23/2023 5:00:00 PM 10.54 50.972 0.065 7.38
4/23/2023 5:15:00 PM 10.5 50.9 0.065 7.36
4/23/2023 5:30:00 PM 10.46 50.828 0.065 7.34
4/23/2023 5:45:00 PM 10.38 50.684 0.065 7.36
4/23/2023 6:00:00 PM 10.29 50.522 0.065 7.3
4/23/2023 6:15:00 PM 10.21 50.378 0.065 7.28
4/23/2023 6:30:00 PM 10.14 50.252 0.065 7.25
4/23/2023 6:45:00 PM 10.07 50.126 0.065 7.23
4/23/2023 7:00:00 PM 9.98 49.964 0.065 7.24
4/23/2023 7:15:00 PM 9.89 49.802 0.065 7.2
4/23/2023 7:30:00 PM 9.79 49.622 0.065 7.21
4/23/2023 7:45:00 PM 9.69 49.442 0.065 7.23
4/23/2023 8:00:00 PM 9.59 49.262 0.065 7.17
4/23/2023 8:15:00 PM 9.49 49.082 0.065 7.19
4/23/2023 8:30:00 PM 9.39 48.902 0.065 7.15
4/23/2023 8:45:00 PM 9.3 48.74 0.065 7.16
4/23/2023 9:00:00 PM 9.23 48.614 0.065 7.16
4/23/2023 9:15:00 PM 9.16 48.488 0.065 7.18
4/23/2023 9:30:00 PM 9.08 48.344 0.066 7.14
4/23/2023 9:45:00 PM 9 48.2 0.066 7.17
4/23/2023 10:00:00 PM 8.92 48.056 0.066 7.15
4/23/2023 10:15:00 PM 8.85 47.93 0.066 7.17
4/23/2023 10:30:00 PM 8.77 47.786 0.066 7.14
4/23/2023 10:45:00 PM 8.7 47.66 0.066 7.16
4/23/2023 11:00:00 PM 8.63 47.534 0.066 7.15
4/23/2023 11:15:00 PM 8.57 47.426 0.066 7.17
4/23/2023 11:30:00 PM 8.5 47.3 0.066 7.17
4/23/2023 11:45:00 PM 8.44 47.192 0.066 7.16
4/24/2023 12:00:00 AM 8.37 47.066 0.066 7.15
4/24/2023 12:15:00 AM 8.31 46.958 0.066 7.17
4/24/2023 12:30:00 AM 8.25 46.85 0.066 7.16
4/24/2023 12:45:00 AM 8.19 46.742 0.066 7.16
4/24/2023 1:00:00 AM 8.13 46.634 0.066 7.13
4/24/2023 1:15:00 AM 8.08 46.544 0.066 7.15
4/24/2023 1:30:00 AM 8.02 46.436 0.067 7.16
4/24/2023 1:45:00 AM 7.96 46.328 0.067 6.97
4/24/2023 2:00:00 AM 7.92 46.256 0.067 7.07
4/24/2023 2:15:00 AM 7.87 46.166 0.066 7.08
4/24/2023 2:30:00 AM 7.81 46.058 0.066 7.1
4/24/2023 2:45:00 AM 7.76 45.968 0.066 7.08
4/24/2023 3:00:00 AM 7.71 45.878 0.066 7.09
4/24/2023 3:15:00 AM 7.66 45.788 0.066 7.11
4/24/2023 3:30:00 AM 7.61 45.698 0.066 7.11
4/24/2023 3:45:00 AM 7.56 45.608 0.066 7.11
4/24/2023 4:00:00 AM 7.51 45.518 0.066 7.09
4/24/2023 4:15:00 AM 7.45 45.41 0.066 7.1
4/24/2023 4:30:00 AM 7.41 45.338 0.066 7.11
4/24/2023 4:45:00 AM 7.36 45.248 0.066 7.12
4/24/2023 5:00:00 AM 7.31 45.158 0.066 7.1
4/24/2023 5:15:00 AM 7.27 45.086 0.066 7.1
4/24/2023 5:30:00 AM 7.23 45.014 0.066 7.12
4/24/2023 5:45:00 AM 7.19 44.942 0.066 7.12
4/24/2023 6:00:00 AM 7.15 44.87 0.065 7.12
4/24/2023 6:15:00 AM 7.13 44.834 0.065 7.17
4/24/2023 6:30:00 AM 7.12 44.816 0.065 7.17
4/24/2023 6:45:00 AM 7.12 44.816 0.065 7.2
4/24/2023 7:00:00 AM 7.13 44.834 0.065 7.22
4/24/2023 7:15:00 AM 7.16 44.888 0.065 7.24
4/24/2023 7:30:00 AM 7.2 44.96 0.065 7.25
4/24/2023 7:45:00 AM 7.25 45.05 0.065 7.31
4/24/2023 8:00:00 AM 7.3 45.14 0.065 7.31
4/24/2023 8:15:00 AM 7.34 45.212 0.065 7.3
4/24/2023 8:30:00 AM 7.41 45.338 0.065 7.32
4/24/2023 8:45:00 AM 7.47 45.446 0.065 7.33
4/24/2023 9:00:00 AM 7.56 45.608 0.065 7.34
4/24/2023 9:15:00 AM 7.63 45.734 0.065 7.35
4/24/2023 9:30:00 AM 7.7 45.86 0.065 7.35
4/24/2023 9:45:00 AM 7.87 46.166 0.065 7.36
4/24/2023 10:00:00 AM 7.98 46.364 0.065 7.37
4/24/2023 10:15:00 AM 8.13 46.634 0.065 7.38
4/24/2023 10:30:00 AM 8.34 47.012 0.065 7.37
4/24/2023 10:45:00 AM 8.44 47.192 0.065 7.38
4/24/2023 11:00:00 AM 8.7 47.66 0.065 7.39
4/24/2023 11:15:00 AM 8.79 47.822 0.065 7.4
4/24/2023 11:30:00 AM 8.77 47.786 0.065 7.39
4/24/2023 11:45:00 AM 8.88 47.984 0.065 7.41
4/24/2023 12:00:00 PM 9.27 48.686 0.065 7.39
4/24/2023 12:15:00 PM 9.39 48.902 0.064 7.41
4/24/2023 12:30:00 PM 9.63 49.334 0.064 7.4
4/24/2023 12:45:00 PM 9.86 49.748 0.064 7.4
4/24/2023 1:00:00 PM 9.93 49.874 0.064 7.41
4/24/2023 1:15:00 PM 10.05 50.09 0.064 7.37
4/24/2023 1:30:00 PM 10.56 51.008 0.064 7.43
4/24/2023 1:45:00 PM 10.65 51.17 0.064 7.41
4/24/2023 2:00:00 PM 10.82 51.476 0.064 7.42
4/24/2023 2:15:00 PM 10.84 51.512 0.064 7.41
4/24/2023 2:30:00 PM 10.98 51.764 0.064 7.41
4/24/2023 2:45:00 PM 11.06 51.908 0.064 7.43
4/24/2023 3:00:00 PM 10.95 51.71 0.064 7.41
4/24/2023 3:15:00 PM 10.8 51.44 0.064 7.41
4/24/2023 3:30:00 PM 10.77 51.386 0.064 7.41
4/24/2023 3:45:00 PM 10.81 51.458 0.064 7.38
4/24/2023 4:00:00 PM 10.77 51.386 0.064 7.42
4/24/2023 4:15:00 PM 10.65 51.17 0.064 7.38
4/24/2023 4:30:00 PM 10.52 50.936 0.064 7.35
4/24/2023 4:45:00 PM 10.49 50.882 0.064 7.37
4/24/2023 5:00:00 PM 10.45 50.81 0.064 7.35
4/24/2023 5:15:00 PM 10.38 50.684 0.064 7.37
4/24/2023 5:30:00 PM 10.3 50.54 0.064 7.36
4/24/2023 5:45:00 PM 10.19 50.342 0.064 7.31
4/24/2023 6:00:00 PM 10.1 50.18 0.064 7.33
4/24/2023 6:15:00 PM 10.02 50.036 0.064 7.31
4/24/2023 6:30:00 PM 9.96 49.928 0.064 7.31
4/24/2023 6:45:00 PM 9.87 49.766 0.064 7.28
4/24/2023 7:00:00 PM 9.78 49.604 0.064 7.26
4/24/2023 7:15:00 PM 9.67 49.406 0.064 7.22
4/24/2023 7:30:00 PM 9.56 49.208 0.064 7.21
4/24/2023 7:45:00 PM 9.45 49.01 0.064 7.21
4/24/2023 8:00:00 PM 9.36 48.848 0.064 7.2
4/24/2023 8:15:00 PM 9.27 48.686 0.064 7.19
4/24/2023 8:30:00 PM 9.19 48.542 0.064 7.16
4/24/2023 8:45:00 PM 9.1 48.38 0.064 7.19
4/24/2023 9:00:00 PM 9.01 48.218 0.064 7.17
4/24/2023 9:15:00 PM 8.91 48.038 0.064 7.18
4/24/2023 9:30:00 PM 8.81 47.858 0.064 7.16
4/24/2023 9:45:00 PM 8.71 47.678 0.064 7.16
4/24/2023 10:00:00 PM 8.6 47.48 0.064 7.17
4/24/2023 10:15:00 PM 8.5 47.3 0.064 7.15
4/24/2023 10:30:00 PM 8.38 47.084 0.064 7.17
4/24/2023 10:45:00 PM 8.26 46.868 0.064 7.17
4/24/2023 11:00:00 PM 8.14 46.652 0.064 7.15
4/24/2023 11:15:00 PM 8.02 46.436 0.064 7.16
4/24/2023 11:30:00 PM 7.9 46.22 0.064 7.14
4/24/2023 11:45:00 PM 7.77 45.986 0.064 7.12
4/25/2023 12:00:00 AM 7.65 45.77 0.061 7.13
4/25/2023 12:15:00 AM 7.53 45.554 0.064 7.16
4/25/2023 12:30:00 AM 7.42 45.356 0.064 7.15
4/25/2023 12:45:00 AM 7.33 45.194 0.065 7.15
4/25/2023 1:00:00 AM 7.24 45.032 0.065 7.13
4/25/2023 1:15:00 AM 7.16 44.888 0.065 7.13
4/25/2023 1:30:00 AM 7.09 44.762 0.066 7.15
4/25/2023 1:45:00 AM 7.02 44.636 0.067 7.16
4/25/2023 2:00:00 AM 6.95 44.51 0.067 7.16
4/25/2023 2:15:00 AM 6.89 44.402 0.066 7.15
4/25/2023 2:30:00 AM 6.83 44.294 0.066 7.16
4/25/2023 2:45:00 AM 6.78 44.204 0.065 7.14
4/25/2023 3:00:00 AM 6.74 44.132 0.065 7.14
4/25/2023 3:15:00 AM 6.69 44.042 0.065 7.07
4/25/2023 3:30:00 AM 6.65 43.97 0.065 7.12
4/25/2023 3:45:00 AM 6.62 43.916 0.065 7.12
4/25/2023 4:00:00 AM 6.58 43.844 0.065 7.12
4/25/2023 4:15:00 AM 6.54 43.772 0.065 7.13
4/25/2023 4:30:00 AM 6.5 43.7 0.065 7.13
4/25/2023 4:45:00 AM 6.47 43.646 0.065 7.13
4/25/2023 5:00:00 AM 6.42 43.556 0.065 7.1
4/25/2023 5:15:00 AM 6.37 43.466 0.065 7.11
4/25/2023 5:30:00 AM 6.32 43.376 0.065 7.13
4/25/2023 5:45:00 AM 6.27 43.286 0.065 7.14
4/25/2023 6:00:00 AM 6.23 43.214 0.065 7.15
4/25/2023 6:15:00 AM 6.2 43.16 0.065 7.17
4/25/2023 6:30:00 AM 6.17 43.106 0.065 7.17
4/25/2023 6:45:00 AM 6.16 43.088 0.065 7.19
4/25/2023 7:00:00 AM 6.15 43.07 0.065 7.21
4/25/2023 7:15:00 AM 6.15 43.07 0.065 7.22
4/25/2023 7:30:00 AM 6.2 43.16 0.065 7.25
4/25/2023 7:45:00 AM 6.25 43.25 0.065 7.26
4/25/2023 8:00:00 AM 6.27 43.286 0.064 7.29
4/25/2023 8:15:00 AM 6.32 43.376 0.064 7.27
4/25/2023 8:30:00 AM 6.45 43.61 0.061 7.27
4/25/2023 8:45:00 AM 6.69 44.042 0.064 7.31
4/25/2023 9:00:00 AM 6.91 44.438 0.064 7.32
4/25/2023 9:15:00 AM 7.11 44.798 0.064 7.32
4/25/2023 9:30:00 AM 7.3 45.14 0.064 7.33
4/25/2023 9:45:00 AM 7.52 45.536 0.064 7.3
4/25/2023 10:00:00 AM 7.79 46.022 0.064 7.33
4/25/2023 10:15:00 AM 8.15 46.67 0.064 7.3
4/25/2023 10:30:00 AM 8.22 46.796 0.064 7.32
4/25/2023 10:45:00 AM 8.4 47.12 0.064 7.33
4/25/2023 11:00:00 AM 8.49 47.282 0.064 7.33
4/25/2023 11:15:00 AM 8.71 47.678 0.064 7.35
4/25/2023 11:30:00 AM 8.74 47.732 0.064 7.35
4/25/2023 11:45:00 AM 8.8 47.84 0.064 7.35
4/25/2023 12:00:00 PM 8.88 47.984 0.064 7.35
4/25/2023 12:15:00 PM 9.13 48.434 0.064 7.37
4/25/2023 12:30:00 PM 9.4 48.92 0.064 7.36
4/25/2023 12:45:00 PM 9.88 49.784 0.064 7.38
4/25/2023 1:00:00 PM 9.9 49.82 0.064 7.37
4/25/2023 1:15:00 PM 9.93 49.874 0.064 7.38
4/25/2023 1:30:00 PM 9.92 49.856 0.064 7.37
4/25/2023 1:45:00 PM 10.01 50.018 0.064 7.36
4/25/2023 2:00:00 PM 10.15 50.27 0.064 7.38
4/25/2023 2:15:00 PM 10.26 50.468 0.064 7.38
4/25/2023 2:30:00 PM 10.45 50.81 0.063 7.39
4/25/2023 2:45:00 PM 10.84 51.512 0.063 7.4
4/25/2023 3:00:00 PM 10.97 51.746 0.063 7.38
4/25/2023 3:15:00 PM 11.01 51.818 0.063 7.38
4/25/2023 3:30:00 PM 11.12 52.016 0.063 7.4
4/25/2023 3:45:00 PM 11.25 52.25 0.063 7.36
4/25/2023 4:00:00 PM 11.37 52.466 0.063 7.4
4/25/2023 4:15:00 PM 11.34 52.412 0.063 7.37
4/25/2023 4:30:00 PM 11.26 52.268 0.063 7.37
4/25/2023 4:45:00 PM 11.18 52.124 0.063 7.38
4/25/2023 5:00:00 PM 11.14 52.052 0.063 7.39
4/25/2023 5:15:00 PM 11.09 51.962 0.063 7.35
4/25/2023 5:30:00 PM 10.99 51.782 0.063 7.35
4/25/2023 5:45:00 PM 10.91 51.638 0.063 7.35
4/25/2023 6:00:00 PM 10.82 51.476 0.063 7.33
4/25/2023 6:15:00 PM 10.73 51.314 0.063 7.31
4/25/2023 6:30:00 PM 10.63 51.134 0.063 7.3
4/25/2023 6:45:00 PM 10.53 50.954 0.064 7.28
4/25/2023 7:00:00 PM 10.42 50.756 0.064 7.25
4/25/2023 7:15:00 PM 10.32 50.576 0.064 7.23
4/25/2023 7:30:00 PM 10.21 50.378 0.064 7.19
4/25/2023 7:45:00 PM 10.09 50.162 0.064 7.19
4/25/2023 8:00:00 PM 9.97 49.946 0.064 7.17
4/25/2023 8:15:00 PM 9.83 49.694 0.064 7.19
4/25/2023 8:30:00 PM 9.7 49.46 0.064 7.15
4/25/2023 8:45:00 PM 9.59 49.262 0.064 7.18
4/25/2023 9:00:00 PM 9.48 49.064 0.064 7.18
4/25/2023 9:15:00 PM 9.38 48.884 0.065 7.14
4/25/2023 9:30:00 PM 9.28 48.704 0.065 7.17
4/25/2023 9:45:00 PM 9.19 48.542 0.065 7.16
4/25/2023 10:00:00 PM 9.11 48.398 0.065 7.16
4/25/2023 10:15:00 PM 9.02 48.236 0.065 7.16
4/25/2023 10:30:00 PM 8.93 48.074 0.065 7.13
4/25/2023 10:45:00 PM 8.85 47.93 0.064 7.14
4/25/2023 11:00:00 PM 8.77 47.786 0.064 7.16
4/25/2023 11:15:00 PM 8.67 47.606 0.064 7.16
4/25/2023 11:30:00 PM 8.58 47.444 0.064 7.12
4/25/2023 11:45:00 PM 8.49 47.282 0.064 7.14
4/26/2023 12:00:00 AM 8.4 47.12 0.064 7.13
4/26/2023 12:15:00 AM 8.29 46.922 0.064 7.15
4/26/2023 12:30:00 AM 8.19 46.742 0.064 7.15
4/26/2023 12:45:00 AM 8.08 46.544 0.064 7.14
4/26/2023 1:00:00 AM 7.98 46.364 0.065 7.15
4/26/2023 1:15:00 AM 7.88 46.184 0.065 7.15
4/26/2023 1:30:00 AM 7.77 45.986 0.066 7.14
4/26/2023 1:45:00 AM 7.68 45.824 0.062 7.12
4/26/2023 2:00:00 AM 7.58 45.644 0.065 7.15
4/26/2023 2:15:00 AM 7.5 45.5 0.065 7.14
4/26/2023 2:30:00 AM 7.43 45.374 0.065 7.16
4/26/2023 2:45:00 AM 7.34 45.212 0.065 7.13
4/26/2023 3:00:00 AM 7.27 45.086 0.065 7.17
4/26/2023 3:15:00 AM 7.2 44.96 0.061 7.11
4/26/2023 3:30:00 AM 7.11 44.798 0.065 7.16
4/26/2023 3:45:00 AM 7.03 44.654 0.065 7.17
4/26/2023 4:00:00 AM 6.94 44.492 0.065 7.12
4/26/2023 4:15:00 AM 6.86 44.348 0.065 7.17
4/26/2023 4:30:00 AM 6.78 44.204 0.065 7.16
4/26/2023 4:45:00 AM 6.71 44.078 0.065 7.15
4/26/2023 5:00:00 AM 6.64 43.952 0.065 7.16
4/26/2023 5:15:00 AM 6.59 43.862 0.065 7.13
4/26/2023 5:30:00 AM 6.54 43.772 0.065 7.15
4/26/2023 5:45:00 AM 6.5 43.7 0.065 7.16
4/26/2023 6:00:00 AM 6.47 43.646 0.065 7.16
4/26/2023 6:15:00 AM 6.45 43.61 0.065 7.18
4/26/2023 6:30:00 AM 6.43 43.574 0.065 7.18
4/26/2023 6:45:00 AM 6.45 43.61 0.065 7.21
4/26/2023 7:00:00 AM 6.45 43.61 0.064 7.23
4/26/2023 7:15:00 AM 6.48 43.664 0.064 7.24
4/26/2023 7:30:00 AM 6.52 43.736 0.064 7.26
4/26/2023 7:45:00 AM 6.54 43.772 0.064 7.26
4/26/2023 8:00:00 AM 6.56 43.808 0.064 7.22
4/26/2023 8:15:00 AM 6.63 43.934 0.064 7.28
4/26/2023 8:30:00 AM 6.7 44.06 0.064 7.28
4/26/2023 8:45:00 AM 6.84 44.312 0.064 7.26
4/26/2023 9:00:00 AM 6.97 44.546 0.064 7.3
4/26/2023 9:15:00 AM 7.05 44.69 0.06 7.28
4/26/2023 9:30:00 AM 7.17 44.906 0.064 7.32
4/26/2023 9:45:00 AM 7.33 45.194 0.064 7.33
4/26/2023 10:00:00 AM 7.48 45.464 0.064 7.3
4/26/2023 10:15:00 AM 7.69 45.842 0.064 7.33
4/26/2023 10:30:00 AM 7.94 46.292 0.062 7.32
4/26/2023 10:45:00 AM 8.04 46.472 0.064 7.33
4/26/2023 11:00:00 AM 8.1 46.58 0.063 7.35
4/26/2023 11:15:00 AM 8.31 46.958 0.063 7.35
4/26/2023 11:30:00 AM 8.51 47.318 0.063 7.35
4/26/2023 11:45:00 AM 8.75 47.75 0.063 7.34
4/26/2023 12:00:00 PM 9.21 48.578 0.063 7.36
4/26/2023 12:15:00 PM 9.46 49.028 0.063 7.37
4/26/2023 12:30:00 PM 9.64 49.352 0.063 7.35
4/26/2023 12:45:00 PM 10.1 50.18 0.063 7.38
4/26/2023 1:00:00 PM 10.42 50.756 0.063 7.38
4/26/2023 1:15:00 PM 10.42 50.756 0.063 7.38
4/26/2023 1:30:00 PM 10.74 51.332 0.063 7.38
4/26/2023 1:45:00 PM 10.87 51.566 0.063 7.36
4/26/2023 2:00:00 PM 10.96 51.728 0.063 7.38
4/26/2023 2:15:00 PM 10.98 51.764 0.063 7.41
4/26/2023 2:30:00 PM 11.04 51.872 0.063 7.41
4/26/2023 2:45:00 PM 11.23 52.214 0.063 7.37
4/26/2023 3:00:00 PM 11.26 52.268 0.063 7.39
4/26/2023 3:15:00 PM 11.41 52.538 0.063 7.4
4/26/2023 3:30:00 PM 11.42 52.556 0.063 7.37
4/26/2023 3:45:00 PM 11.46 52.628 0.063 7.4
4/26/2023 4:00:00 PM 11.44 52.592 0.063 7.39
4/26/2023 4:15:00 PM 11.43 52.574 0.063 7.41
4/26/2023 4:30:00 PM 11.41 52.538 0.063 7.4
4/26/2023 4:45:00 PM 11.38 52.484 0.063 7.4
4/26/2023 5:00:00 PM 11.43 52.574 0.063 7.37
4/26/2023 5:15:00 PM 11.48 52.664 0.063 7.41
4/26/2023 5:30:00 PM 11.48 52.664 0.063 7.39
4/26/2023 5:45:00 PM 11.44 52.592 0.063 7.35
4/26/2023 6:00:00 PM 11.38 52.484 0.063 7.34
4/26/2023 6:15:00 PM 11.33 52.394 0.063 7.33
4/26/2023 6:30:00 PM 11.27 52.286 0.063 7.31
4/26/2023 6:45:00 PM 11.19 52.142 0.063 7.28
4/26/2023 7:00:00 PM 11.06 51.908 0.063 7.24
4/26/2023 7:15:00 PM 10.92 51.656 0.063 7.22
4/26/2023 7:30:00 PM 10.76 51.368 0.063 7.22
4/26/2023 7:45:00 PM 10.6 51.08 0.063 7.2
4/26/2023 8:00:00 PM 10.44 50.792 0.064 7.19
4/26/2023 8:15:00 PM 10.29 50.522 0.064 7.19
4/26/2023 8:30:00 PM 10.14 50.252 0.064 7.16
4/26/2023 8:45:00 PM 9.99 49.982 0.064 7.17
4/26/2023 9:00:00 PM 9.84 49.712 0.064 7.16
4/26/2023 9:15:00 PM 9.7 49.46 0.064 7.17
4/26/2023 9:30:00 PM 9.54 49.172 0.064 7.13
4/26/2023 9:45:00 PM 9.39 48.902 0.064 7.16
4/26/2023 10:00:00 PM 9.23 48.614 0.064 7.16
4/26/2023 10:15:00 PM 9.08 48.344 0.064 7.15
4/26/2023 10:30:00 PM 8.94 48.092 0.064 7.16
4/26/2023 10:45:00 PM 8.8 47.84 0.064 7.16
4/26/2023 11:00:00 PM 8.68 47.624 0.064 7.16
4/26/2023 11:15:00 PM 8.56 47.408 0.064 7.12
4/26/2023 11:30:00 PM 8.44 47.192 0.064 7.16
4/26/2023 11:45:00 PM 8.33 46.994 0.064 7.16
4/27/2023 12:00:00 AM 8.23 46.814 0.06 7.12
4/27/2023 12:15:00 AM 8.14 46.652 0.064 7.16
4/27/2023 12:30:00 AM 8.07 46.526 0.064 7.16
4/27/2023 12:45:00 AM 8 46.4 0.064 7.15
4/27/2023 1:00:00 AM 7.92 46.256 0.064 7.17
4/27/2023 1:15:00 AM 7.85 46.13 0.064 7.16
4/27/2023 1:30:00 AM 7.78 46.004 0.064 7.12
4/27/2023 1:45:00 AM 7.71 45.878 0.064 7.15
4/27/2023 2:00:00 AM 7.63 45.734 0.061 7.12
4/27/2023 2:15:00 AM 7.55 45.59 0.062 7.11
4/27/2023 2:30:00 AM 7.47 45.446 0.064 7.16
4/27/2023 2:45:00 AM 7.38 45.284 0.064 7.15
4/27/2023 3:00:00 AM 7.29 45.122 0.064 7.14
4/27/2023 3:15:00 AM 7.2 44.96 0.064 7.14
4/27/2023 3:30:00 AM 7.12 44.816 0.064 7.14
4/27/2023 3:45:00 AM 7.03 44.654 0.064 7.14
4/27/2023 4:00:00 AM 6.93 44.474 0.064 7.15
4/27/2023 4:15:00 AM 6.85 44.33 0.064 7.15
4/27/2023 4:30:00 AM 6.75 44.15 0.064 7.14
4/27/2023 4:45:00 AM 6.66 43.988 0.064 7.15
4/27/2023 5:00:00 AM 6.58 43.844 0.064 7.15
4/27/2023 5:15:00 AM 6.52 43.736 0.064 7.15
4/27/2023 5:30:00 AM 6.46 43.628 0.064 7.14
4/27/2023 5:45:00 AM 6.39 43.502 0.064 7.17
4/27/2023 6:00:00 AM 6.33 43.394 0.064 7.18
4/27/2023 6:15:00 AM 6.28 43.304 0.064 7.19
4/27/2023 6:30:00 AM 6.23 43.214 0.064 7.19
4/27/2023 6:45:00 AM 6.2 43.16 0.064 7.22
4/27/2023 7:00:00 AM 6.2 43.16 0.064 7.23
4/27/2023 7:15:00 AM 6.22 43.196 0.064 7.25
4/27/2023 7:30:00 AM 6.26 43.268 0.064 7.26
4/27/2023 7:45:00 AM 6.33 43.394 0.064 7.26
4/27/2023 8:00:00 AM 6.42 43.556 0.064 7.29
4/27/2023 8:15:00 AM 6.53 43.754 0.064 7.28
4/27/2023 8:30:00 AM 6.67 44.006 0.064 7.3
4/27/2023 8:45:00 AM 6.82 44.276 0.064 7.3
4/27/2023 9:00:00 AM 6.96 44.528 0.064 7.3
4/27/2023 9:15:00 AM 7.07 44.726 0.064 7.3
4/27/2023 9:30:00 AM 7.25 45.05 0.064 7.3
4/27/2023 9:45:00 AM 7.49 45.482 0.065 7.31
4/27/2023 10:00:00 AM 7.79 46.022 0.066 7.33
4/27/2023 10:15:00 AM 8.13 46.634 0.065 7.34
4/27/2023 10:30:00 AM 8.58 47.444 0.065 7.34
4/27/2023 10:45:00 AM 9 48.2 0.064 7.33
4/27/2023 11:00:00 AM 9.51 49.118 0.063 7.36
4/27/2023 11:15:00 AM 9.98 49.964 0.063 7.35
4/27/2023 11:30:00 AM 10.43 50.774 0.063 7.36
4/27/2023 11:45:00 AM 10.89 51.602 0.063 7.37
4/27/2023 12:00:00 PM 11.32 52.376 0.063 7.38
4/27/2023 12:15:00 PM 11.73 53.114 0.063 7.39
4/27/2023 12:30:00 PM 12.14 53.852 0.063 7.4
4/27/2023 12:45:00 PM 12.52 54.536 0.063 7.41
4/27/2023 1:00:00 PM 12.87 55.166 0.063 7.42
4/27/2023 1:15:00 PM 13.2 55.76 0.063 7.41
4/27/2023 1:30:00 PM 13.48 56.264 0.063 7.42
4/27/2023 1:45:00 PM 13.75 56.75 0.063 7.4
4/27/2023 2:00:00 PM 13.98 57.164 0.062 7.44
4/27/2023 2:15:00 PM 14.17 57.506 0.062 7.45
4/27/2023 2:30:00 PM 14.33 57.794 0.062 7.45
4/27/2023 2:45:00 PM 14.44 57.992 0.062 7.46
4/27/2023 3:00:00 PM 14.51 58.118 0.062 7.47
4/27/2023 3:15:00 PM 14.55 58.19 0.062 7.44
4/27/2023 3:30:00 PM 14.59 58.262 0.062 7.47
4/27/2023 3:45:00 PM 14.6 58.28 0.062 7.47
4/27/2023 4:00:00 PM 14.56 58.208 0.062 7.48
4/27/2023 4:15:00 PM 14.53 58.154 0.063 7.48
4/27/2023 4:30:00 PM 14.49 58.082 0.062 7.47
4/27/2023 4:45:00 PM 14.45 58.01 0.063 7.46
4/27/2023 5:00:00 PM 14.41 57.938 0.062 7.46
4/27/2023 5:15:00 PM 14.37 57.866 0.062 7.43
4/27/2023 5:30:00 PM 14.35 57.83 0.062 7.43
4/27/2023 5:45:00 PM 14.3 57.74 0.062 7.4
4/27/2023 6:00:00 PM 14.25 57.65 0.062 7.39
4/27/2023 6:15:00 PM 14.18 57.524 0.063 7.36
4/27/2023 6:30:00 PM 14.08 57.344 0.063 7.34
4/27/2023 6:45:00 PM 13.94 57.092 0.063 7.32
4/27/2023 7:00:00 PM 13.81 56.858 0.063 7.25
4/27/2023 7:15:00 PM 13.66 56.588 0.063 7.27
4/27/2023 7:30:00 PM 13.51 56.318 0.063 7.25
4/27/2023 7:45:00 PM 13.36 56.048 0.063 7.23
4/27/2023 8:00:00 PM 13.21 55.778 0.063 7.21
4/27/2023 8:15:00 PM 13.04 55.472 0.063 7.18
4/27/2023 8:30:00 PM 12.87 55.166 0.063 7.18
4/27/2023 8:45:00 PM 12.69 54.842 0.064 7.19
4/27/2023 9:00:00 PM 12.5 54.5 0.064 7.19
4/27/2023 9:15:00 PM 12.32 54.176 0.064 7.14
4/27/2023 9:30:00 PM 12.13 53.834 0.064 7.19
4/27/2023 9:45:00 PM 11.96 53.528 0.064 7.18
4/27/2023 10:00:00 PM 11.78 53.204 0.064 7.18
4/27/2023 10:15:00 PM 11.62 52.916 0.064 7.18
4/27/2023 10:30:00 PM 11.46 52.628 0.064 7.15
4/27/2023 10:45:00 PM 11.31 52.358 0.064 7.17
4/27/2023 11:00:00 PM 11.16 52.088 0.064 7.16
4/27/2023 11:15:00 PM 11.04 51.872 0.064 7.17
4/27/2023 11:30:00 PM 10.91 51.638 0.064 7.17
4/27/2023 11:45:00 PM 10.8 51.44 0.064 7.17
4/28/2023 12:00:00 AM 10.69 51.242 0.061 7.12
4/28/2023 12:15:00 AM 10.57 51.026 0.064 7.14
4/28/2023 12:30:00 AM 10.47 50.846 0.064 7.17
4/28/2023 12:45:00 AM 10.37 50.666 0.064 7.17
4/28/2023 1:00:00 AM 10.28 50.504 0.064 7.17
4/28/2023 1:15:00 AM 10.22 50.396 0.064 7.17
4/28/2023 1:30:00 AM 10.16 50.288 0.064 7.15
4/28/2023 1:45:00 AM 10.1 50.18 0.064 7.17
4/28/2023 2:00:00 AM 10.04 50.072 0.064 7.17
4/28/2023 2:15:00 AM 9.98 49.964 0.064 7.16
4/28/2023 2:30:00 AM 9.93 49.874 0.064 7.13
4/28/2023 2:45:00 AM 9.88 49.784 0.064 7.17
4/28/2023 3:00:00 AM 9.84 49.712 0.064 7.17
4/28/2023 3:15:00 AM 9.81 49.658 0.064 7.17
4/28/2023 3:30:00 AM 9.78 49.604 0.064 7.15
4/28/2023 3:45:00 AM 9.76 49.568 0.064 7.16
4/28/2023 4:00:00 AM 9.74 49.532 0.064 7.16
4/28/2023 4:15:00 AM 9.72 49.496 0.064 7.16
4/28/2023 4:30:00 AM 9.71 49.478 0.064 7.17
4/28/2023 4:45:00 AM 9.7 49.46 0.064 7.18
4/28/2023 5:00:00 AM 9.69 49.442 0.064 7.18
4/28/2023 5:15:00 AM 9.67 49.406 0.064 7.16
4/28/2023 5:30:00 AM 9.66 49.388 0.064 7.19
4/28/2023 5:45:00 AM 9.65 49.37 0.064 7.19
4/28/2023 6:00:00 AM 9.64 49.352 0.064 7.2
4/28/2023 6:15:00 AM 9.64 49.352 0.064 7.17
4/28/2023 6:30:00 AM 9.64 49.352 0.064 7.22
4/28/2023 6:45:00 AM 9.65 49.37 0.064 7.23
4/28/2023 7:00:00 AM 9.67 49.406 0.064 7.23
4/28/2023 7:15:00 AM 9.69 49.442 0.064 7.27
4/28/2023 7:30:00 AM 9.71 49.478 0.064 7.29
4/28/2023 7:45:00 AM 9.73 49.514 0.064 7.29
4/28/2023 8:00:00 AM 9.77 49.586 0.064 7.29
4/28/2023 8:15:00 AM 9.81 49.658 0.064 7.33
4/28/2023 8:30:00 AM 9.84 49.712 0.06 7.3
4/28/2023 8:45:00 AM 9.88 49.784 0.064 7.36
4/28/2023 9:00:00 AM 9.9 49.82 0.064 7.36
4/28/2023 9:15:00 AM 9.92 49.856 0.064 7.36
4/28/2023 9:30:00 AM 9.95 49.91 0.064 7.36
4/28/2023 9:45:00 AM 9.97 49.946 0.064 7.36
4/28/2023 10:00:00 AM 9.98 49.964 0.064 7.36
4/28/2023 10:15:00 AM 10.02 50.036 0.064 7.37
4/28/2023 10:30:00 AM 10.06 50.108 0.063 7.36
4/28/2023 10:45:00 AM 10.12 50.216 0.063 7.4
4/28/2023 11:00:00 AM 10.17 50.306 0.063 7.37
4/28/2023 11:15:00 AM 10.21 50.378 0.063 7.41
4/28/2023 11:30:00 AM 10.25 50.45 0.063 7.41
4/28/2023 11:45:00 AM 10.3 50.54 0.063 7.41
4/28/2023 12:00:00 PM 10.35 50.63 0.063 7.44
4/28/2023 12:15:00 PM 10.42 50.756 0.063 7.45
4/28/2023 12:30:00 PM 10.48 50.864 0.063 7.45
4/28/2023 12:45:00 PM 10.54 50.972 0.063 7.44
4/28/2023 1:00:00 PM 10.58 51.044 0.063 7.46
4/28/2023 1:15:00 PM 10.61 51.098 0.063 7.46
4/28/2023 1:30:00 PM 10.66 51.188 0.063 7.45
4/28/2023 1:45:00 PM 10.7 51.26 0.062 7.44
4/28/2023 2:00:00 PM 10.77 51.386 0.062 7.46
4/28/2023 2:15:00 PM 10.87 51.566 0.062 7.48
4/28/2023 2:30:00 PM 10.93 51.674 0.062 7.48
4/28/2023 2:45:00 PM 10.96 51.728 0.062 7.47
4/28/2023 3:00:00 PM 10.94 51.692 0.062 7.46
4/28/2023 3:15:00 PM 10.91 51.638 0.062 7.43
4/28/2023 3:30:00 PM 10.89 51.602 0.062 7.43
4/28/2023 3:45:00 PM 10.86 51.548 0.062 7.42
4/28/2023 4:00:00 PM 10.85 51.53 0.062 7.37
4/28/2023 4:15:00 PM 10.82 51.476 0.063 7.38
4/28/2023 4:30:00 PM 10.78 51.404 0.063 7.38
4/28/2023 4:45:00 PM 10.73 51.314 0.063 7.36
4/28/2023 5:00:00 PM 10.68 51.224 0.063 7.33
4/28/2023 5:15:00 PM 10.64 51.152 0.063 7.32
4/28/2023 5:30:00 PM 10.59 51.062 0.063 7.32
4/28/2023 5:45:00 PM 10.53 50.954 0.062 7.3
4/28/2023 6:00:00 PM 10.48 50.864 0.063 7.28
4/28/2023 6:15:00 PM 10.42 50.756 0.063 7.27
4/28/2023 6:30:00 PM 10.36 50.648 0.063 7.24
4/28/2023 6:45:00 PM 10.31 50.558 0.063 7.25
4/28/2023 7:00:00 PM 10.26 50.468 0.063 7.24
4/28/2023 7:15:00 PM 10.21 50.378 0.063 7.23
4/28/2023 7:30:00 PM 10.15 50.27 0.063 7.23
4/28/2023 7:45:00 PM 10.1 50.18 0.063 7.22
4/28/2023 8:00:00 PM 10.05 50.09 0.063 7.21
4/28/2023 8:15:00 PM 9.99 49.982 0.063 7.17
4/28/2023 8:30:00 PM 9.94 49.892 0.063 7.2
4/28/2023 8:45:00 PM 9.88 49.784 0.063 7.2
4/28/2023 9:00:00 PM 9.83 49.694 0.057 7.19
4/28/2023 9:15:00 PM 9.78 49.604 0.063 7.2
4/28/2023 9:30:00 PM 9.73 49.514 0.063 7.19
4/28/2023 9:45:00 PM 9.67 49.406 0.063 7.19
4/28/2023 10:00:00 PM 9.62 49.316 0.063 7.16
4/28/2023 10:15:00 PM 9.57 49.226 0.062 7.17
4/28/2023 10:30:00 PM 9.53 49.154 0.062 7.2
4/28/2023 10:45:00 PM 9.49 49.082 0.062 7.19
4/28/2023 11:00:00 PM 9.45 49.01 0.062 7.15
4/28/2023 11:15:00 PM 9.41 48.938 0.062 7.18
4/28/2023 11:30:00 PM 9.38 48.884 0.062 7.16
4/28/2023 11:45:00 PM 9.34 48.812 0.062 7.18
4/29/2023 12:00:00 AM 9.31 48.758 0.062 7.17
4/29/2023 12:15:00 AM 9.28 48.704 0.062 7.19
4/29/2023 12:30:00 AM 9.25 48.65 0.062 7.14
4/29/2023 12:45:00 AM 9.21 48.578 0.062 7.19
4/29/2023 1:00:00 AM 9.18 48.524 0.062 7.15
4/29/2023 1:15:00 AM 9.15 48.47 0.063 7.19
4/29/2023 1:30:00 AM 9.12 48.416 0.063 7.18
4/29/2023 1:45:00 AM 9.09 48.362 0.063 7.18
4/29/2023 2:00:00 AM 9.06 48.308 0.063 7.19
4/29/2023 2:15:00 AM 9.03 48.254 0.063 7.15
4/29/2023 2:30:00 AM 9 48.2 0.063 7.19
4/29/2023 2:45:00 AM 8.98 48.164 0.063 7.19
4/29/2023 3:00:00 AM 8.95 48.11 0.063 7.19
4/29/2023 3:15:00 AM 8.93 48.074 0.063 7.15
4/29/2023 3:30:00 AM 8.91 48.038 0.063 7.17
4/29/2023 3:45:00 AM 8.89 48.002 0.063 7.19
4/29/2023 4:00:00 AM 8.87 47.966 0.063 7.18
4/29/2023 4:15:00 AM 8.85 47.93 0.063 7.19
4/29/2023 4:30:00 AM 8.83 47.894 0.063 7.17
4/29/2023 4:45:00 AM 8.81 47.858 0.063 7.19
4/29/2023 5:00:00 AM 8.79 47.822 0.063 7.18
4/29/2023 5:15:00 AM 8.78 47.804 0.063 7.19
4/29/2023 5:30:00 AM 8.76 47.768 0.063 7.14
4/29/2023 5:45:00 AM 8.75 47.75 0.063 7.2
4/29/2023 6:00:00 AM 8.74 47.732 0.063 7.19
4/29/2023 6:15:00 AM 8.73 47.714 0.063 7.15
4/29/2023 6:30:00 AM 8.73 47.714 0.063 7.2
4/29/2023 6:45:00 AM 8.74 47.732 0.063 7.2
4/29/2023 7:00:00 AM 8.74 47.732 0.063 7.22
4/29/2023 7:15:00 AM 8.75 47.75 0.063 7.22
4/29/2023 7:30:00 AM 8.76 47.768 0.063 7.25
4/29/2023 7:45:00 AM 8.76 47.768 0.063 7.26
4/29/2023 8:00:00 AM 8.77 47.786 0.063 7.25
4/29/2023 8:15:00 AM 8.79 47.822 0.063 7.28
4/29/2023 8:30:00 AM 8.81 47.858 0.063 7.29
4/29/2023 8:45:00 AM 8.83 47.894 0.063 7.3
4/29/2023 9:00:00 AM 8.86 47.948 0.063 7.28
4/29/2023 9:15:00 AM 8.88 47.984 0.063 7.31
4/29/2023 9:30:00 AM 8.91 48.038 0.063 7.32
4/29/2023 9:45:00 AM 8.95 48.11 0.063 7.32
4/29/2023 10:00:00 AM 9.02 48.236 0.063 7.36
4/29/2023 10:15:00 AM 9.1 48.38 0.063 7.37
4/29/2023 10:30:00 AM 9.17 48.506 0.063 7.38
4/29/2023 10:45:00 AM 9.25 48.65 0.063 7.36
4/29/2023 11:00:00 AM 9.32 48.776 0.063 7.4
4/29/2023 11:15:00 AM 9.41 48.938 0.063 7.41
4/29/2023 11:30:00 AM 9.48 49.064 0.063 7.42
4/29/2023 11:45:00 AM 9.53 49.154 0.063 7.42
4/29/2023 12:00:00 PM 9.59 49.262 0.063 7.38
4/29/2023 12:15:00 PM 9.66 49.388 0.062 7.43
4/29/2023 12:30:00 PM 9.71 49.478 0.062 7.41
4/29/2023 12:45:00 PM 9.8 49.64 0.062 7.43
4/29/2023 1:00:00 PM 9.96 49.928 0.062 7.42
4/29/2023 1:15:00 PM 10.06 50.108 0.062 7.44
4/29/2023 1:30:00 PM 10.17 50.306 0.062 7.46
4/29/2023 1:45:00 PM 10.25 50.45 0.062 7.46
4/29/2023 2:00:00 PM 10.33 50.594 0.062 7.46
4/29/2023 2:15:00 PM 10.43 50.774 0.062 7.47
4/29/2023 2:30:00 PM 10.5 50.9 0.062 7.43
4/29/2023 2:45:00 PM 10.57 51.026 0.062 7.48
4/29/2023 3:00:00 PM 10.65 51.17 0.063 7.46
4/29/2023 3:15:00 PM 10.67 51.206 0.063 7.46
4/29/2023 3:30:00 PM 10.7 51.26 0.063 7.45
4/29/2023 3:45:00 PM 10.72 51.296 0.063 7.44
4/29/2023 4:00:00 PM 10.72 51.296 0.063 7.43
4/29/2023 4:15:00 PM 10.72 51.296 0.063 7.37
4/29/2023 4:30:00 PM 10.7 51.26 0.063 7.38
4/29/2023 4:45:00 PM 10.68 51.224 0.063 7.36
4/29/2023 5:00:00 PM 10.66 51.188 0.063 7.34
4/29/2023 5:15:00 PM 10.64 51.152 0.063 7.31
4/29/2023 5:30:00 PM 10.62 51.116 0.063 7.32
4/29/2023 5:45:00 PM 10.61 51.098 0.063 7.32
4/29/2023 6:00:00 PM 10.59 51.062 0.063 7.3
4/29/2023 6:15:00 PM 10.57 51.026 0.063 7.29
4/29/2023 6:30:00 PM 10.54 50.972 0.063 7.28
4/29/2023 6:45:00 PM 10.5 50.9 0.063 7.25
4/29/2023 7:00:00 PM 10.47 50.846 0.063 7.25
4/29/2023 7:15:00 PM 10.43 50.774 0.064 7.23
4/29/2023 7:30:00 PM 10.4 50.72 0.064 7.22
4/29/2023 7:45:00 PM 10.36 50.648 0.064 7.21
4/29/2023 8:00:00 PM 10.33 50.594 0.064 7.2
4/29/2023 8:15:00 PM 10.3 50.54 0.065 7.19
4/29/2023 8:30:00 PM 10.26 50.468 0.066 7.16
4/29/2023 8:45:00 PM 10.23 50.414 0.066 7.18
4/29/2023 9:00:00 PM 10.2 50.36 0.065 7.18
4/29/2023 9:15:00 PM 10.17 50.306 0.065 7.14
4/29/2023 9:30:00 PM 10.15 50.27 0.064 7.16
4/29/2023 9:45:00 PM 10.12 50.216 0.064 7.14
4/29/2023 10:00:00 PM 10.1 50.18 0.064 7.15
4/29/2023 10:15:00 PM 10.07 50.126 0.064 7.16
4/29/2023 10:30:00 PM 10.05 50.09 0.064 7.15
4/29/2023 10:45:00 PM 10.03 50.054 0.064 7.15
4/29/2023 11:00:00 PM 10.01 50.018 0.064 7.15
4/29/2023 11:15:00 PM 10 50 0.064 7.15
4/29/2023 11:30:00 PM 9.98 49.964 0.064 7.15
4/29/2023 11:45:00 PM 9.95 49.91 0.064 7.16
4/30/2023 12:00:00 AM 9.93 49.874 0.064 7.16
4/30/2023 12:15:00 AM 9.91 49.838 0.064 7.15
4/30/2023 12:30:00 AM 9.89 49.802 0.064 7.15
4/30/2023 12:45:00 AM 9.88 49.784 0.064 7.14
4/30/2023 1:00:00 AM 9.86 49.748 0.064 7.16
4/30/2023 1:15:00 AM 9.85 49.73 0.064 7.14
4/30/2023 1:30:00 AM 9.83 49.694 0.064 7.16
4/30/2023 1:45:00 AM 9.82 49.676 0.064 7.15
4/30/2023 2:00:00 AM 9.81 49.658 0.061 7.1
4/30/2023 2:15:00 AM 9.79 49.622 0.064 7.16
4/30/2023 2:30:00 AM 9.77 49.586 0.064 7.15
4/30/2023 2:45:00 AM 9.76 49.568 0.064 7.12
4/30/2023 3:00:00 AM 9.74 49.532 0.064 7.15
4/30/2023 3:15:00 AM 9.73 49.514 0.064 7.13
4/30/2023 3:30:00 AM 9.72 49.496 0.064 7.15
4/30/2023 3:45:00 AM 9.71 49.478 0.064 7.15
4/30/2023 4:00:00 AM 9.7 49.46 0.064 7.15
4/30/2023 4:15:00 AM 9.69 49.442 0.064 7.11
4/30/2023 4:30:00 AM 9.68 49.424 0.064 7.15
4/30/2023 4:45:00 AM 9.66 49.388 0.064 7.13
4/30/2023 5:00:00 AM 9.65 49.37 0.064 7.15
4/30/2023 5:15:00 AM 9.64 49.352 0.064 7.15
4/30/2023 5:30:00 AM 9.63 49.334 0.064 7.14
4/30/2023 5:45:00 AM 9.62 49.316 0.064 7.15
4/30/2023 6:00:00 AM 9.62 49.316 0.064 7.16
4/30/2023 6:15:00 AM 9.61 49.298 0.064 7.16
4/30/2023 6:30:00 AM 9.61 49.298 0.064 7.17
4/30/2023 6:45:00 AM 9.62 49.316 0.064 7.18
4/30/2023 7:00:00 AM 9.62 49.316 0.064 7.18
4/30/2023 7:15:00 AM 9.63 49.334 0.064 7.19
4/30/2023 7:30:00 AM 9.66 49.388 0.064 7.22
4/30/2023 7:45:00 AM 9.7 49.46 0.064 7.24
4/30/2023 8:00:00 AM 9.75 49.55 0.064 7.25
4/30/2023 8:15:00 AM 9.81 49.658 0.063 7.3
4/30/2023 8:30:00 AM 9.85 49.73 0.063 7.31
4/30/2023 8:45:00 AM 9.9 49.82 0.063 7.33
4/30/2023 9:00:00 AM 9.93 49.874 0.063 7.33
4/30/2023 9:15:00 AM 9.96 49.928 0.063 7.33
4/30/2023 9:30:00 AM 10.01 50.018 0.063 7.35
4/30/2023 9:45:00 AM 10.05 50.09 0.063 7.36
4/30/2023 10:00:00 AM 10.1 50.18 0.063 7.37
4/30/2023 10:15:00 AM 10.16 50.288 0.063 7.35
4/30/2023 10:30:00 AM 10.2 50.36 0.063 7.36
4/30/2023 10:45:00 AM 10.26 50.468 0.063 7.39
4/30/2023 11:00:00 AM 10.32 50.576 0.063 7.42
4/30/2023 11:15:00 AM 10.39 50.702 0.063 7.43
4/30/2023 11:30:00 AM 10.46 50.828 0.063 7.46
4/30/2023 11:45:00 AM 10.56 51.008 0.063 7.46
4/30/2023 12:00:00 PM 10.66 51.188 0.063 7.48
4/30/2023 12:15:00 PM 10.73 51.314 0.062 7.47
4/30/2023 12:30:00 PM 10.8 51.44 0.062 7.48
4/30/2023 12:45:00 PM 10.85 51.53 0.062 7.5
4/30/2023 1:00:00 PM 10.89 51.602 0.062 7.47
4/30/2023 1:15:00 PM 10.92 51.656 0.062 7.46
4/30/2023 1:30:00 PM 10.98 51.764 0.062 7.47
4/30/2023 1:45:00 PM 11.01 51.818 0.063 7.47
4/30/2023 2:00:00 PM 11.01 51.818 0.063 7.45
4/30/2023 2:15:00 PM 11.02 51.836 0.063 7.45
4/30/2023 2:30:00 PM 11.03 51.854 0.063 7.42
4/30/2023 2:45:00 PM 11.05 51.89 0.063 7.45
4/30/2023 3:00:00 PM 11.05 51.89 0.063 7.45
4/30/2023 3:15:00 PM 11.06 51.908 0.063 7.45
4/30/2023 3:30:00 PM 11.04 51.872 0.063 7.43
4/30/2023 3:45:00 PM 11.03 51.854 0.063 7.39
4/30/2023 4:00:00 PM 11.04 51.872 0.063 7.42
4/30/2023 4:15:00 PM 11.03 51.854 0.063 7.41
4/30/2023 4:30:00 PM 11.02 51.836 0.064 7.36
4/30/2023 4:45:00 PM 11.01 51.818 0.064 7.37
4/30/2023 5:00:00 PM 11 51.8 0.064 7.33
4/30/2023 5:15:00 PM 11 51.8 0.063 7.31
4/30/2023 5:30:00 PM 10.98 51.764 0.063 7.27
4/30/2023 5:45:00 PM 10.95 51.71 0.063 7.27
4/30/2023 6:00:00 PM 10.91 51.638 0.064 7.26
4/30/2023 6:15:00 PM 10.86 51.548 0.064 7.24
4/30/2023 6:30:00 PM 10.8 51.44 0.064 7.22
4/30/2023 6:45:00 PM 10.74 51.332 0.064 7.18
4/30/2023 7:00:00 PM 10.67 51.206 0.064 7.16
4/30/2023 7:15:00 PM 10.6 51.08 0.064 7.17
4/30/2023 7:30:00 PM 10.52 50.936 0.064 7.16
4/30/2023 7:45:00 PM 10.46 50.828 0.064 7.15
4/30/2023 8:00:00 PM 10.39 50.702 0.064 7.15
4/30/2023 8:15:00 PM 10.32 50.576 0.063 7.14
4/30/2023 8:30:00 PM 10.25 50.45 0.063 7.09
4/30/2023 8:45:00 PM 10.18 50.324 0.064 7.12
4/30/2023 9:00:00 PM 10.12 50.216 0.064 7.11
4/30/2023 9:15:00 PM 10.05 50.09 0.064 7.1
4/30/2023 9:30:00 PM 9.98 49.964 0.064 7.09
4/30/2023 9:45:00 PM 9.91 49.838 0.064 7.11
4/30/2023 10:00:00 PM 9.85 49.73 0.064 7.12
4/30/2023 10:15:00 PM 9.79 49.622 0.064 7.1
4/30/2023 10:30:00 PM 9.73 49.514 0.065 7.1
4/30/2023 10:45:00 PM 9.68 49.424 0.065 7.08
4/30/2023 11:00:00 PM 9.62 49.316 0.065 7.11
4/30/2023 11:15:00 PM 9.57 49.226 0.065 7.11
4/30/2023 11:30:00 PM 9.51 49.118 0.064 7.11
4/30/2023 11:45:00 PM 9.46 49.028 0.064 7.11
5/1/2023 12:00:00 AM 9.4 48.92 0.064 7.11
5/1/2023 12:15:00 AM 9.35 48.83 0.064 7.08
5/1/2023 12:30:00 AM 9.3 48.74 0.064 7.09
5/1/2023 12:45:00 AM 9.24 48.632 0.064 7.11
5/1/2023 1:00:00 AM 9.18 48.524 0.064 7.11
5/1/2023 1:15:00 AM 9.12 48.416 0.064 7.11
5/1/2023 1:30:00 AM 9.07 48.326 0.064 7.13
5/1/2023 1:45:00 AM 9.02 48.236 0.064 7.12
5/1/2023 2:00:00 AM 8.96 48.128 0.064 7.11
5/1/2023 2:15:00 AM 8.91 48.038 0.064 7.12
5/1/2023 2:30:00 AM 8.86 47.948 0.064 7.12
5/1/2023 2:45:00 AM 8.82 47.876 0.064 7.12
5/1/2023 3:00:00 AM 8.77 47.786 0.064 7.12
5/1/2023 3:15:00 AM 8.72 47.696 0.064 7.11
5/1/2023 3:30:00 AM 8.68 47.624 0.064 7.13
5/1/2023 3:45:00 AM 8.64 47.552 0.064 7.09
5/1/2023 4:00:00 AM 8.59 47.462 0.064 7.13
5/1/2023 4:15:00 AM 8.55 47.39 0.064 7.11
5/1/2023 4:30:00 AM 8.51 47.318 0.064 7.18
5/1/2023 4:45:00 AM 8.48 47.264 0.064 7.19
5/1/2023 5:00:00 AM 8.44 47.192 0.064 7.19
5/1/2023 5:15:00 AM 8.41 47.138 0.064 7.21
5/1/2023 5:30:00 AM 8.37 47.066 0.064 7.22
5/1/2023 5:45:00 AM 8.34 47.012 0.064 7.16
5/1/2023 6:00:00 AM 8.3 46.94 0.064 7.15
5/1/2023 6:15:00 AM 8.29 46.922 0.064 7.19
5/1/2023 6:30:00 AM 8.27 46.886 0.064 7.21
5/1/2023 6:45:00 AM 8.26 46.868 0.063 7.2
5/1/2023 7:00:00 AM 8.27 46.886 0.063 7.22
5/1/2023 7:15:00 AM 8.27 46.886 0.063 7.24
5/1/2023 7:30:00 AM 8.29 46.922 0.063 7.24
5/1/2023 7:45:00 AM 8.31 46.958 0.063 7.23
5/1/2023 8:00:00 AM 8.32 46.976 0.063 7.27
5/1/2023 8:15:00 AM 8.34 47.012 0.063 7.27
5/1/2023 8:30:00 AM 8.37 47.066 0.063 7.28
5/1/2023 8:45:00 AM 8.39 47.102 0.063 7.28
5/1/2023 9:00:00 AM 8.44 47.192 0.063 7.29
5/1/2023 9:15:00 AM 8.59 47.462 0.062 7.28
5/1/2023 9:30:00 AM 8.73 47.714 0.062 7.32
5/1/2023 9:45:00 AM 8.75 47.75 0.062 7.28
5/1/2023 10:00:00 AM 8.82 47.876 0.062 7.32
5/1/2023 10:15:00 AM 8.89 48.002 0.062 7.3
5/1/2023 10:30:00 AM 8.85 47.93 0.061 7.32
5/1/2023 10:45:00 AM 8.91 48.038 0.061 7.34
5/1/2023 11:00:00 AM 9.1 48.38 0.061 7.33
5/1/2023 11:15:00 AM 9.18 48.524 0.061 7.33
5/1/2023 11:30:00 AM 9.18 48.524 0.061 7.38
5/1/2023 11:45:00 AM 9.51 49.118 0.061 7.36
5/1/2023 12:00:00 PM 9.66 49.388 0.061 7.33
5/1/2023 12:15:00 PM 9.82 49.676 0.061 7.31
5/1/2023 12:30:00 PM 10.08 50.144 0.06 7.34
5/1/2023 12:45:00 PM 10.23 50.414 0.06 7.34
5/1/2023 1:00:00 PM 10.54 50.972 0.06 7.35
5/1/2023 1:15:00 PM 10.72 51.296 0.06 7.33
5/1/2023 1:30:00 PM 10.76 51.368 0.06 7.31
5/1/2023 1:45:00 PM 10.72 51.296 0.06 7.36
5/1/2023 2:00:00 PM 10.74 51.332 0.057 7.3
5/1/2023 2:15:00 PM 10.81 51.458 0.06 7.3
5/1/2023 2:30:00 PM 10.63 51.134 0.06 7.31
5/1/2023 2:45:00 PM 10.68 51.224 0.06 7.35
5/1/2023 3:00:00 PM 10.64 51.152 0.06 7.32
5/1/2023 3:15:00 PM 10.57 51.026 0.06 7.33
5/1/2023 3:30:00 PM 10.5 50.9 0.059 7.3
5/1/2023 3:45:00 PM 10.44 50.792 0.059 7.29
5/1/2023 4:00:00 PM 10.4 50.72 0.059 7.31
5/1/2023 4:15:00 PM 10.32 50.576 0.059 7.32
5/1/2023 4:30:00 PM 10.27 50.486 0.059 7.31
5/1/2023 4:45:00 PM 10.23 50.414 0.059 7.23
5/1/2023 5:00:00 PM 10.17 50.306 0.059 7.27
5/1/2023 5:15:00 PM 10.11 50.198 0.059 7.25
5/1/2023 5:30:00 PM 10.07 50.126 0.059 7.24
5/1/2023 5:45:00 PM 10.01 50.018 0.059 7.24
5/1/2023 6:00:00 PM 9.95 49.91 0.059 7.24
5/1/2023 6:15:00 PM 9.88 49.784 0.059 7.19
5/1/2023 6:30:00 PM 9.8 49.64 0.059 7.21
5/1/2023 6:45:00 PM 9.71 49.478 0.06 7.17
5/1/2023 7:00:00 PM 9.62 49.316 0.06 7.16
5/1/2023 7:15:00 PM 9.54 49.172 0.06 7.15
5/1/2023 7:30:00 PM 9.47 49.046 0.06 7.15
5/1/2023 7:45:00 PM 9.4 48.92 0.06 7.14
5/1/2023 8:00:00 PM 9.35 48.83 0.059 7.13
5/1/2023 8:15:00 PM 9.29 48.722 0.056 7.06
5/1/2023 8:30:00 PM 9.25 48.65 0.059 7.14
5/1/2023 8:45:00 PM 9.21 48.578 0.059 7.1
5/1/2023 9:00:00 PM 9.16 48.488 0.059 7.08
5/1/2023 9:15:00 PM 9.11 48.398 0.059 7.13
5/1/2023 9:30:00 PM 9.06 48.308 0.059 7.1
5/1/2023 9:45:00 PM 9.02 48.236 0.059 7.09
5/1/2023 10:00:00 PM 8.96 48.128 0.059 7.1
5/1/2023 10:15:00 PM 8.91 48.038 0.059 7.09
5/1/2023 10:30:00 PM 8.85 47.93 0.059 7.1
5/1/2023 10:45:00 PM 8.79 47.822 0.059 7.11
5/1/2023 11:00:00 PM 8.74 47.732 0.059 7.09
5/1/2023 11:15:00 PM 8.69 47.642 0.059 7.06
5/1/2023 11:30:00 PM 8.63 47.534 0.059 7.08
5/1/2023 11:45:00 PM 8.58 47.444 0.059 7.1
5/2/2023 12:00:00 AM 8.53 47.354 0.059 7.07
5/2/2023 12:15:00 AM 8.48 47.264 0.059 7.09
5/2/2023 12:30:00 AM 8.43 47.174 0.059 7.1
5/2/2023 12:45:00 AM 8.38 47.084 0.059 7.07
5/2/2023 1:00:00 AM 8.32 46.976 0.059 7.11
5/2/2023 1:15:00 AM 8.27 46.886 0.059 7.11
5/2/2023 1:30:00 AM 8.22 46.796 0.059 7.11
5/2/2023 1:45:00 AM 8.16 46.688 0.059 7.1
5/2/2023 2:00:00 AM 8.1 46.58 0.058 7.13
5/2/2023 2:15:00 AM 8.05 46.49 0.055 7.04
5/2/2023 2:30:00 AM 8 46.4 0.058 7.19
5/2/2023 2:45:00 AM 7.95 46.31 0.058 7.11
5/2/2023 3:00:00 AM 7.9 46.22 0.058 7.09
5/2/2023 3:15:00 AM 7.86 46.148 0.058 7.08
5/2/2023 3:30:00 AM 7.81 46.058 0.058 7.13
5/2/2023 3:45:00 AM 7.76 45.968 0.058 7.06
5/2/2023 4:00:00 AM 7.72 45.896 0.058 7.08
5/2/2023 4:15:00 AM 7.67 45.806 0.058 7.06
5/2/2023 4:30:00 AM 7.62 45.716 0.058 7.08
5/2/2023 4:45:00 AM 7.58 45.644 0.058 7.07
5/2/2023 5:00:00 AM 7.55 45.59 0.058 7.08
5/2/2023 5:15:00 AM 7.51 45.518 0.058 7.08
5/2/2023 5:30:00 AM 7.47 45.446 0.058 7.08
5/2/2023 5:45:00 AM 7.44 45.392 0.058 7.09
5/2/2023 6:00:00 AM 7.42 45.356 0.058 7.09
5/2/2023 6:15:00 AM 7.41 45.338 0.058 7.1
5/2/2023 6:30:00 AM 7.39 45.302 0.058 7.15
5/2/2023 6:45:00 AM 7.38 45.284 0.058 7.2
5/2/2023 7:00:00 AM 7.39 45.302 0.058 7.12
5/2/2023 7:15:00 AM 7.4 45.32 0.058 7.14
5/2/2023 7:30:00 AM 7.4 45.32 0.058 7.15
5/2/2023 7:45:00 AM 7.41 45.338 0.058 7.18
5/2/2023 8:00:00 AM 7.42 45.356 0.058 7.18
5/2/2023 8:15:00 AM 7.45 45.41 0.058 7.15
5/2/2023 8:30:00 AM 7.47 45.446 0.058 7.2
5/2/2023 8:45:00 AM 7.54 45.572 0.057 7.2
5/2/2023 9:00:00 AM 7.58 45.644 0.057 7.22
5/2/2023 9:15:00 AM 7.65 45.77 0.057 7.22
5/2/2023 9:30:00 AM 7.7 45.86 0.057 7.23
5/2/2023 9:45:00 AM 7.73 45.914 0.057 7.23
5/2/2023 10:00:00 AM 7.75 45.95 0.057 7.2
5/2/2023 10:15:00 AM 7.8 46.04 0.057 7.24
5/2/2023 10:30:00 AM 7.85 46.13 0.057 7.21
5/2/2023 10:45:00 AM 7.86 46.148 0.057 7.24
5/2/2023 11:00:00 AM 7.89 46.202 0.057 7.24
5/2/2023 11:15:00 AM 7.99 46.382 0.056 7.22
5/2/2023 11:30:00 AM 8.17 46.706 0.056 7.24
5/2/2023 11:45:00 AM 8.32 46.976 0.056 7.25
5/2/2023 12:00:00 PM 8.43 47.174 0.056 7.25
5/2/2023 12:15:00 PM 8.49 47.282 0.056 7.25
5/2/2023 12:30:00 PM 8.54 47.372 0.056 7.25
5/2/2023 12:45:00 PM 8.61 47.498 0.056 7.26
5/2/2023 1:00:00 PM 8.72 47.696 0.056 7.26
5/2/2023 1:15:00 PM 8.92 48.056 0.056 7.26
5/2/2023 1:30:00 PM 8.9 48.02 0.056 7.25
5/2/2023 1:45:00 PM 8.87 47.966 0.055 7.24
5/2/2023 2:00:00 PM 8.89 48.002 0.055 7.22
5/2/2023 2:15:00 PM 8.93 48.074 0.055 7.24
5/2/2023 2:30:00 PM 8.99 48.182 0.055 7.24
5/2/2023 2:45:00 PM 9.04 48.272 0.055 7.25
5/2/2023 3:00:00 PM 8.99 48.182 0.055 7.2
5/2/2023 3:15:00 PM 9.04 48.272 0.055 7.24
5/2/2023 3:30:00 PM 9.09 48.362 0.055 7.24
5/2/2023 3:45:00 PM 9.08 48.344 0.055 7.19
5/2/2023 4:00:00 PM 9.08 48.344 0.055 7.24
5/2/2023 4:15:00 PM 9.05 48.29 0.055 7.18
5/2/2023 4:30:00 PM 9.02 48.236 0.054 7.2
5/2/2023 4:45:00 PM 9 48.2 0.054 7.2
5/2/2023 5:00:00 PM 8.96 48.128 0.054 7.2
5/2/2023 5:15:00 PM 8.92 48.056 0.054 7.19
5/2/2023 5:30:00 PM 8.89 48.002 0.054 7.19
5/2/2023 5:45:00 PM 8.86 47.948 0.054 7.17
5/2/2023 6:00:00 PM 8.83 47.894 0.054 7.17
5/2/2023 6:15:00 PM 8.81 47.858 0.054 7.14
5/2/2023 6:30:00 PM 8.78 47.804 0.054 7.14
5/2/2023 6:45:00 PM 8.74 47.732 0.054 7.08
5/2/2023 7:00:00 PM 8.7 47.66 0.054 7.11
5/2/2023 7:15:00 PM 8.67 47.606 0.054 7.1
5/2/2023 7:30:00 PM 8.62 47.516 0.055 7.07
5/2/2023 7:45:00 PM 8.57 47.426 0.055 7.06
5/2/2023 8:00:00 PM 8.52 47.336 0.054 7.06
5/2/2023 8:15:00 PM 8.47 47.246 0.054 7.06
5/2/2023 8:30:00 PM 8.42 47.156 0.054 7.02
5/2/2023 8:45:00 PM 8.38 47.084 0.054 7.05
5/2/2023 9:00:00 PM 8.33 46.994 0.054 7.04
5/2/2023 9:15:00 PM 8.29 46.922 0.054 7.03
5/2/2023 9:30:00 PM 8.24 46.832 0.054 7.04
5/2/2023 9:45:00 PM 8.19 46.742 0.054 7.04
5/2/2023 10:00:00 PM 8.15 46.67 0.054 7.03
5/2/2023 10:15:00 PM 8.1 46.58 0.054 7.03
5/2/2023 10:30:00 PM 8.05 46.49 0.054 7.03
5/2/2023 10:45:00 PM 8.01 46.418 0.051 7
5/2/2023 11:00:00 PM 7.96 46.328 0.054 7.04
5/2/2023 11:15:00 PM 7.92 46.256 0.054 7.03
5/2/2023 11:30:00 PM 7.87 46.166 0.054 7.03
5/2/2023 11:45:00 PM 7.83 46.094 0.054 7.03
5/3/2023 12:00:00 AM 7.79 46.022 0.054 7.04
5/3/2023 12:15:00 AM 7.75 45.95 0.054 7.04
5/3/2023 12:30:00 AM 7.71 45.878 0.054 7.01
5/3/2023 12:45:00 AM 7.67 45.806 0.054 7.05
5/3/2023 1:00:00 AM 7.62 45.716 0.054 7.03
5/3/2023 1:15:00 AM 7.58 45.644 0.054 7.03
5/3/2023 1:30:00 AM 7.54 45.572 0.054 7.04
5/3/2023 1:45:00 AM 7.5 45.5 0.054 7.03
5/3/2023 2:00:00 AM 7.46 45.428 0.054 7.04
5/3/2023 2:15:00 AM 7.43 45.374 0.054 7.03
5/3/2023 2:30:00 AM 7.39 45.302 0.054 7
5/3/2023 2:45:00 AM 7.36 45.248 0.054 7.02
5/3/2023 3:00:00 AM 7.32 45.176 0.054 7.02
5/3/2023 3:15:00 AM 7.29 45.122 0.054 7.02
5/3/2023 3:30:00 AM 7.26 45.068 0.054 7.02
5/3/2023 3:45:00 AM 7.22 44.996 0.054 6.99
5/3/2023 4:00:00 AM 7.19 44.942 0.054 7.03
5/3/2023 4:15:00 AM 7.16 44.888 0.053 7.02
5/3/2023 4:30:00 AM 7.13 44.834 0.053 7.02
5/3/2023 4:45:00 AM 7.11 44.798 0.053 7.02
5/3/2023 5:00:00 AM 7.08 44.744 0.053 7.02
5/3/2023 5:15:00 AM 7.05 44.69 0.053 7.02
5/3/2023 5:30:00 AM 7.02 44.636 0.053 7.03
5/3/2023 5:45:00 AM 6.99 44.582 0.053 7.04
5/3/2023 6:00:00 AM 6.97 44.546 0.053 7.03
5/3/2023 6:15:00 AM 6.96 44.528 0.053 7.05
5/3/2023 6:30:00 AM 6.96 44.528 0.053 7.07
5/3/2023 6:45:00 AM 6.97 44.546 0.053 7.08
5/3/2023 7:00:00 AM 6.97 44.546 0.053 7.08
5/3/2023 7:15:00 AM 6.98 44.564 0.053 7.1
5/3/2023 7:30:00 AM 6.99 44.582 0.053 7.07
5/3/2023 7:45:00 AM 7.01 44.618 0.052 7.12
5/3/2023 8:00:00 AM 7.03 44.654 0.053 7.12
5/3/2023 8:15:00 AM 7.05 44.69 0.053 7.09
5/3/2023 8:30:00 AM 7.07 44.726 0.053 7.14
5/3/2023 8:45:00 AM 7.09 44.762 0.053 7.14
5/3/2023 9:00:00 AM 7.12 44.816 0.052 7.14
5/3/2023 9:15:00 AM 7.16 44.888 0.052 7.15
5/3/2023 9:30:00 AM 7.23 45.014 0.052 7.12
5/3/2023 9:45:00 AM 7.31 45.158 0.052 7.16
5/3/2023 10:00:00 AM 7.34 45.212 0.052 7.16
5/3/2023 10:15:00 AM 7.52 45.536 0.049 7.13
5/3/2023 10:30:00 AM 7.61 45.698 0.052 7.17
5/3/2023 10:45:00 AM 7.8 46.04 0.052 7.18
5/3/2023 11:00:00 AM 7.89 46.202 0.052 7.17
5/3/2023 11:15:00 AM 8.04 46.472 0.052 7.18
5/3/2023 11:30:00 AM 8.24 46.832 0.052 7.18
5/3/2023 11:45:00 AM 8.21 46.778 0.052 7.16
5/3/2023 12:00:00 PM 8.42 47.156 0.052 7.16
5/3/2023 12:15:00 PM 8.32 46.976 0.052 7.17 4.42 11.54
5/3/2023 12:30:00 PM 8.22 46.796 0.051 7.17 4.49 11.53
5/3/2023 12:45:00 PM 8.31 46.958 0.051 7.12 4.51 11.53
5/3/2023 1:00:00 PM 8.22 46.796 0.051 7.16 4.57 11.5
5/3/2023 1:15:00 PM 8.32 46.976 0.051 7.15 4.79 11.5
5/3/2023 1:30:00 PM 8.6 47.48 0.051 7.15 5.05 11.49
5/3/2023 1:45:00 PM 8.63 47.534 0.051 7.15 5.74 11.46
5/3/2023 2:00:00 PM 8.81 47.858 0.051 7.17 5.24 11.42
5/3/2023 2:15:00 PM 9.02 48.236 0.051 7.18 5.19 11.4
5/3/2023 2:30:00 PM 9.22 48.596 0.052 7.18 5.25 11.35
5/3/2023 2:45:00 PM 9.31 48.758 0.052 7.18 7.18 11.33
5/3/2023 3:00:00 PM 9.33 48.794 0.051 7.16 7.97 11.29
5/3/2023 3:15:00 PM 9.32 48.776 0.048 7.17 7.08 11.24
5/3/2023 4:00:00 PM 9.33 48.794 0.051 7.14 5.06 11.16
5/3/2023 4:15:00 PM 9.37 48.866 0.051 7.16 5.04 11.17
5/3/2023 4:30:00 PM 9.3 48.74 0.051 7.15 5.08 11.15
5/3/2023 4:45:00 PM 9.25 48.65 0.051 7.14 5.19 11.15
5/3/2023 5:00:00 PM 9.24 48.632 0.051 7.14 5.2 11.17
5/3/2023 5:15:00 PM 9.23 48.614 0.051 7.12 5.38 11.17
5/3/2023 5:30:00 PM 9.21 48.578 0.051 7.14 5.22 11.16
5/3/2023 5:45:00 PM 9.21 48.578 0.051 7.12 5.31 11.14
5/3/2023 6:00:00 PM 9.2 48.56 0.051 7.12 5.34 11.11
5/3/2023 6:15:00 PM 9.17 48.506 0.051 7.11 5.37 11.08
5/3/2023 6:30:00 PM 9.13 48.434 0.051 7.07 5.41 11.05
5/3/2023 6:45:00 PM 9.09 48.362 0.051 7.07 5.32 11.04
5/3/2023 7:00:00 PM 9.03 48.254 0.051 7.06 5.44 11.03
5/3/2023 7:15:00 PM 8.96 48.128 0.052 7.05 5.27 11.02
5/3/2023 7:30:00 PM 8.9 48.02 0.052 7 5.35 11.01
5/3/2023 7:45:00 PM 8.82 47.876 0.049 7 9.53 11.02
5/3/2023 8:00:00 PM 8.76 47.768 0.051 7.02 5.58 11.03
5/3/2023 8:15:00 PM 8.7 47.66 0.051 6.97 5.56 11.03
5/3/2023 8:30:00 PM 8.66 47.588 0.051 7.01 5.71 11.04
5/3/2023 8:45:00 PM 8.62 47.516 0.048 6.96 11.87 11.06
5/3/2023 9:00:00 PM 8.58 47.444 0.052 7.01 5.74 11.07
5/3/2023 9:15:00 PM 8.53 47.354 0.052 7.03 5.47 11.08
5/3/2023 9:30:00 PM 8.49 47.282 0.052 7 4.62 11.09
5/3/2023 9:45:00 PM 8.44 47.192 0.049 6.95 5.53 11.1
5/3/2023 10:00:00 PM 8.4 47.12 0.049 6.96 8.2 11.12
5/3/2023 10:15:00 PM 8.35 47.03 0.052 6.99 5.4 11.13
5/3/2023 10:30:00 PM 8.31 46.958 0.052 6.98 5.16 11.14
5/3/2023 10:45:00 PM 8.26 46.868 0.052 6.99 5.28 11.16
5/3/2023 11:00:00 PM 8.22 46.796 0.052 6.98 5.2 11.17
5/3/2023 11:15:00 PM 8.18 46.724 0.052 6.97 5.18 11.19
5/3/2023 11:30:00 PM 8.14 46.652 0.052 6.98 5.16 11.2
5/3/2023 11:45:00 PM 8.1 46.58 0.052 6.99 5.25 11.22
5/4/2023 12:00:00 AM 8.06 46.508 0.052 6.95 5.14 11.23
5/4/2023 12:15:00 AM 8.03 46.454 0.049 6.96 8.22 11.24
5/4/2023 12:30:00 AM 7.99 46.382 0.052 6.99 5.15 11.25
5/4/2023 12:45:00 AM 7.96 46.328 0.052 6.95 5.11 11.27
5/4/2023 1:00:00 AM 7.92 46.256 0.052 6.99 5.15 11.28
5/4/2023 1:15:00 AM 7.89 46.202 0.052 6.99 5.04 11.29
5/4/2023 1:30:00 AM 7.86 46.148 0.052 6.94 5 11.3
5/4/2023 1:45:00 AM 7.82 46.076 0.052 6.99 5.04 11.31
5/4/2023 2:00:00 AM 7.79 46.022 0.052 6.99 5.09 11.32
5/4/2023 2:15:00 AM 7.76 45.968 0.052 6.99 4.93 11.33
5/4/2023 2:30:00 AM 7.73 45.914 0.052 6.94 4.99 11.34
5/4/2023 2:45:00 AM 7.7 45.86 0.052 6.99 4.87 11.35
5/4/2023 3:00:00 AM 7.68 45.824 0.052 6.99 4.81 11.36
5/4/2023 3:15:00 AM 7.65 45.77 0.052 6.99 4.87 11.37
5/4/2023 3:30:00 AM 7.63 45.734 0.052 6.94 4.8 11.38
5/4/2023 3:45:00 AM 7.61 45.698 0.052 6.97 4.76 11.39
5/4/2023 4:00:00 AM 7.59 45.662 0.052 6.98 4.81 11.39
5/4/2023 4:15:00 AM 7.57 45.626 0.052 6.99 4.82 11.4
5/4/2023 4:30:00 AM 7.56 45.608 0.052 6.97 4.81 11.41
5/4/2023 4:45:00 AM 7.54 45.572 0.052 6.96 4.73 11.42
5/4/2023 5:00:00 AM 7.52 45.536 0.051 6.97 4.86 11.42
5/4/2023 5:15:00 AM 7.5 45.5 0.051 6.96 4.72 11.44
5/4/2023 5:30:00 AM 7.49 45.482 0.051 6.97 4.66 11.45
5/4/2023 5:45:00 AM 7.48 45.464 0.051 7 4.68 11.48
5/4/2023 6:00:00 AM 7.47 45.446 0.051 6.96 4.55 11.5
5/4/2023 6:15:00 AM 7.47 45.446 0.051 7 4.6 11.53
5/4/2023 6:30:00 AM 7.48 45.464 0.051 7.02 4.55 11.57
5/4/2023 6:45:00 AM 7.49 45.482 0.051 7.03 4.48 11.6
5/4/2023 7:00:00 AM 7.52 45.536 0.051 7.04 4.36 11.63
5/4/2023 7:15:00 AM 7.55 45.59 0.051 7.03 4.38 11.67
5/4/2023 7:30:00 AM 7.59 45.662 0.051 7.05 4.36 11.69
5/4/2023 7:45:00 AM 7.68 45.824 0.051 7.08 4.53 11.71
5/4/2023 8:00:00 AM 7.72 45.896 0.051 7.1 6.95 11.71
5/4/2023 8:15:00 AM 7.73 45.914 0.051 7.11 4.23 11.69
5/4/2023 8:30:00 AM 7.74 45.932 0.051 7.1 4.21 11.68
5/4/2023 8:45:00 AM 7.81 46.058 0.051 7.06 4.17 11.69
5/4/2023 9:00:00 AM 7.92 46.256 0.051 7.12 4.11 11.7
5/4/2023 9:15:00 AM 7.96 46.328 0.051 7.12 4.26 11.71
5/4/2023 9:30:00 AM 8.01 46.418 0.051 7.13 4.16 11.7
5/4/2023 9:45:00 AM 8.2 46.76 0.051 7.14 4.04 11.7
5/4/2023 10:00:00 AM 8.29 46.922 0.051 7.15 4.06 11.69
5/4/2023 10:15:00 AM 8.36 47.048 0.051 7.14 4.12 11.67
5/4/2023 10:30:00 AM 8.56 47.408 0.051 7.16 4.02 11.65
5/4/2023 10:45:00 AM 8.64 47.552 0.05 7.14 4.05 11.62
5/4/2023 11:00:00 AM 8.82 47.876 0.05 7.16 4.03 11.58
5/4/2023 11:15:00 AM 8.92 48.056 0.05 7.16 4 11.56
5/4/2023 11:30:00 AM 9.12 48.416 0.05 7.15 3.98 11.52
5/4/2023 11:45:00 AM 9.46 49.028 0.05 7.14 3.93 11.47
5/4/2023 12:00:00 PM 9.59 49.262 0.05 7.16 3.93 11.43
5/4/2023 12:15:00 PM 9.92 49.856 0.05 7.17 3.88 11.36
5/4/2023 12:30:00 PM 10.18 50.324 0.05 7.17 3.95 11.31
5/4/2023 12:45:00 PM 10.24 50.432 0.05 7.15 3.96 11.24
5/4/2023 1:00:00 PM 10.41 50.738 0.05 7.16 3.99 11.21
5/4/2023 1:15:00 PM 10.59 51.062 0.05 7.17 4.04 11.19
5/4/2023 1:30:00 PM 10.7 51.26 0.05 7.16 3.97 11.17
5/4/2023 1:45:00 PM 10.89 51.602 0.05 7.18 3.95 11.11
5/4/2023 2:00:00 PM 11.28 52.304 0.05 7.17 4.1 11.04
5/4/2023 2:15:00 PM 11.29 52.322 0.05 7.17 3.97 10.95
5/4/2023 2:30:00 PM 11.35 52.43 0.05 7.16 4.04 10.94
5/4/2023 2:45:00 PM 11.4 52.52 0.049 7.15 4.05 10.94
5/4/2023 3:00:00 PM 11.32 52.376 0.049 7.16 4.13 10.89
5/4/2023 3:15:00 PM 11.27 52.286 0.049 7.12 4.19 10.84
5/4/2023 3:30:00 PM 11.26 52.268 0.049 7.15 4.23 10.86
5/4/2023 3:45:00 PM 11.38 52.484 0.049 7.16 4.47 10.88
5/4/2023 4:00:00 PM 11.46 52.628 0.049 7.16 4.29 10.84
5/4/2023 4:15:00 PM 11.51 52.718 0.049 7.15 4.26 10.81
5/4/2023 4:30:00 PM 11.55 52.79 0.049 7.16 4.35 10.81
5/4/2023 4:45:00 PM 11.51 52.718 0.049 7.15 4.41 10.81
5/4/2023 5:00:00 PM 11.42 52.556 0.049 7.12 4.28 10.79
5/4/2023 5:15:00 PM 11.33 52.394 0.05 7.13 4.41 10.78
5/4/2023 5:30:00 PM 11.23 52.214 0.05 7.11 4.37 10.77
5/4/2023 5:45:00 PM 11.14 52.052 0.049 7.11 4.34 10.78
5/4/2023 6:00:00 PM 11.06 51.908 0.049 7.11 4.42 10.79
5/4/2023 6:15:00 PM 10.99 51.782 0.049 7.08 4.42 10.79
5/4/2023 6:30:00 PM 10.91 51.638 0.049 7.09 4.58 10.78
5/4/2023 6:45:00 PM 10.83 51.494 0.049 7.12 4.5 10.76
5/4/2023 7:00:00 PM 10.75 51.35 0.05 7.06 4.43 10.75
5/4/2023 7:15:00 PM 10.66 51.188 0.05 7.05 4.49 10.73
5/4/2023 7:30:00 PM 10.57 51.026 0.05 7.06 4.57 10.73
5/4/2023 7:45:00 PM 10.49 50.882 0.05 7.11 4.61 10.72
5/4/2023 8:00:00 PM 10.41 50.738 0.05 7.1 4.74 10.72
5/4/2023 8:15:00 PM 10.33 50.594 0.05 7.11 4.78 10.72
5/4/2023 8:30:00 PM 10.25 50.45 0.05 7.07 4.81 10.73
5/4/2023 8:45:00 PM 10.18 50.324 0.05 7.13 4.84 10.75
5/4/2023 9:00:00 PM 10.11 50.198 0.05 7.08 4.71 10.76
5/4/2023 9:15:00 PM 10.04 50.072 0.05 7.04 4.73 10.78
5/4/2023 9:30:00 PM 9.97 49.946 0.05 7.05 4.69 10.8
5/4/2023 9:45:00 PM 9.91 49.838 0.05 7.05 4.76 10.82
5/4/2023 10:00:00 PM 9.85 49.73 0.05 7.05 4.83 10.84
5/4/2023 10:15:00 PM 9.79 49.622 0.05 7.05 4.74 10.85
5/4/2023 10:30:00 PM 9.73 49.514 0.05 7.05 4.76 10.86
5/4/2023 10:45:00 PM 9.66 49.388 0.05 7.05 4.74 10.9
5/4/2023 11:00:00 PM 9.6 49.28 0.05 7.05 4.75 10.91
5/4/2023 11:15:00 PM 9.53 49.154 0.05 7.07 4.55 10.93
5/4/2023 11:30:00 PM 9.45 49.01 0.05 6.89 4.56 10.96
5/4/2023 11:45:00 PM 9.38 48.884 0.05 6.95 4.51 10.98
5/5/2023 12:00:00 AM 9.32 48.776 0.05 6.94 4.49 11
5/5/2023 12:15:00 AM 9.27 48.686 0.05 6.96 4.56 11.02
5/5/2023 12:30:00 AM 9.21 48.578 0.05 6.97 4.48 11.03
5/5/2023 12:45:00 AM 9.16 48.488 0.05 6.96 4.5 11.05
5/5/2023 1:00:00 AM 9.1 48.38 0.05 6.97 4.47 11.07
5/5/2023 1:15:00 AM 9.04 48.272 0.05 6.97 4.48 11.08
5/5/2023 1:30:00 AM 8.98 48.164 0.05 6.97 4.48 11.1
5/5/2023 1:45:00 AM 8.92 48.056 0.051 6.97 4.56 11.12
5/5/2023 2:00:00 AM 8.86 47.948 0.051 6.98 4.39 11.14
5/5/2023 2:15:00 AM 8.8 47.84 0.051 6.94 4.43 11.16
5/5/2023 2:30:00 AM 8.74 47.732 0.051 6.99 4.39 11.18
5/5/2023 2:45:00 AM 8.68 47.624 0.051 6.97 4.36 11.2
5/5/2023 3:00:00 AM 8.61 47.498 0.051 6.96 4.37 11.22
5/5/2023 3:15:00 AM 8.55 47.39 0.051 6.98 4.26 11.24
5/5/2023 3:30:00 AM 8.49 47.282 0.051 6.96 4.24 11.25
5/5/2023 3:45:00 AM 8.43 47.174 0.051 7 4.25 11.27
5/5/2023 4:00:00 AM 8.37 47.066 0.051 6.99 4.21 11.3
5/5/2023 4:15:00 AM 8.3 46.94 0.051 6.99 4.31 11.31
5/5/2023 4:30:00 AM 8.24 46.832 0.051 6.99 4.2 11.34
5/5/2023 4:45:00 AM 8.18 46.724 0.051 6.96 4.14 11.35
5/5/2023 5:00:00 AM 8.12 46.616 0.051 6.97 4.18 11.38
5/5/2023 5:15:00 AM 8.05 46.49 0.051 7 4.18 11.4
5/5/2023 5:30:00 AM 7.99 46.382 0.051 6.96 4.03 11.43
5/5/2023 5:45:00 AM 7.94 46.292 0.051 6.98 3.95 11.46
5/5/2023 6:00:00 AM 7.89 46.202 0.05 7.02 3.96 11.51
5/5/2023 6:15:00 AM 7.85 46.13 0.05 7.01 3.89 11.56
5/5/2023 6:30:00 AM 7.82 46.076 0.05 7.03 3.87 11.61
5/5/2023 6:45:00 AM 7.8 46.04 0.05 7.04 3.78 11.65
5/5/2023 7:00:00 AM 7.78 46.004 0.05 7.04 3.74 11.7
5/5/2023 7:15:00 AM 7.79 46.022 0.05 7.06 3.73 11.76
5/5/2023 7:30:00 AM 7.83 46.094 0.05 7.14 3.59 11.8
5/5/2023 7:45:00 AM 7.87 46.166 0.05 7.16 3.67 11.83
5/5/2023 8:00:00 AM 7.85 46.13 0.05 7.19 3.56 11.85
5/5/2023 8:15:00 AM 7.88 46.184 0.05 7.13 3.48 11.85
5/5/2023 8:30:00 AM 7.93 46.274 0.05 7.21 3.58 11.86
5/5/2023 8:45:00 AM 7.98 46.364 0.05 7.23 3.58 11.86
5/5/2023 9:00:00 AM 8.09 46.562 0.05 7.23 3.48 11.85
5/5/2023 9:15:00 AM 8.23 46.814 0.05 7.23 3.53 11.83
5/5/2023 9:30:00 AM 8.38 47.084 0.05 7.24 3.69 11.82
5/5/2023 9:45:00 AM 8.54 47.372 0.05 7.2 3.43 11.8
5/5/2023 10:00:00 AM 8.7 47.66 0.05 7.24 3.49 11.77
5/5/2023 10:15:00 AM 8.69 47.642 0.05 7.24 3.37 11.77
5/5/2023 10:30:00 AM 8.91 48.038 0.05 7.21 3.32 11.73
5/5/2023 10:45:00 AM 8.9 48.02 0.05 7.25 3.46 11.71
5/5/2023 11:00:00 AM 9.04 48.272 0.049 7.17 3.47 11.7
5/5/2023 11:15:00 AM 9.04 48.272 0.049 7.26 3.39 11.66
5/5/2023 11:30:00 AM 9.3 48.74 0.049 7.19 3.6 11.62
5/5/2023 11:45:00 AM 9.36 48.848 0.049 7.25 3.36 11.56
5/5/2023 12:00:00 PM 9.52 49.136 0.05 7.26 3.27 11.52
5/5/2023 12:15:00 PM 9.66 49.388 0.05 7.21 3.26 11.45
5/5/2023 12:30:00 PM 9.76 49.568 0.05 7.24 3.21 11.36
5/5/2023 12:45:00 PM 9.91 49.838 0.049 7.23 3.29 11.32
5/5/2023 1:00:00 PM 10.03 50.054 0.049 7.19 3.26 11.34
5/5/2023 1:15:00 PM 10.19 50.342 0.049 7.26 3.36 11.34
5/5/2023 1:30:00 PM 10.46 50.828 0.049 7.28 3.32 11.33
5/5/2023 1:45:00 PM 10.5 50.9 0.049 7.27 3.41 11.29
5/5/2023 2:00:00 PM 10.75 51.35 0.049 7.29 3.32 11.28
5/5/2023 2:15:00 PM 10.93 51.674 0.049 7.26 3.3 11.25
5/5/2023 2:30:00 PM 11.02 51.836 0.049 7.28 3.36 11.19
5/5/2023 2:45:00 PM 11.04 51.872 0.049 7.29 3.48 11.15
5/5/2023 3:00:00 PM 11.14 52.052 0.049 7.32 3.91 11.13
5/5/2023 3:15:00 PM 11.27 52.286 0.049 7.27 3.44 11.11
5/5/2023 3:30:00 PM 11.17 52.106 0.049 7.27 3.66 11.08
5/5/2023 3:45:00 PM 11.11 51.998 0.049 7.2 3.57 11.05
5/5/2023 4:00:00 PM 11.06 51.908 0.049 7.22 3.53 11.04
5/5/2023 4:15:00 PM 11.04 51.872 0.049 7.21 3.55 11.05
5/5/2023 4:30:00 PM 11.13 52.034 0.049 7.24 3.62 11.07
5/5/2023 4:45:00 PM 11.16 52.088 0.049 7.24 3.68 11.07
5/5/2023 5:00:00 PM 11.12 52.016 0.049 7.23 3.73 11.04
5/5/2023 5:15:00 PM 11.1 51.98 0.049 7.21 3.56 10.98
5/5/2023 5:30:00 PM 11.07 51.926 0.049 7.16 3.49 10.93
5/5/2023 5:45:00 PM 11 51.8 0.049 7.15 3.59 10.88
5/5/2023 6:00:00 PM 10.91 51.638 0.049 7.13 3.72 10.87
5/5/2023 6:15:00 PM 10.82 51.476 0.049 7.12 3.58 10.85
5/5/2023 6:30:00 PM 10.73 51.314 0.049 7.04 3.66 10.84
5/5/2023 6:45:00 PM 10.66 51.188 0.049 7.07 3.67 10.83
5/5/2023 7:00:00 PM 10.59 51.062 0.049 7.03 3.62 10.82
5/5/2023 7:15:00 PM 10.52 50.936 0.049 7.03 3.71 10.81
5/5/2023 7:30:00 PM 10.42 50.756 0.049 7.04 3.79 10.8
5/5/2023 7:45:00 PM 10.32 50.576 0.049 7.04 3.98 10.81
5/5/2023 8:00:00 PM 10.24 50.432 0.049 7.01 3.94 10.81
5/5/2023 8:15:00 PM 10.16 50.288 0.049 7.01 4.06 10.82
5/5/2023 8:30:00 PM 10.08 50.144 0.049 7 3.93 10.83
5/5/2023 8:45:00 PM 10.01 50.018 0.049 7.01 3.93 10.84
5/5/2023 9:00:00 PM 9.93 49.874 0.05 6.98 4.09 10.86
5/5/2023 9:15:00 PM 9.85 49.73 0.05 7 4.18 10.89
5/5/2023 9:30:00 PM 9.77 49.586 0.05 6.92 4.15 10.91
5/5/2023 9:45:00 PM 9.69 49.442 0.05 6.99 4.19 10.92
5/5/2023 10:00:00 PM 9.61 49.298 0.05 7 4.29 10.96
5/5/2023 10:15:00 PM 9.52 49.136 0.05 7.01 4.26 10.99
5/5/2023 10:30:00 PM 9.43 48.974 0.05 6.94 4.33 11
5/5/2023 10:45:00 PM 9.34 48.812 0.05 6.97 4.41 11.03
5/5/2023 11:00:00 PM 9.26 48.668 0.05 7 4.51 11.06
5/5/2023 11:15:00 PM 9.18 48.524 0.05 6.95 4.09 11.08
5/5/2023 11:30:00 PM 9.1 48.38 0.05 6.99 4.35 11.11
5/5/2023 11:45:00 PM 9.01 48.218 0.05 7.02 4.02 11.13
5/6/2023 12:00:00 AM 8.94 48.092 0.05 6.98 4 11.16
5/6/2023 12:15:00 AM 8.86 47.948 0.05 6.98 3.9 11.18
5/6/2023 12:30:00 AM 8.78 47.804 0.05 7 3.9 11.2
5/6/2023 12:45:00 AM 8.71 47.678 0.05 6.98 3.92 11.22
5/6/2023 1:00:00 AM 8.63 47.534 0.051 6.98 3.91 11.25
5/6/2023 1:15:00 AM 8.54 47.372 0.051 6.97 3.89 11.27
5/6/2023 1:30:00 AM 8.46 47.228 0.051 6.95 4.2 11.29
5/6/2023 1:45:00 AM 8.39 47.102 0.051 7 3.91 11.32
5/6/2023 2:00:00 AM 8.29 46.922 0.051 7 3.81 11.35
5/6/2023 2:15:00 AM 8.22 46.796 0.051 6.99 3.78 11.38
5/6/2023 2:30:00 AM 8.15 46.67 0.051 6.95 3.75 11.4
5/6/2023 2:45:00 AM 8.08 46.544 0.051 6.97 3.83 11.42
5/6/2023 3:00:00 AM 8.02 46.436 0.051 6.96 3.64 11.45
5/6/2023 3:15:00 AM 7.96 46.328 0.051 7.01 3.59 11.47
5/6/2023 3:30:00 AM 7.9 46.22 0.051 6.99 3.65 11.49
5/6/2023 3:45:00 AM 7.84 46.112 0.051 6.95 3.6 11.51
5/6/2023 4:00:00 AM 7.79 46.022 0.051 7.02 3.54 11.53
5/6/2023 4:15:00 AM 7.73 45.914 0.051 7 3.56 11.54
5/6/2023 4:30:00 AM 7.67 45.806 0.051 6.97 3.53 11.57
5/6/2023 4:45:00 AM 7.6 45.68 0.046 6.96 4.87 11.58
5/6/2023 5:00:00 AM 7.54 45.572 0.051 6.99 3.4 11.61
5/6/2023 5:15:00 AM 7.48 45.464 0.051 7 3.52 11.63
5/6/2023 5:30:00 AM 7.43 45.374 0.051 7.01 3.37 11.67
5/6/2023 5:45:00 AM 7.38 45.284 0.051 7.02 3.35 11.71
5/6/2023 6:00:00 AM 7.35 45.23 0.051 7.03 3.38 11.75
5/6/2023 6:15:00 AM 7.32 45.176 0.051 6.97 3.28 11.8
5/6/2023 6:30:00 AM 7.29 45.122 0.051 7.05 3.28 11.85
5/6/2023 6:45:00 AM 7.27 45.086 0.05 7.04 3.25 11.9
5/6/2023 7:00:00 AM 7.26 45.068 0.05 7.07 3.25 11.96
5/6/2023 7:15:00 AM 7.27 45.086 0.05 7.09 3.14 12
5/6/2023 7:30:00 AM 7.29 45.122 0.05 7.06 3.22 12.04
5/6/2023 7:45:00 AM 7.31 45.158 0.05 7.12 3.12 12.06
5/6/2023 8:00:00 AM 7.28 45.104 0.05 7.09 3.04 12.06
5/6/2023 8:15:00 AM 7.31 45.158 0.05 7.12 3.05 12.07
5/6/2023 8:30:00 AM 7.38 45.284 0.05 7.15 2.97 12.07
5/6/2023 8:45:00 AM 7.47 45.446 0.05 7.14 2.91 12.07
5/6/2023 9:00:00 AM 7.6 45.68 0.05 7.13 2.97 12.06
5/6/2023 9:15:00 AM 7.74 45.932 0.05 7.11 3.07 12.05
5/6/2023 9:30:00 AM 7.9 46.22 0.05 7.13 2.99 12.03
5/6/2023 9:45:00 AM 8.08 46.544 0.05 7.18 3 12
5/6/2023 10:00:00 AM 8.28 46.904 0.05 7.18 2.97 11.96
5/6/2023 10:15:00 AM 8.5 47.3 0.05 7.18 2.94 11.91
5/6/2023 10:30:00 AM 8.73 47.714 0.05 7.2 2.87 11.87
5/6/2023 10:45:00 AM 8.98 48.164 0.05 7.19 2.85 11.81
5/6/2023 11:00:00 AM 9.24 48.632 0.05 7.19 2.92 11.75
5/6/2023 11:15:00 AM 9.52 49.136 0.05 7.21 2.88 11.69
5/6/2023 11:30:00 AM 9.82 49.676 0.05 7.23 2.83 11.63
5/6/2023 11:45:00 AM 10.14 50.252 0.05 7.22 2.91 11.55
5/6/2023 12:00:00 PM 10.46 50.828 0.05 7.24 2.89 11.46
5/6/2023 12:15:00 PM 10.8 51.44 0.05 7.24 2.94 11.38
5/6/2023 12:30:00 PM 11.16 52.088 0.05 7.26 2.9 11.3
5/6/2023 12:45:00 PM 11.52 52.736 0.05 7.24 2.89 11.21
5/6/2023 1:00:00 PM 11.88 53.384 0.05 7.27 2.96 11.13
5/6/2023 1:15:00 PM 12.23 54.014 0.049 7.28 2.98 11.04
5/6/2023 1:30:00 PM 12.56 54.608 0.049 7.29 2.9 10.96
5/6/2023 1:45:00 PM 12.88 55.184 0.049 7.29 3 10.88
5/6/2023 2:00:00 PM 13.16 55.688 0.049 7.25 3.09 10.81
5/6/2023 2:15:00 PM 13.39 56.102 0.049 7.31 3.07 10.74
5/6/2023 2:30:00 PM 13.6 56.48 0.049 7.32 3.12 10.68
5/6/2023 2:45:00 PM 13.74 56.732 0.049 7.33 3.3 10.61
5/6/2023 3:00:00 PM 13.9 57.02 0.049 7.3 3.04 10.57
5/6/2023 3:15:00 PM 14.01 57.218 0.049 7.34 3.15 10.53
5/6/2023 3:30:00 PM 14.05 57.29 0.049 7.34 3.15 10.49
5/6/2023 3:45:00 PM 14.07 57.326 0.049 7.33 3.13 10.46
5/6/2023 4:00:00 PM 14.02 57.236 0.049 7.32 3.3 10.43
5/6/2023 4:15:00 PM 13.9 57.02 0.049 7.27 3.23 10.41
5/6/2023 4:30:00 PM 13.82 56.876 0.049 7.3 3.24 10.41
5/6/2023 4:45:00 PM 13.75 56.75 0.049 7.3 3.34 10.4
5/6/2023 5:00:00 PM 13.69 56.642 0.049 7.28 3.25 10.4
5/6/2023 5:15:00 PM 13.64 56.552 0.049 7.28 3.28 10.38
5/6/2023 5:30:00 PM 13.58 56.444 0.049 7.27 3.29 10.37
5/6/2023 5:45:00 PM 13.47 56.246 0.05 7.24 3.37 10.34
5/6/2023 6:00:00 PM 13.36 56.048 0.05 7.22 3.48 10.32
5/6/2023 6:15:00 PM 13.25 55.85 0.05 7.18 3.37 10.3
5/6/2023 6:30:00 PM 13.14 55.652 0.05 7.16 3.4 10.28
5/6/2023 6:45:00 PM 13.03 55.454 0.05 7.15 3.33 10.26
5/6/2023 7:00:00 PM 12.94 55.292 0.05 7.12 3.46 10.23
5/6/2023 7:15:00 PM 12.86 55.148 0.05 7.09 3.45 10.21
5/6/2023 7:30:00 PM 12.77 54.986 0.05 7.08 3.56 10.19
5/6/2023 7:45:00 PM 12.67 54.806 0.05 7.07 3.61 10.17
5/6/2023 8:00:00 PM 12.57 54.626 0.05 7.02 3.74 10.18
5/6/2023 8:15:00 PM 12.47 54.446 0.05 7.01 3.68 10.19
5/6/2023 8:30:00 PM 12.38 54.284 0.05 7.04 3.77 10.2
5/6/2023 8:45:00 PM 12.28 54.104 0.05 7.02 3.73 10.22
5/6/2023 9:00:00 PM 12.18 53.924 0.05 7.01 3.81 10.23
5/6/2023 9:15:00 PM 12.07 53.726 0.051 6.99 3.79 10.25
5/6/2023 9:30:00 PM 11.97 53.546 0.051 7.01 3.9 10.28
5/6/2023 9:45:00 PM 11.86 53.348 0.051 6.99 3.91 10.31
5/6/2023 10:00:00 PM 11.75 53.15 0.051 6.99 3.95 10.33
5/6/2023 10:15:00 PM 11.65 52.97 0.051 7 3.87 10.36
5/6/2023 10:30:00 PM 11.54 52.772 0.051 7.02 3.92 10.38
5/6/2023 10:45:00 PM 11.44 52.592 0.051 6.92 3.78 10.41
5/6/2023 11:00:00 PM 11.34 52.412 0.051 7.01 3.81 10.44
5/6/2023 11:15:00 PM 11.24 52.232 0.051 7.01 3.84 10.46
5/6/2023 11:30:00 PM 11.13 52.034 0.051 6.98 3.86 10.49
5/6/2023 11:45:00 PM 11.03 51.854 0.051 7 3.77 10.52
5/7/2023 12:00:00 AM 10.92 51.656 0.051 7.01 3.7 10.55
5/7/2023 12:15:00 AM 10.8 51.44 0.051 6.99 3.69 10.58
5/7/2023 12:30:00 AM 10.69 51.242 0.051 7 3.71 10.61
5/7/2023 12:45:00 AM 10.59 51.062 0.051 7 3.88 10.64
5/7/2023 1:00:00 AM 10.48 50.864 0.051 7.02 3.72 10.67
5/7/2023 1:15:00 AM 10.37 50.666 0.051 6.97 3.68 10.7
5/7/2023 1:30:00 AM 10.26 50.468 0.051 7.01 3.64 10.72
5/7/2023 1:45:00 AM 10.15 50.27 0.051 7.02 3.82 10.76
5/7/2023 2:00:00 AM 10.05 50.09 0.051 7.02 3.74 10.78
5/7/2023 2:15:00 AM 9.95 49.91 0.051 6.98 3.85 10.82
5/7/2023 2:30:00 AM 9.84 49.712 0.051 7.01 3.68 10.85
5/7/2023 2:45:00 AM 9.74 49.532 0.051 7.01 3.67 10.87
5/7/2023 3:00:00 AM 9.64 49.352 0.051 7 3.66 10.91
5/7/2023 3:15:00 AM 9.53 49.154 0.051 7 3.59 10.94
5/7/2023 3:30:00 AM 9.43 48.974 0.051 6.95 3.6 10.96
5/7/2023 3:45:00 AM 9.33 48.794 0.051 7.01 3.7 10.99
5/7/2023 4:00:00 AM 9.23 48.614 0.051 7.01 3.53 11.01
5/7/2023 4:15:00 AM 9.14 48.452 0.051 6.94 3.66 11.04
5/7/2023 4:30:00 AM 9.05 48.29 0.051 7.01 3.57 11.07
5/7/2023 4:45:00 AM 8.96 48.128 0.051 6.94 3.59 11.09
5/7/2023 5:00:00 AM 8.87 47.966 0.051 7 3.49 11.12
5/7/2023 5:15:00 AM 8.8 47.84 0.051 7 3.55 11.15
5/7/2023 5:30:00 AM 8.74 47.732 0.051 7.02 3.42 11.19
5/7/2023 5:45:00 AM 8.68 47.624 0.051 7.02 3.32 11.23
5/7/2023 6:00:00 AM 8.64 47.552 0.051 7.02 3.28 11.28
5/7/2023 6:15:00 AM 8.59 47.462 0.051 7.02 3.29 11.32
5/7/2023 6:30:00 AM 8.56 47.408 0.051 7 3.24 11.36
5/7/2023 6:45:00 AM 8.54 47.372 0.051 7.07 3.26 11.41
5/7/2023 7:00:00 AM 8.51 47.318 0.051 7.08 3.18 11.46
5/7/2023 7:15:00 AM 8.51 47.318 0.051 7.07 3.05 11.51
5/7/2023 7:30:00 AM 8.53 47.354 0.048 7.08 7.59 11.56
5/7/2023 7:45:00 AM 8.54 47.372 0.051 7.1 3.03 11.6
5/7/2023 8:00:00 AM 8.57 47.426 0.051 7.12 3.03 11.63
5/7/2023 8:15:00 AM 8.61 47.498 0.051 7.19 2.95 11.66
5/7/2023 8:30:00 AM 8.63 47.534 0.051 7.18 2.92 11.65
5/7/2023 8:45:00 AM 8.66 47.588 0.051 7.19 2.9 11.66
5/7/2023 9:00:00 AM 8.67 47.606 0.051 7.17 2.86 11.64
5/7/2023 9:15:00 AM 8.73 47.714 0.051 7.2 2.82 11.65
5/7/2023 9:30:00 AM 8.77 47.786 0.05 7.23 2.87 11.65
5/7/2023 9:45:00 AM 8.85 47.93 0.05 7.24 2.84 11.67
5/7/2023 10:00:00 AM 8.99 48.182 0.05 7.24 2.78 11.67
5/7/2023 10:15:00 AM 9.1 48.38 0.05 7.23 2.81 11.65
5/7/2023 10:30:00 AM 9.18 48.524 0.05 7.25 2.84 11.62
5/7/2023 10:45:00 AM 9.28 48.704 0.05 7.25 2.9 11.6
5/7/2023 11:00:00 AM 9.35 48.83 0.05 7.27 2.88 11.56
5/7/2023 11:15:00 AM 9.4 48.92 0.05 7.25 2.88 11.53
5/7/2023 11:30:00 AM 9.44 48.992 0.05 7.25 2.72 11.49
5/7/2023 11:45:00 AM 9.47 49.046 0.05 7.27 2.78 11.45
5/7/2023 12:00:00 PM 9.52 49.136 0.05 7.24 2.79 11.41
5/7/2023 12:15:00 PM 9.57 49.226 0.05 7.22 2.77 11.41
5/7/2023 12:30:00 PM 9.59 49.262 0.05 7.26 2.75 11.34
5/7/2023 12:45:00 PM 9.61 49.298 0.05 7.2 2.8 11.3
5/7/2023 1:00:00 PM 9.63 49.334 0.05 7.2 2.77 11.24
5/7/2023 1:15:00 PM 9.68 49.424 0.05 7.21 2.77 11.25
5/7/2023 1:30:00 PM 9.73 49.514 0.05 7.22 2.88 11.28
5/7/2023 1:45:00 PM 9.76 49.568 0.05 7.22 2.76 11.24
5/7/2023 2:00:00 PM 9.79 49.622 0.05 7.23 2.79 11.22
5/7/2023 2:15:00 PM 9.82 49.676 0.05 7.16 2.9 11.19
5/7/2023 2:30:00 PM 9.88 49.784 0.05 7.21 2.8 11.21
5/7/2023 2:45:00 PM 9.92 49.856 0.05 7.24 2.93 11.21
5/7/2023 3:00:00 PM 9.94 49.892 0.05 7.16 2.83 11.17
5/7/2023 3:15:00 PM 9.95 49.91 0.051 7.17 2.81 11.11
5/7/2023 3:30:00 PM 9.97 49.946 0.051 7.19 2.78 11.09
5/7/2023 3:45:00 PM 10 50 0.051 7.18 2.85 11.1
5/7/2023 4:00:00 PM 10.05 50.09 0.05 7.14 2.7 11.14
5/7/2023 4:15:00 PM 10.08 50.144 0.05 7.23 2.74 11.15
5/7/2023 4:30:00 PM 10.11 50.198 0.05 7.2 2.85 11.13
5/7/2023 4:45:00 PM 10.18 50.324 0.05 7.24 2.8 11.14
5/7/2023 5:00:00 PM 10.23 50.414 0.05 7.2 2.83 11.14
5/7/2023 5:15:00 PM 10.25 50.45 0.05 7.2 2.8 11.11
5/7/2023 5:30:00 PM 10.27 50.486 0.05 7.23 2.84 11.06
5/7/2023 5:45:00 PM 10.29 50.522 0.05 7.21 2.87 11.01
5/7/2023 6:00:00 PM 10.32 50.576 0.05 7.2 2.9 10.99
5/7/2023 6:15:00 PM 10.33 50.594 0.05 7.18 2.79 10.97
5/7/2023 6:30:00 PM 10.34 50.612 0.05 7.17 2.78 10.91
5/7/2023 6:45:00 PM 10.34 50.612 0.05 7.1 2.91 10.85
5/7/2023 7:00:00 PM 10.34 50.612 0.05 7.1 2.88 10.8
5/7/2023 7:15:00 PM 10.33 50.594 0.051 7.06 2.97 10.76
5/7/2023 7:30:00 PM 10.32 50.576 0.051 7.06 3.11 10.74
5/7/2023 7:45:00 PM 10.3 50.54 0.051 7.02 3.14 10.71
5/7/2023 8:00:00 PM 10.29 50.522 0.051 7.04 3.03 10.7
5/7/2023 8:15:00 PM 10.28 50.504 0.051 7.02 3.13 10.68
5/7/2023 8:30:00 PM 10.27 50.486 0.051 7.02 3.03 10.68
5/7/2023 8:45:00 PM 10.27 50.486 0.051 6.98 3.12 10.67
5/7/2023 9:00:00 PM 10.27 50.486 0.051 7.03 3.15 10.66
5/7/2023 9:15:00 PM 10.27 50.486 0.051 7 3.43 10.66
5/7/2023 9:30:00 PM 10.27 50.486 0.051 6.96 3.59 10.65
5/7/2023 9:45:00 PM 10.26 50.468 0.051 6.98 3.43 10.65
5/7/2023 10:00:00 PM 10.26 50.468 0.051 6.93 3.53 10.64
5/7/2023 10:15:00 PM 10.25 50.45 0.051 6.93 3.52 10.65
5/7/2023 10:30:00 PM 10.25 50.45 0.051 6.98 3.16 10.65
5/7/2023 10:45:00 PM 10.23 50.414 0.051 6.92 3.49 10.65
5/7/2023 11:00:00 PM 10.23 50.414 0.051 6.98 3.38 10.65
5/7/2023 11:15:00 PM 10.22 50.396 0.051 6.95 3.24 10.66
5/7/2023 11:30:00 PM 10.2 50.36 0.051 6.92 3.45 10.66
5/7/2023 11:45:00 PM 10.19 50.342 0.051 6.99 3.2 10.66
5/8/2023 12:00:00 AM 10.17 50.306 0.051 6.92 3.18 10.66
5/8/2023 12:15:00 AM 10.15 50.27 0.051 6.95 3.17 10.66
5/8/2023 12:30:00 AM 10.12 50.216 0.052 6.98 3.09 10.67
5/8/2023 12:45:00 AM 10.1 50.18 0.052 6.98 3.28 10.68
5/8/2023 1:00:00 AM 10.09 50.162 0.052 6.98 3.19 10.68
5/8/2023 1:15:00 AM 10.08 50.144 0.052 6.93 3.09 10.68
5/8/2023 1:30:00 AM 10.06 50.108 0.052 6.98 3.11 10.69
5/8/2023 1:45:00 AM 10.05 50.09 0.052 6.98 3.15 10.69
5/8/2023 2:00:00 AM 10.03 50.054 0.052 6.98 3.06 10.7
5/8/2023 2:15:00 AM 10.03 50.054 0.052 6.97 3.13 10.7
5/8/2023 2:30:00 AM 10.02 50.036 0.052 6.98 3.07 10.7
5/8/2023 2:45:00 AM 10.01 50.018 0.052 6.96 3.06 10.7
5/8/2023 3:00:00 AM 10.01 50.018 0.052 6.96 3.16 10.71
5/8/2023 3:15:00 AM 10 50 0.052 6.96 3.12 10.71
5/8/2023 3:30:00 AM 10 50 0.052 6.97 3.16 10.72
5/8/2023 3:45:00 AM 9.99 49.982 0.052 6.92 3.11 10.72
5/8/2023 4:00:00 AM 9.98 49.964 0.052 6.97 3.07 10.73
5/8/2023 4:15:00 AM 9.97 49.946 0.052 6.98 3.12 10.73
5/8/2023 4:30:00 AM 9.97 49.946 0.052 6.94 3.14 10.72
5/8/2023 4:45:00 AM 9.97 49.946 0.052 7 3.09 10.73
5/8/2023 5:00:00 AM 9.97 49.946 0.052 6.99 3.19 10.73
5/8/2023 5:15:00 AM 9.95 49.91 0.052 6.93 3.08 10.74
5/8/2023 5:30:00 AM 9.94 49.892 0.052 7 3.07 10.77
5/8/2023 5:45:00 AM 9.94 49.892 0.052 6.94 3.08 10.79
5/8/2023 6:00:00 AM 9.94 49.892 0.052 6.99 3.06 10.82
5/8/2023 6:15:00 AM 9.94 49.892 0.052 7.02 2.87 10.86
5/8/2023 6:30:00 AM 9.96 49.928 0.052 6.98 2.99 10.91
5/8/2023 6:45:00 AM 9.98 49.964 0.052 7.08 3.01 10.95
5/8/2023 7:00:00 AM 10 50 0.052 7.11 2.9 11
5/8/2023 7:15:00 AM 10.04 50.072 0.052 7.1 2.92 11.05
5/8/2023 7:30:00 AM 10.05 50.09 0.052 7.11 2.83 11.06
5/8/2023 7:45:00 AM 10.07 50.126 0.052 7.12 2.92 11.06
5/8/2023 8:00:00 AM 10.09 50.162 0.052 7.13 2.85 11.08
5/8/2023 8:15:00 AM 10.12 50.216 0.052 7.2 2.81 11.1
5/8/2023 8:30:00 AM 10.14 50.252 0.052 7.2 2.81 11.11
5/8/2023 8:45:00 AM 10.17 50.306 0.052 7.22 2.76 11.13
5/8/2023 9:00:00 AM 10.21 50.378 0.052 7.24 2.79 11.16
5/8/2023 9:15:00 AM 10.28 50.504 0.051 7.2 2.82 11.19
5/8/2023 9:30:00 AM 10.41 50.738 0.051 7.29 2.8 11.23
5/8/2023 9:45:00 AM 10.62 51.116 0.051 7.29 2.79 11.24
5/8/2023 10:00:00 AM 10.79 51.422 0.051 7.3 2.82 11.21
5/8/2023 10:15:00 AM 11.04 51.872 0.051 7.36 2.84 11.18
5/8/2023 10:30:00 AM 11.33 52.394 0.051 7.34 2.8 11.15
5/8/2023 10:45:00 AM 11.65 52.97 0.051 7.37 2.75 11.09
5/8/2023 11:00:00 AM 11.95 53.51 0.051 7.38 2.77 11.04
5/8/2023 11:15:00 AM 12.18 53.924 0.051 7.37 2.8 11
5/8/2023 11:30:00 AM 12.45 54.41 0.051 7.39 42.12 10.95
5/8/2023 11:45:00 AM 12.66 54.788 0.051 7.4 17.76 10.89
5/8/2023 12:00:00 PM 13.08 55.544 0.051 7.36 2.7 10.83
5/8/2023 12:15:00 PM 13.28 55.904 0.051 7.43 2.86 10.77
5/8/2023 12:30:00 PM 13.62 56.516 0.051 7.45 2.72 10.71
5/8/2023 12:45:00 PM 13.74 56.732 0.051 7.44 2.82 10.63
5/8/2023 1:00:00 PM 13.96 57.128 0.051 7.45 2.72 10.58
5/8/2023 1:15:00 PM 14.39 57.902 0.051 7.42 2.72 10.53
5/8/2023 1:30:00 PM 14.35 57.83 0.051 7.48 2.8 10.49
5/8/2023 1:45:00 PM 14.33 57.794 0.051 7.49 2.87 10.45
5/8/2023 2:00:00 PM 14.54 58.172 0.052 7.48 2.72 10.4
5/8/2023 2:15:00 PM 15 59 0.052 7.51 2.7 10.34
5/8/2023 2:30:00 PM 15.44 59.792 0.051 7.53 2.86 10.27
5/8/2023 2:45:00 PM 15.49 59.882 0.051 7.53 2.75 10.21
5/8/2023 3:00:00 PM 15.54 59.972 0.051 7.45 2.83 10.17
5/8/2023 3:15:00 PM 15.48 59.864 0.051 7.5 2.87 10.15
5/8/2023 3:30:00 PM 15.37 59.666 0.051 7.49 2.84 10.15
5/8/2023 3:45:00 PM 15.46 59.828 0.051 7.51 2.84 10.14
5/8/2023 4:00:00 PM 15.51 59.918 0.051 7.48 2.81 10.07
5/8/2023 4:15:00 PM 15.59 60.062 0.051 7.47 2.86 10.04
5/8/2023 4:30:00 PM 15.52 59.936 0.051 7.42 2.87 9.98
5/8/2023 4:45:00 PM 15.46 59.828 0.051 7.41 2.74 9.97
5/8/2023 5:00:00 PM 15.37 59.666 0.051 7.42 2.95 9.99
5/8/2023 5:15:00 PM 15.24 59.432 0.051 7.42 2.98 10.02
5/8/2023 5:30:00 PM 15.14 59.252 0.051 7.4 2.89 10.03
5/8/2023 5:45:00 PM 15.04 59.072 0.051 7.39 2.89 10
5/8/2023 6:00:00 PM 14.94 58.892 0.051 7.37 2.9 9.97
5/8/2023 6:15:00 PM 14.83 58.694 0.051 7.34 2.98 9.94
5/8/2023 6:30:00 PM 14.7 58.46 0.051 7.3 2.93 9.93
5/8/2023 6:45:00 PM 14.58 58.244 0.051 7.28 2.98 9.89
5/8/2023 7:00:00 PM 14.47 58.046 0.051 7.25 3.02 9.85
5/8/2023 7:15:00 PM 14.37 57.866 0.051 7.2 2.88 9.81
5/8/2023 7:30:00 PM 14.26 57.668 0.051 7.18 2.95 9.77
5/8/2023 7:45:00 PM 14.15 57.47 0.052 7.15 3.13 9.75
5/8/2023 8:00:00 PM 14.04 57.272 0.052 7.13 3.2 9.74
5/8/2023 8:15:00 PM 13.93 57.074 0.052 7.09 3.15 9.74
5/8/2023 8:30:00 PM 13.82 56.876 0.052 7.07 3.15 9.75
5/8/2023 8:45:00 PM 13.72 56.696 0.052 7.05 3.39 9.76
5/8/2023 9:00:00 PM 13.62 56.516 0.052 7.05 3.3 9.77
5/8/2023 9:15:00 PM 13.52 56.336 0.052 7.04 3.21 9.8
5/8/2023 9:30:00 PM 13.42 56.156 0.052 7.03 3.25 9.82
5/8/2023 9:45:00 PM 13.32 55.976 0.052 7.04 3.41 9.84
5/8/2023 10:00:00 PM 13.23 55.814 0.052 7.02 3.32 9.86
5/8/2023 10:15:00 PM 13.15 55.67 0.052 7.03 3.3 9.88
5/8/2023 10:30:00 PM 13.06 55.508 0.053 7.02 3.32 9.9
5/8/2023 10:45:00 PM 12.98 55.364 0.053 7.01 3.35 9.92
5/8/2023 11:00:00 PM 12.9 55.22 0.053 7.02 3.34 9.94
5/8/2023 11:15:00 PM 12.81 55.058 0.053 7.03 3.43 9.97
5/8/2023 11:30:00 PM 12.73 54.914 0.053 6.94 3.53 9.99
5/8/2023 11:45:00 PM 12.63 54.734 0.053 6.97 3.46 10
5/9/2023 12:00:00 AM 12.54 54.572 0.053 7.01 3.29 10.03
5/9/2023 12:15:00 AM 12.45 54.41 0.053 7.03 3.46 10.05
5/9/2023 12:30:00 AM 12.35 54.23 0.053 7.02 3.43 10.08
5/9/2023 12:45:00 AM 12.26 54.068 0.053 7.02 3.4 10.1
5/9/2023 1:00:00 AM 12.18 53.924 0.053 7.03 3.35 10.13
5/9/2023 1:15:00 AM 12.1 53.78 0.053 7.04 3.24 10.15
5/9/2023 1:30:00 AM 12.02 53.636 0.053 7.04 3.36 10.17
5/9/2023 1:45:00 AM 11.95 53.51 0.053 7.04 3.4 10.19
5/9/2023 2:00:00 AM 11.87 53.366 0.053 6.99 3.28 10.21
5/9/2023 2:15:00 AM 11.8 53.24 0.053 7.04 3.24 10.23
5/9/2023 2:30:00 AM 11.73 53.114 0.053 7.04 3.25 10.25
5/9/2023 2:45:00 AM 11.66 52.988 0.053 7.01 3.34 10.26
5/9/2023 3:00:00 AM 11.59 52.862 0.053 7.05 3.24 10.29
5/9/2023 3:15:00 AM 11.52 52.736 0.053 7.04 3.3 10.3
5/9/2023 3:30:00 AM 11.46 52.628 0.053 7.05 3.2 10.32
5/9/2023 3:45:00 AM 11.39 52.502 0.053 7.01 3.34 10.34
5/9/2023 4:00:00 AM 11.33 52.394 0.053 7.06 3.21 10.36
5/9/2023 4:15:00 AM 11.27 52.286 0.053 7.05 3.18 10.38
5/9/2023 4:30:00 AM 11.21 52.178 0.053 7.04 3.15 10.4
5/9/2023 4:45:00 AM 11.15 52.07 0.053 7.06 3.15 10.41
5/9/2023 5:00:00 AM 11.09 51.962 0.054 7.04 3.17 10.43
5/9/2023 5:15:00 AM 11.03 51.854 0.054 7.05 3.18 10.46
5/9/2023 5:30:00 AM 10.98 51.764 0.053 7.06 2.95 10.5
5/9/2023 5:45:00 AM 10.93 51.674 0.053 7.07 3.12 10.54
5/9/2023 6:00:00 AM 10.89 51.602 0.053 7.08 2.93 10.61
5/9/2023 6:15:00 AM 10.86 51.548 0.053 7.12 2.98 10.68
5/9/2023 6:30:00 AM 10.83 51.494 0.053 7.11 2.91 10.76
5/9/2023 6:45:00 AM 10.82 51.476 0.053 7.13 2.87 10.82
5/9/2023 7:00:00 AM 10.81 51.458 0.053 7.18 2.88 10.89
5/9/2023 7:15:00 AM 10.82 51.476 0.053 7.2 2.88 10.96
5/9/2023 7:30:00 AM 10.86 51.548 0.053 7.24 2.81 11.02
5/9/2023 7:45:00 AM 10.89 51.602 0.053 7.27 2.82 11.07
5/9/2023 8:00:00 AM 10.9 51.62 0.053 7.3 2.76 11.09
5/9/2023 8:15:00 AM 10.96 51.728 0.053 7.31 2.71 11.13
5/9/2023 8:30:00 AM 11.02 51.836 0.053 7.32 2.75 11.16
5/9/2023 8:45:00 AM 11.11 51.998 0.053 7.4 2.8 11.18
5/9/2023 9:00:00 AM 11.18 52.124 0.053 7.43 2.82 11.18
5/9/2023 9:15:00 AM 11.27 52.286 0.053 7.44 2.64 11.19
5/9/2023 9:30:00 AM 11.38 52.484 0.052 7.47 2.73 11.19
5/9/2023 9:45:00 AM 11.51 52.718 0.052 7.51 2.75 11.18
5/9/2023 10:00:00 AM 11.62 52.916 0.052 7.52 2.8 11.17
5/9/2023 10:15:00 AM 11.75 53.15 0.052 7.51 2.79 11.15
5/9/2023 10:30:00 AM 11.89 53.402 0.052 7.51 2.71 11.12
5/9/2023 10:45:00 AM 12.14 53.852 0.052 7.54 2.68 11.09
5/9/2023 11:00:00 AM 12.47 54.446 0.052 7.55 2.83 11.05
5/9/2023 11:15:00 AM 12.69 54.842 0.052 7.56 2.78 10.99
5/9/2023 11:30:00 AM 13.04 55.472 0.052 7.59 2.68 10.93
5/9/2023 11:45:00 AM 13.36 56.048 0.052 7.6 2.72 10.87
5/9/2023 12:00:00 PM 13.67 56.606 0.052 7.62 2.73 10.82
5/9/2023 12:15:00 PM 13.95 57.11 0.052 7.61 2.78 10.76
5/9/2023 12:30:00 PM 14.23 57.614 0.052 7.64 2.72 10.71
5/9/2023 12:45:00 PM 14.49 58.082 0.052 7.66 2.66 10.66
5/9/2023 1:00:00 PM 14.76 58.568 0.052 7.67 2.77 10.6
5/9/2023 1:15:00 PM 15.01 59.018 0.052 7.68 2.77 10.55
5/9/2023 1:30:00 PM 15.26 59.468 0.052 7.69 2.74 10.5
5/9/2023 1:45:00 PM 15.48 59.864 0.052 7.7 2.71 10.44
5/9/2023 2:00:00 PM 15.7 60.26 0.052 7.71 2.62 10.39
5/9/2023 2:15:00 PM 15.9 60.62 0.052 7.71 2.81 10.33
5/9/2023 2:30:00 PM 16.07 60.926 0.052 7.7 2.68 10.28
5/9/2023 2:45:00 PM 16.19 61.142 0.052 7.73 2.79 10.23
5/9/2023 3:00:00 PM 16.29 61.322 0.052 7.73 2.67 10.18
5/9/2023 3:15:00 PM 16.31 61.358 0.052 7.73 2.69 10.13
5/9/2023 3:30:00 PM 16.32 61.376 0.052 7.71 2.68 10.11
5/9/2023 3:45:00 PM 16.31 61.358 0.052 7.69 2.7 10.09
5/9/2023 4:00:00 PM 16.26 61.268 0.052 7.68 2.64 10.06
5/9/2023 4:15:00 PM 16.2 61.16 0.052 7.67 2.73 10.06
5/9/2023 4:30:00 PM 16.11 60.998 0.053 7.66 2.68 10.03
5/9/2023 4:45:00 PM 16.01 60.818 0.053 7.63 2.73 10.03
5/9/2023 5:00:00 PM 15.92 60.656 0.053 7.62 2.73 10.04
5/9/2023 5:15:00 PM 15.78 60.404 0.052 7.6 2.62 10.03
5/9/2023 5:30:00 PM 15.62 60.116 0.052 7.56 103.42 10.02
5/9/2023 5:45:00 PM 15.45 59.81 0.052 7.5 2.73 10
5/9/2023 6:00:00 PM 15.3 59.54 0.052 7.43 2.77 9.98
5/9/2023 6:15:00 PM 15.14 59.252 0.052 7.41 2.77 9.95
5/9/2023 6:30:00 PM 14.97 58.946 0.052 7.37 2.78 9.91
5/9/2023 6:45:00 PM 14.8 58.64 0.052 7.32 2.72 9.87
5/9/2023 7:00:00 PM 14.62 58.316 0.053 7.27 2.78 9.83
5/9/2023 7:15:00 PM 14.44 57.992 0.053 7.24 2.91 9.81
5/9/2023 7:30:00 PM 14.26 57.668 0.053 7.16 2.85 9.79
5/9/2023 7:45:00 PM 14.09 57.362 0.053 7.18 2.95 9.78
5/9/2023 8:00:00 PM 13.93 57.074 0.053 7.16 3.04 9.78
5/9/2023 8:15:00 PM 13.77 56.786 0.053 7.15 2.97 9.79
5/9/2023 8:30:00 PM 13.61 56.498 0.053 7.11 2.89 9.82
5/9/2023 8:45:00 PM 13.46 56.228 0.053 7.12 2.96 9.84
5/9/2023 9:00:00 PM 13.31 55.958 0.054 7.1 2.98 9.87
5/9/2023 9:15:00 PM 13.17 55.706 0.054 7.03 2.98 9.9
5/9/2023 9:30:00 PM 13.04 55.472 0.054 7.1 3.12 9.93
5/9/2023 9:45:00 PM 12.9 55.22 0.054 7.09 3.02 9.96
5/9/2023 10:00:00 PM 12.76 54.968 0.054 7.09 2.95 9.99
5/9/2023 10:15:00 PM 12.63 54.734 0.054 7.01 2.97 10.02
5/9/2023 10:30:00 PM 12.5 54.5 0.054 7.05 3.09 10.06
5/9/2023 10:45:00 PM 12.37 54.266 0.054 7.1 3.07 10.09
5/9/2023 11:00:00 PM 12.25 54.05 0.054 7.09 3 10.12
5/9/2023 11:15:00 PM 12.12 53.816 0.054 7 3.06 10.16
5/9/2023 11:30:00 PM 11.99 53.582 0.054 7.09 2.99 10.19
5/9/2023 11:45:00 PM 11.87 53.366 0.054 7.02 3.11 10.22
5/10/2023 12:00:00 AM 11.75 53.15 0.054 7.08 2.94 10.26
5/10/2023 12:15:00 AM 11.62 52.916 0.054 7.07 2.99 10.29
5/10/2023 12:30:00 AM 11.5 52.7 0.054 7.04 3 10.32
5/10/2023 12:45:00 AM 11.38 52.484 0.055 7.08 2.96 10.36
5/10/2023 1:00:00 AM 11.26 52.268 0.055 7.08 2.96 10.4
5/10/2023 1:15:00 AM 11.14 52.052 0.055 7 2.94 10.42
5/10/2023 1:30:00 AM 11.02 51.836 0.055 7.1 2.96 10.45
5/10/2023 1:45:00 AM 10.91 51.638 0.055 7.05 2.94 10.49
5/10/2023 2:00:00 AM 10.79 51.422 0.055 7.08 2.86 10.52
5/10/2023 2:15:00 AM 10.67 51.206 0.055 7.04 2.83 10.55
5/10/2023 2:30:00 AM 10.56 51.008 0.055 7.09 2.82 10.59
5/10/2023 2:45:00 AM 10.45 50.81 0.055 7.08 2.81 10.62
5/10/2023 3:00:00 AM 10.34 50.612 0.055 7.09 2.9 10.65
5/10/2023 3:15:00 AM 10.22 50.396 0.055 7.09 2.83 10.69
5/10/2023 3:30:00 AM 10.11 50.198 0.055 7.09 2.79 10.72
5/10/2023 3:45:00 AM 10 50 0.055 7.04 2.83 10.76
5/10/2023 4:00:00 AM 9.89 49.802 0.055 7.09 2.8 10.78
5/10/2023 4:15:00 AM 9.78 49.604 0.055 7.1 2.75 10.82
5/10/2023 4:30:00 AM 9.67 49.406 0.055 7.02 2.77 10.84
5/10/2023 4:45:00 AM 9.56 49.208 0.055 7.07 2.76 10.87
5/10/2023 5:00:00 AM 9.46 49.028 0.055 7.11 2.76 10.91
5/10/2023 5:15:00 AM 9.36 48.848 0.055 7.08 2.7 10.95
5/10/2023 5:30:00 AM 9.26 48.668 0.055 7.12 2.71 11.02
5/10/2023 5:45:00 AM 9.16 48.488 0.055 7.13 2.57 11.09
5/10/2023 6:00:00 AM 9.07 48.326 0.055 7.11 2.6 11.17
5/10/2023 6:15:00 AM 8.99 48.182 0.055 7.15 2.6 11.26
5/10/2023 6:30:00 AM 8.93 48.074 0.055 7.19 2.62 11.35
5/10/2023 6:45:00 AM 8.89 48.002 0.055 7.2 2.5 11.43
5/10/2023 7:00:00 AM 8.86 47.948 0.055 7.23 2.48 11.51
5/10/2023 7:15:00 AM 8.85 47.93 0.055 7.24 2.48 11.57
5/10/2023 7:30:00 AM 8.85 47.93 0.055 7.27 2.45 11.62
5/10/2023 7:45:00 AM 8.87 47.966 0.055 7.25 2.41 11.67
5/10/2023 8:00:00 AM 8.9 48.02 0.054 7.32 2.46 11.71
5/10/2023 8:15:00 AM 8.95 48.11 0.054 7.33 2.42 11.74
5/10/2023 8:30:00 AM 9.03 48.254 0.054 7.37 2.35 11.77
5/10/2023 8:45:00 AM 9.15 48.47 0.054 7.39 2.49 11.78
5/10/2023 9:00:00 AM 9.3 48.74 0.054 7.34 2.37 11.77
5/10/2023 9:15:00 AM 9.5 49.1 0.054 7.45 2.4 11.76
5/10/2023 9:30:00 AM 9.72 49.496 0.054 7.46 2.37 11.74
5/10/2023 9:45:00 AM 9.95 49.91 0.054 7.51 2.4 11.7
5/10/2023 10:00:00 AM 10.19 50.342 0.054 7.52 2.39 11.67
5/10/2023 10:15:00 AM 10.45 50.81 0.054 7.54 2.43 11.62
5/10/2023 10:30:00 AM 10.73 51.314 0.054 7.55 2.4 11.57
5/10/2023 10:45:00 AM 11.01 51.818 0.054 7.57 2.41 11.51
5/10/2023 11:00:00 AM 11.33 52.394 0.054 7.54 2.38 11.46
5/10/2023 11:15:00 AM 11.65 52.97 0.055 7.58 2.35 11.4
5/10/2023 11:30:00 AM 11.97 53.546 0.055 7.55 2.35 11.34
5/10/2023 11:45:00 AM 12.3 54.14 0.054 7.58 2.45 11.27
5/10/2023 12:00:00 PM 12.62 54.716 0.054 7.63 2.43 11.2
5/10/2023 12:15:00 PM 12.95 55.31 0.054 7.58 2.47 11.13
5/10/2023 12:30:00 PM 13.26 55.868 0.054 7.66 2.43 11.06
5/10/2023 12:45:00 PM 13.58 56.444 0.054 7.65 2.39 11
5/10/2023 1:00:00 PM 13.9 57.02 0.054 7.69 2.34 10.93
5/10/2023 1:15:00 PM 14.21 57.578 0.054 7.72 2.35 10.86
5/10/2023 1:30:00 PM 14.51 58.118 0.054 7.76 2.33 10.79
5/10/2023 1:45:00 PM 14.81 58.658 0.054 7.76 2.71 10.71
5/10/2023 2:00:00 PM 15.1 59.18 0.053 7.78 2.38 10.64
5/10/2023 2:15:00 PM 15.35 59.63 0.053 7.8 2.4 10.57
5/10/2023 2:30:00 PM 15.57 60.026 0.053 7.83 2.43 10.5
5/10/2023 2:45:00 PM 15.76 60.368 0.053 7.82 2.37 10.44
5/10/2023 3:00:00 PM 15.92 60.656 0.053 7.83 2.36 10.38
5/10/2023 3:15:00 PM 16.05 60.89 0.053 7.81 2.45 10.32
5/10/2023 3:30:00 PM 16.12 61.016 0.053 7.85 2.45 10.28
5/10/2023 3:45:00 PM 16.16 61.088 0.053 7.77 2.43 10.23
5/10/2023 4:00:00 PM 16.16 61.088 0.053 7.79 2.44 10.19
5/10/2023 4:15:00 PM 16.15 61.07 0.053 7.76 2.45 10.14
5/10/2023 4:30:00 PM 16.14 61.052 0.053 7.73 2.5 10.13
5/10/2023 4:45:00 PM 16.09 60.962 0.053 7.73 2.43 10.1
5/10/2023 5:00:00 PM 16.06 60.908 0.053 7.74 2.41 10.09
5/10/2023 5:15:00 PM 15.99 60.782 0.053 7.7 2.49 10.08
5/10/2023 5:30:00 PM 15.87 60.566 0.053 7.62 2.42 10.01
5/10/2023 5:45:00 PM 15.76 60.368 0.054 7.53 2.47 9.93
5/10/2023 6:00:00 PM 15.63 60.134 0.054 7.44 2.5 9.88
5/10/2023 6:15:00 PM 15.5 59.9 0.054 7.4 2.43 9.85
5/10/2023 6:30:00 PM 15.35 59.63 0.054 7.33 2.53 9.82
5/10/2023 6:45:00 PM 15.18 59.324 0.054 7.33 2.58 9.8
5/10/2023 7:00:00 PM 14.99 58.982 0.054 7.28 2.56 9.77
5/10/2023 7:15:00 PM 14.8 58.64 0.054 7.24 2.55 9.74
5/10/2023 7:30:00 PM 14.62 58.316 0.054 7.2 2.53 9.71
5/10/2023 7:45:00 PM 14.45 58.01 0.054 7.17 2.73 9.7
5/10/2023 8:00:00 PM 14.28 57.704 0.055 7.08 2.7 9.7
5/10/2023 8:15:00 PM 14.12 57.416 0.055 7.12 2.65 9.71
5/10/2023 8:30:00 PM 13.97 57.146 0.055 7.1 2.63 9.73
5/10/2023 8:45:00 PM 13.81 56.858 0.055 7.08 2.71 9.75
5/10/2023 9:00:00 PM 13.66 56.588 0.055 7.09 2.76 9.78
5/10/2023 9:15:00 PM 13.53 56.354 0.055 7.08 2.7 9.81
5/10/2023 9:30:00 PM 13.4 56.12 0.055 7.08 2.67 9.83
5/10/2023 9:45:00 PM 13.27 55.886 0.055 7.04 2.71 9.87
5/10/2023 10:00:00 PM 13.15 55.67 0.055 7.06 2.8 9.89
5/10/2023 10:15:00 PM 13.03 55.454 0.055 7.06 2.71 9.92
5/10/2023 10:30:00 PM 12.91 55.238 0.055 7.09 2.68 9.95
5/10/2023 10:45:00 PM 12.79 55.022 0.056 7.1 2.74 9.98
5/10/2023 11:00:00 PM 12.66 54.788 0.056 7.09 2.7 10.01
5/10/2023 11:15:00 PM 12.54 54.572 0.056 7.08 2.72 10.04
5/10/2023 11:30:00 PM 12.43 54.374 0.056 7.06 2.7 10.08
5/10/2023 11:45:00 PM 12.31 54.158 0.056 7.08 2.75 10.1
5/11/2023 12:00:00 AM 12.2 53.96 0.056 7.09 2.77 10.14
5/11/2023 12:15:00 AM 12.08 53.744 0.056 7.1 2.68 10.16
5/11/2023 12:30:00 AM 11.97 53.546 0.056 7.01 2.83 10.19
5/11/2023 12:45:00 AM 11.85 53.33 0.056 7.09 2.6 10.23
5/11/2023 1:00:00 AM 11.75 53.15 0.056 7.09 2.64 10.25
5/11/2023 1:15:00 AM 11.64 52.952 0.056 7.09 2.68 10.28
5/11/2023 1:30:00 AM 11.53 52.754 0.056 7.07 2.6 10.31
5/11/2023 1:45:00 AM 11.43 52.574 0.056 7.05 2.68 10.33
5/11/2023 2:00:00 AM 11.32 52.376 0.056 7.05 2.66 10.36
5/11/2023 2:15:00 AM 11.22 52.196 0.056 7.05 2.67 10.39
5/11/2023 2:30:00 AM 11.11 51.998 0.056 7.05 2.62 10.42
5/11/2023 2:45:00 AM 11.01 51.818 0.056 7.04 2.66 10.45
5/11/2023 3:00:00 AM 10.91 51.638 0.056 7.04 2.6 10.48
5/11/2023 3:15:00 AM 10.81 51.458 0.056 7.08 2.59 10.5
5/11/2023 3:30:00 AM 10.71 51.278 0.056 7.03 2.54 10.53
5/11/2023 3:45:00 AM 10.61 51.098 0.056 7.08 2.54 10.56
5/11/2023 4:00:00 AM 10.51 50.918 0.056 7.09 2.55 10.59
5/11/2023 4:15:00 AM 10.41 50.738 0.057 7.06 2.52 10.61
5/11/2023 4:30:00 AM 10.31 50.558 0.057 7.04 2.52 10.65
5/11/2023 4:45:00 AM 10.21 50.378 0.057 7.08 2.56 10.68
5/11/2023 5:00:00 AM 10.11 50.198 0.057 7.09 2.53 10.71
5/11/2023 5:15:00 AM 10.02 50.036 0.057 7.11 2.44 10.76
5/11/2023 5:30:00 AM 9.94 49.892 0.057 7.12 2.48 10.83
5/11/2023 5:45:00 AM 9.86 49.748 0.057 7.12 2.37 10.92
5/11/2023 6:00:00 AM 9.79 49.622 0.057 7.14 2.42 11
5/11/2023 6:15:00 AM 9.73 49.514 0.056 7.15 2.33 11.1
5/11/2023 6:30:00 AM 9.68 49.424 0.056 7.17 2.34 11.19
5/11/2023 6:45:00 AM 9.65 49.37 0.056 7.2 2.32 11.27
5/11/2023 7:00:00 AM 9.64 49.352 0.056 7.26 2.35 11.36
5/11/2023 7:15:00 AM 9.64 49.352 0.056 7.3 2.28 11.41
5/11/2023 7:30:00 AM 9.65 49.37 0.056 7.28 2.22 11.48
5/11/2023 7:45:00 AM 9.69 49.442 0.056 7.33 2.3 11.53
5/11/2023 8:00:00 AM 9.73 49.514 0.057 7.37 2.24 11.56
5/11/2023 8:15:00 AM 9.81 49.658 0.057 7.39 2.2 11.57
5/11/2023 8:30:00 AM 9.9 49.82 0.057 7.41 2.26 11.59
5/11/2023 8:45:00 AM 10.02 50.036 0.056 7.43 2.21 11.6
5/11/2023 9:00:00 AM 10.18 50.324 0.056 7.45 2.23 11.59
5/11/2023 9:15:00 AM 10.39 50.702 0.056 7.48 2.25 11.57
5/11/2023 9:30:00 AM 10.63 51.134 0.056 7.48 2.25 11.54
5/11/2023 9:45:00 AM 10.89 51.602 0.056 7.53 2.21 11.49
5/11/2023 10:00:00 AM 11.19 52.142 0.055 7.52 2.2 11.46
5/11/2023 10:15:00 AM 11.49 52.682 0.055 7.6 2.21 11.42
5/11/2023 10:30:00 AM 11.81 53.258 0.055 7.58 2.22 11.36
5/11/2023 10:45:00 AM 12.15 53.87 0.055 7.64 2.18 11.31
5/11/2023 11:00:00 AM 12.5 54.5 0.055 7.69 2.21 11.26
5/11/2023 11:15:00 AM 12.84 55.112 0.055 7.7 2.25 11.2
5/11/2023 11:30:00 AM 13.18 55.724 0.055 7.75 2.3 11.14
5/11/2023 11:45:00 AM 13.52 56.336 0.055 7.73 2.28 11.07
5/11/2023 12:00:00 PM 13.84 56.912 0.055 7.76 2.2 11.01
5/11/2023 12:15:00 PM 14.16 57.488 0.055 7.82 2.23 10.96
5/11/2023 12:30:00 PM 14.44 57.992 0.055 7.85 2.35 10.91
5/11/2023 12:45:00 PM 14.74 58.532 0.055 7.86 2.21 10.83
5/11/2023 1:00:00 PM 15.13 59.234 0.055 7.9 2.25 10.76
5/11/2023 1:15:00 PM 15.19 59.342 0.055 7.88 2.25 10.62
5/11/2023 1:30:00 PM 15.41 59.738 0.055 7.88 2.27 10.56
5/11/2023 1:45:00 PM 15.59 60.062 0.055 7.88 2.21 10.49
5/11/2023 2:00:00 PM 15.99 60.782 0.055 7.93 2.22 10.44
5/11/2023 2:15:00 PM 16.32 61.376 0.055 7.94 2.39 10.39
5/11/2023 2:30:00 PM 16.72 62.096 0.055 8.04 2.3 10.35
5/11/2023 2:45:00 PM 16.87 62.366 0.055 8.06 2.31 10.27
5/11/2023 3:00:00 PM 17.06 62.708 0.055 8.06 2.3 10.21
5/11/2023 3:15:00 PM 17.02 62.636 0.055 8.08 2.37 10.15
5/11/2023 3:30:00 PM 16.99 62.582 0.055 8.03 2.3 10.1
5/11/2023 3:45:00 PM 16.93 62.474 0.055 7.95 2.4 10.01
5/11/2023 4:00:00 PM 16.9 62.42 0.055 7.75 2.34 9.92
5/11/2023 4:15:00 PM 16.9 62.42 0.055 7.75 2.32 9.88
5/11/2023 4:30:00 PM 16.81 62.258 0.055 7.64 2.39 9.8
5/11/2023 4:45:00 PM 16.74 62.132 0.055 7.54 2.4 9.78
5/11/2023 5:00:00 PM 16.7 62.06 0.055 7.56 2.29 9.77
5/11/2023 5:15:00 PM 16.64 61.952 0.055 7.53 2.36 9.74
5/11/2023 5:30:00 PM 16.57 61.826 0.055 7.47 2.42 9.72
5/11/2023 5:45:00 PM 16.47 61.646 0.055 7.49 2.24 9.69
5/11/2023 6:00:00 PM 16.34 61.412 0.055 7.41 2.32 9.65
5/11/2023 6:15:00 PM 16.19 61.142 0.055 7.38 2.41 9.61
5/11/2023 6:30:00 PM 16.03 60.854 0.056 7.34 2.44 9.59
5/11/2023 6:45:00 PM 15.87 60.566 0.056 7.32 2.41 9.57
5/11/2023 7:00:00 PM 15.71 60.278 0.056 7.3 2.4 9.55
5/11/2023 7:15:00 PM 15.55 59.99 0.056 7.25 2.42 9.52
5/11/2023 7:30:00 PM 15.39 59.702 0.056 7.21 2.34 9.5
5/11/2023 7:45:00 PM 15.23 59.414 0.056 7.16 2.39 9.49
5/11/2023 8:00:00 PM 15.09 59.162 0.056 7.12 2.43 9.48
5/11/2023 8:15:00 PM 14.95 58.91 0.056 7.11 2.55 9.48
5/11/2023 8:30:00 PM 14.83 58.694 0.056 7.11 2.72 9.5
5/11/2023 8:45:00 PM 14.7 58.46 0.057 7.1 2.5 9.52
5/11/2023 9:00:00 PM 14.58 58.244 0.057 7.12 2.54 9.54
5/11/2023 9:15:00 PM 14.45 58.01 0.057 7.1 2.64 9.56
5/11/2023 9:30:00 PM 14.33 57.794 0.057 7.12 2.5 9.58
5/11/2023 9:45:00 PM 14.21 57.578 0.057 7.09 2.76 9.61
5/11/2023 10:00:00 PM 14.1 57.38 0.057 7.08 2.6 9.63
5/11/2023 10:15:00 PM 13.99 57.182 0.057 7.1 2.52 9.66
5/11/2023 10:30:00 PM 13.89 57.002 0.057 7.1 2.6 9.69
5/11/2023 10:45:00 PM 13.78 56.804 0.057 7.09 2.48 9.71
5/11/2023 11:00:00 PM 13.69 56.642 0.057 7.08 2.59 9.73
5/11/2023 11:15:00 PM 13.59 56.462 0.057 7.08 2.56 9.76
5/11/2023 11:30:00 PM 13.5 56.3 0.057 7.1 2.57 9.78
5/11/2023 11:45:00 PM 13.4 56.12 0.057 7.09 2.53 9.81
5/12/2023 12:00:00 AM 13.31 55.958 0.057 7.1 2.55 9.83
5/12/2023 12:15:00 AM 13.22 55.796 0.057 7.07 2.53 9.85
5/12/2023 12:30:00 AM 13.13 55.634 0.057 7.08 2.6 9.87
5/12/2023 12:45:00 AM 13.04 55.472 0.057 7.1 2.44 9.9
5/12/2023 1:00:00 AM 12.94 55.292 0.058 7.05 10.25 9.93
5/12/2023 1:15:00 AM 12.85 55.13 0.058 7.1 2.53 9.94
5/12/2023 1:30:00 AM 12.75 54.95 0.058 7.09 2.49 9.97
5/12/2023 1:45:00 AM 12.66 54.788 0.058 7.06 2.55 9.99
5/12/2023 2:00:00 AM 12.56 54.608 0.058 7.1 2.61 10.02
5/12/2023 2:15:00 AM 12.47 54.446 0.058 7.09 2.67 10.05
5/12/2023 2:30:00 AM 12.37 54.266 0.058 7.08 2.58 10.06
5/12/2023 2:45:00 AM 12.28 54.104 0.058 7.08 2.57 10.09
5/12/2023 3:00:00 AM 12.18 53.924 0.058 7.07 2.51 10.12
5/12/2023 3:15:00 AM 12.09 53.762 0.058 7.1 2.47 10.14
5/12/2023 3:30:00 AM 12 53.6 0.058 7.11 2.5 10.17
5/12/2023 3:45:00 AM 11.91 53.438 0.058 7.11 2.53 10.19
5/12/2023 4:00:00 AM 11.82 53.276 0.058 7.11 2.57 10.21
5/12/2023 4:15:00 AM 11.73 53.114 0.058 7.1 2.49 10.23
5/12/2023 4:30:00 AM 11.64 52.952 0.058 7.12 2.43 10.26
5/12/2023 4:45:00 AM 11.55 52.79 0.059 7.11 2.51 10.29
5/12/2023 5:00:00 AM 11.46 52.628 0.059 7.11 2.47 10.32
5/12/2023 5:15:00 AM 11.38 52.484 0.059 7.07 2.46 10.37
5/12/2023 5:30:00 AM 11.3 52.34 0.059 7.13 2.42 10.43
5/12/2023 5:45:00 AM 11.23 52.214 0.058 7.15 2.36 10.51
5/12/2023 6:00:00 AM 11.17 52.106 0.058 7.16 2.37 10.59
5/12/2023 6:15:00 AM 11.12 52.016 0.058 7.18 2.34 10.69
5/12/2023 6:30:00 AM 11.09 51.962 0.058 7.21 2.42 10.8
5/12/2023 6:45:00 AM 11.07 51.926 0.058 7.26 2.4 10.91
5/12/2023 7:00:00 AM 11.06 51.908 0.058 7.29 2.32 11
5/12/2023 7:15:00 AM 11.07 51.926 0.058 7.33 2.32 11.09
5/12/2023 7:30:00 AM 11.1 51.98 0.058 7.29 2.24 11.16
5/12/2023 7:45:00 AM 11.16 52.088 0.058 7.43 2.32 11.21
5/12/2023 8:00:00 AM 11.21 52.178 0.057 7.47 2.34 11.26
5/12/2023 8:15:00 AM 11.29 52.322 0.057 7.5 2.28 11.31
5/12/2023 8:30:00 AM 11.38 52.484 0.057 7.56 2.19 11.33
5/12/2023 8:45:00 AM 11.52 52.736 0.057 7.6 2.24 11.34
5/12/2023 9:00:00 AM 11.68 53.024 0.057 7.64 2.23 11.34
5/12/2023 9:15:00 AM 11.87 53.366 0.057 7.66 2.27 11.32
5/12/2023 9:30:00 AM 12.1 53.78 0.057 7.73 2.22 11.3
5/12/2023 9:45:00 AM 12.32 54.176 0.057 7.71 2.38 11.26
5/12/2023 10:00:00 AM 12.59 54.662 0.057 7.78 2.24 11.24
5/12/2023 10:15:00 AM 12.87 55.166 0.057 7.83 2.3 11.19
5/12/2023 10:30:00 AM 13.2 55.76 0.056 7.86 2.31 11.14
5/12/2023 10:45:00 AM 13.55 56.39 0.056 7.91 2.27 11.09
5/12/2023 11:00:00 AM 13.93 57.074 0.056 7.94 2.32 11.02
5/12/2023 11:15:00 AM 14.26 57.668 0.056 8 2.81 10.96
5/12/2023 11:30:00 AM 14.58 58.244 0.056 8.08 2.28 10.91
5/12/2023 11:45:00 AM 14.93 58.874 0.056 8.09 2.32 10.85
5/12/2023 12:00:00 PM 15.29 59.522 0.056 8.17 2.35 10.79
5/12/2023 12:15:00 PM 15.63 60.134 0.056 8.21 2.35 10.73
5/12/2023 12:30:00 PM 16 60.8 0.056 8.23 2.25 10.67
5/12/2023 12:45:00 PM 16.34 61.412 0.056 8.28 2.27 10.61
5/12/2023 1:00:00 PM 16.68 62.024 0.056 8.34 2.23 10.54
5/12/2023 1:15:00 PM 16.99 62.582 0.056 8.33 2.28 10.47
5/12/2023 1:30:00 PM 17.32 63.176 0.056 8.36 2.3 10.41
5/12/2023 1:45:00 PM 17.63 63.734 0.056 8.38 2.32 10.35
5/12/2023 2:00:00 PM 17.91 64.238 0.056 8.44 2.25 10.26
5/12/2023 2:15:00 PM 18.16 64.688 0.056 8.45 2.24 10.2
5/12/2023 2:30:00 PM 18.35 65.03 0.056 8.49 2.24 10.13
5/12/2023 2:45:00 PM 18.55 65.39 0.056 8.41 2.24 10.06
5/12/2023 3:00:00 PM 18.65 65.57 0.056 8.43 2.25 9.99
5/12/2023 3:15:00 PM 18.75 65.75 0.056 8.4 2.29 9.92
5/12/2023 3:30:00 PM 18.85 65.93 0.056 8.44 2.32 9.87
5/12/2023 3:45:00 PM 18.95 66.11 0.056 8.4 2.2 9.81
5/12/2023 4:00:00 PM 19.04 66.272 0.056 8.33 2.27 9.76
5/12/2023 4:15:00 PM 19.03 66.254 0.056 8.29 2.23 9.71
5/12/2023 4:30:00 PM 18.98 66.164 0.056 8.22 2.23 9.65
5/12/2023 4:45:00 PM 18.93 66.074 0.056 8.14 2.32 9.6
5/12/2023 5:00:00 PM 18.85 65.93 0.056 8.01 2.24 9.54
5/12/2023 5:15:00 PM 18.78 65.804 0.056 7.87 2.32 9.46
5/12/2023 5:30:00 PM 18.74 65.732 0.056 7.76 2.28 9.4
5/12/2023 5:45:00 PM 18.69 65.642 0.056 7.7 2.27 9.36
5/12/2023 6:00:00 PM 18.61 65.498 0.056 7.59 2.23 9.31
5/12/2023 6:15:00 PM 18.5 65.3 0.057 7.53 2.36 9.27
5/12/2023 6:30:00 PM 18.39 65.102 0.057 7.5 2.3 9.22
5/12/2023 6:45:00 PM 18.27 64.886 0.057 7.44 2.58 9.15
5/12/2023 7:00:00 PM 18.12 64.616 0.057 7.36 2.56 9.08
5/12/2023 7:15:00 PM 17.96 64.328 0.057 7.3 2.36 9.02
5/12/2023 7:30:00 PM 17.8 64.04 0.057 7.23 2.35 8.96
5/12/2023 7:45:00 PM 17.63 63.734 0.057 7.22 2.49 8.94
5/12/2023 8:00:00 PM 17.45 63.41 0.058 7.19 2.46 8.93
5/12/2023 8:15:00 PM 17.27 63.086 0.058 7.19 2.56 8.93
5/12/2023 8:30:00 PM 17.1 62.78 0.058 7.16 2.61 8.95
5/12/2023 8:45:00 PM 16.94 62.492 0.058 7.15 2.58 8.98
5/12/2023 9:00:00 PM 16.78 62.204 0.058 7.14 2.64 9
5/12/2023 9:15:00 PM 16.62 61.916 0.058 7.14 2.67 9.03
5/12/2023 9:30:00 PM 16.48 61.664 0.059 7.12 2.61 9.06
5/12/2023 9:45:00 PM 16.34 61.412 0.059 7.12 2.59 9.09
5/12/2023 10:00:00 PM 16.21 61.178 0.059 7.08 2.73 9.11
5/12/2023 10:15:00 PM 16.09 60.962 0.059 7.11 2.65 9.14
5/12/2023 10:30:00 PM 15.96 60.728 0.059 7.12 2.6 9.16
5/12/2023 10:45:00 PM 15.85 60.53 0.059 7.1 2.63 9.19
5/12/2023 11:00:00 PM 15.74 60.332 0.059 7.09 2.56 9.22
5/12/2023 11:15:00 PM 15.63 60.134 0.059 7.11 2.51 9.24
5/12/2023 11:30:00 PM 15.53 59.954 0.059 7.12 3.13 9.26
5/12/2023 11:45:00 PM 15.44 59.792 0.059 7.1 2.55 9.29
5/13/2023 12:00:00 AM 15.35 59.63 0.059 7.1 2.53 9.31
5/13/2023 12:15:00 AM 15.25 59.45 0.059 7.09 2.44 9.33
5/13/2023 12:30:00 AM 15.16 59.288 0.059 7.12 2.59 9.35
5/13/2023 12:45:00 AM 15.06 59.108 0.059 7.1 2.59 9.37
5/13/2023 1:00:00 AM 14.97 58.946 0.059 7.09 2.59 9.4
5/13/2023 1:15:00 AM 14.88 58.784 0.059 7.11 2.54 9.41
5/13/2023 1:30:00 AM 14.78 58.604 0.059 7.09 2.56 9.44
5/13/2023 1:45:00 AM 14.69 58.442 0.059 7.09 2.57 9.47
5/13/2023 2:00:00 AM 14.61 58.298 0.059 7.1 2.56 9.48
5/13/2023 2:15:00 AM 14.53 58.154 0.059 7.08 2.53 9.5
5/13/2023 2:30:00 AM 14.45 58.01 0.059 7.09 2.5 9.52
5/13/2023 2:45:00 AM 14.37 57.866 0.059 7.13 2.57 9.54
5/13/2023 3:00:00 AM 14.3 57.74 0.059 7.1 2.6 9.56
5/13/2023 3:15:00 AM 14.23 57.614 0.06 7.13 11460.01 9.58
5/13/2023 3:30:00 AM 14.15 57.47 0.06 7.13 2.56 9.6
5/13/2023 3:45:00 AM 14.08 57.344 0.06 7.13 2.49 9.62
5/13/2023 4:00:00 AM 14.01 57.218 0.06 7.12 2.49 9.64
5/13/2023 4:15:00 AM 13.94 57.092 0.06 7.09 2.52 9.66
5/13/2023 4:30:00 AM 13.87 56.966 0.06 7.14 2.55 9.68
5/13/2023 4:45:00 AM 13.8 56.84 0.06 7.11 2.54 9.69
5/13/2023 5:00:00 AM 13.74 56.732 0.06 7.13 2.65 9.71
5/13/2023 5:15:00 AM 13.68 56.624 0.06 7.14 2.52 9.75
5/13/2023 5:30:00 AM 13.63 56.534 0.061 7.15 2.44 9.79
5/13/2023 5:45:00 AM 13.59 56.462 0.061 7.16 2.39 9.87
5/13/2023 6:00:00 AM 13.55 56.39 0.061 7.2 2.37 9.96
5/13/2023 6:15:00 AM 13.52 56.336 0.061 7.22 2.42 10.07
5/13/2023 6:30:00 AM 13.5 56.3 0.06 7.26 2.33 10.18
5/13/2023 6:45:00 AM 13.49 56.282 0.06 7.29 2.5 10.26
5/13/2023 7:00:00 AM 13.47 56.246 0.06 7.31 2.45 10.32
5/13/2023 7:15:00 AM 13.47 56.246 0.059 7.33 2.29 10.39
5/13/2023 7:30:00 AM 13.48 56.264 0.059 7.35 2.48 10.48
5/13/2023 7:45:00 AM 13.51 56.318 0.059 7.43 2.41 10.6
5/13/2023 8:00:00 AM 13.54 56.372 0.059 7.5 2.36 10.68
5/13/2023 8:15:00 AM 13.58 56.444 0.059 7.56 2.38 10.75
5/13/2023 8:30:00 AM 13.65 56.57 0.059 7.64 2.35 10.83
5/13/2023 8:45:00 AM 13.7 56.66 0.059 7.62 2.47 10.86
5/13/2023 9:00:00 AM 13.76 56.768 0.059 7.75 2.35 10.87
5/13/2023 9:15:00 AM 13.83 56.894 0.059 7.83 2.39 10.88
5/13/2023 9:30:00 AM 13.89 57.002 0.059 7.85 2.32 10.88
5/13/2023 9:45:00 AM 13.96 57.128 0.059 7.91 2.43 10.88
5/13/2023 10:00:00 AM 14.05 57.29 0.059 7.9 2.39 10.89
5/13/2023 10:15:00 AM 14.17 57.506 0.058 8.09 2.48 10.91
5/13/2023 10:30:00 AM 14.27 57.686 0.058 8.15 2.5 10.9
5/13/2023 10:45:00 AM 14.39 57.902 0.058 8.22 2.51 10.9
5/13/2023 11:00:00 AM 14.59 58.262 0.058 8.32 2.39 10.9
5/13/2023 11:15:00 AM 14.77 58.586 0.058 8.37 2.55 10.89
5/13/2023 11:30:00 AM 14.96 58.928 0.058 8.46 2.46 10.87
5/13/2023 11:45:00 AM 15.13 59.234 0.058 8.5 2.39 10.84
5/13/2023 12:00:00 PM 15.42 59.756 0.058 8.56 2.35 10.82
5/13/2023 12:15:00 PM 15.59 60.062 0.058 8.6 2.44 10.77
5/13/2023 12:30:00 PM 15.79 60.422 0.058 8.62 2.42 10.72
5/13/2023 12:45:00 PM 16.06 60.908 0.058 8.67 2.38 10.69
5/13/2023 1:00:00 PM 16.25 61.25 0.058 8.67 2.45 10.64
5/13/2023 1:15:00 PM 16.49 61.682 0.058 8.7 2.66 10.59
5/13/2023 1:30:00 PM 16.69 62.042 0.058 8.72 2.79 10.55
5/13/2023 1:45:00 PM 16.82 62.276 0.058 8.75 2.47 10.51
5/13/2023 2:00:00 PM 17.05 62.69 0.058 8.73 2.44 10.47
5/13/2023 2:15:00 PM 17.15 62.87 0.057 8.74 2.44 10.42
5/13/2023 2:30:00 PM 17.44 63.392 0.057 8.81 2.37 10.41
5/13/2023 2:45:00 PM 17.6 63.68 0.057 8.8 2.56 10.36
5/13/2023 3:00:00 PM 17.69 63.842 0.057 8.82 2.58 10.31
5/13/2023 3:15:00 PM 17.79 64.022 0.057 8.75 2.53 10.26
5/13/2023 3:30:00 PM 17.84 64.112 0.057 8.82 2.39 10.21
5/13/2023 3:45:00 PM 17.9 64.22 0.057 8.81 2.35 10.18
5/13/2023 4:00:00 PM 17.93 64.274 0.057 8.78 2.34 10.14
5/13/2023 4:15:00 PM 17.94 64.292 0.057 8.69 2.65 10.09
5/13/2023 4:30:00 PM 17.89 64.202 0.057 8.67 2.47 10.02
5/13/2023 4:45:00 PM 17.83 64.094 0.057 8.6 2.63 9.94
5/13/2023 5:00:00 PM 17.74 63.932 0.057 8.48 2.37 9.85
5/13/2023 5:15:00 PM 17.68 63.824 0.057 8.28 2.33 9.77
5/13/2023 5:30:00 PM 17.63 63.734 0.057 8.14 2.38 9.71
5/13/2023 5:45:00 PM 17.54 63.572 0.058 7.97 2.77 9.62
5/13/2023 6:00:00 PM 17.45 63.41 0.058 7.78 2.51 9.53
5/13/2023 6:15:00 PM 17.37 63.266 0.058 7.69 2.31 9.45
5/13/2023 6:30:00 PM 17.29 63.122 0.058 7.59 2.4 9.38
5/13/2023 6:45:00 PM 17.2 62.96 0.058 7.51 2.31 9.32
5/13/2023 7:00:00 PM 17.09 62.762 0.059 7.43 2.44 9.27
5/13/2023 7:15:00 PM 16.97 62.546 0.059 7.38 2.36 9.21
5/13/2023 7:30:00 PM 16.83 62.294 0.059 7.33 2.54 9.16
5/13/2023 7:45:00 PM 16.7 62.06 0.059 7.29 2.39 9.12
5/13/2023 8:00:00 PM 16.56 61.808 0.06 7.27 2.43 9.11
5/13/2023 8:15:00 PM 16.42 61.556 0.06 7.25 2.56 9.1
5/13/2023 8:30:00 PM 16.28 61.304 0.06 7.23 2.53 9.11
5/13/2023 8:45:00 PM 16.14 61.052 0.06 7.22 2.57 9.13
5/13/2023 9:00:00 PM 15.99 60.782 0.06 7.21 2.62 9.16
5/13/2023 9:15:00 PM 15.84 60.512 0.06 7.17 2.61 9.19
5/13/2023 9:30:00 PM 15.68 60.224 0.06 7.19 2.57 9.22
5/13/2023 9:45:00 PM 15.53 59.954 0.06 7.17 2.62 9.25
5/13/2023 10:00:00 PM 15.37 59.666 0.061 7.17 2.52 9.28
5/13/2023 10:15:00 PM 15.23 59.414 0.061 7.18 2.54 9.31
5/13/2023 10:30:00 PM 15.08 59.144 0.061 7.16 2.57 9.35
5/13/2023 10:45:00 PM 14.94 58.892 0.061 7.16 2.58 9.38
5/13/2023 11:00:00 PM 14.8 58.64 0.061 7.16 2.57 9.41
5/13/2023 11:15:00 PM 14.66 58.388 0.061 7.16 2.55 9.45
5/13/2023 11:30:00 PM 14.52 58.136 0.061 7.16 2.53 9.48
5/13/2023 11:45:00 PM 14.39 57.902 0.061 7.14 2.63 9.52
5/14/2023 12:00:00 AM 14.26 57.668 0.061 7.15 2.64 9.55
5/14/2023 12:15:00 AM 14.13 57.434 0.061 7.14 2.53 9.58
5/14/2023 12:30:00 AM 14 57.2 0.061 7.16 2.5 9.61
5/14/2023 12:45:00 AM 13.88 56.984 0.061 7.15 2.54 9.64
5/14/2023 1:00:00 AM 13.75 56.75 0.061 7.13 2.49 9.67
5/14/2023 1:15:00 AM 13.64 56.552 0.061 7.15 2.41 9.7
5/14/2023 1:30:00 AM 13.51 56.318 0.061 7.15 2.49 9.73
5/14/2023 1:45:00 AM 13.4 56.12 0.061 7.14 2.5 9.76
5/14/2023 2:00:00 AM 13.28 55.904 0.061 7.14 2.51 9.79
5/14/2023 2:15:00 AM 13.17 55.706 0.061 7.14 2.51 9.82
5/14/2023 2:30:00 AM 13.06 55.508 0.061 7.14 2.66 9.85
5/14/2023 2:45:00 AM 12.94 55.292 0.061 7.14 2.48 9.88
5/14/2023 3:00:00 AM 12.83 55.094 0.061 7.14 2.58 9.91
5/14/2023 3:15:00 AM 12.72 54.896 0.061 7.14 2.46 9.94
5/14/2023 3:30:00 AM 12.62 54.716 0.061 7.14 2.5 9.97
5/14/2023 3:45:00 AM 12.51 54.518 0.061 7.15 2.46 9.99
5/14/2023 4:00:00 AM 12.41 54.338 0.061 7.15 2.51 10.03
5/14/2023 4:15:00 AM 12.31 54.158 0.061 7.13 2.44 10.06
5/14/2023 4:30:00 AM 12.21 53.978 0.061 7.14 2.45 10.09
5/14/2023 4:45:00 AM 12.11 53.798 0.061 7.14 2.45 10.12
5/14/2023 5:00:00 AM 12.02 53.636 0.061 7.15 2.5 10.16
5/14/2023 5:15:00 AM 11.93 53.474 0.061 7.15 2.4 10.21
5/14/2023 5:30:00 AM 11.86 53.348 0.061 7.16 2.4 10.28
5/14/2023 5:45:00 AM 11.79 53.222 0.061 7.19 2.4 10.39
5/14/2023 6:00:00 AM 11.73 53.114 0.061 7.22 2.39 10.51
5/14/2023 6:15:00 AM 11.68 53.024 0.061 7.25 2.3 10.63
5/14/2023 6:30:00 AM 11.64 52.952 0.06 7.29 2.23 10.75
5/14/2023 6:45:00 AM 11.61 52.898 0.06 7.32 2.31 10.86
5/14/2023 7:00:00 AM 11.59 52.862 0.06 7.33 2.24 10.97
5/14/2023 7:15:00 AM 11.58 52.844 0.06 7.43 2.35 11.07
5/14/2023 7:30:00 AM 11.59 52.862 0.06 7.47 2.28 11.14
5/14/2023 7:45:00 AM 11.62 52.916 0.06 7.51 2.24 11.19
5/14/2023 8:00:00 AM 11.68 53.024 0.06 7.57 2.25 11.23
5/14/2023 8:15:00 AM 11.77 53.186 0.06 7.62 2.25 11.26
5/14/2023 8:30:00 AM 11.89 53.402 0.06 7.66 2.27 11.28
5/14/2023 8:45:00 AM 12.02 53.636 0.06 7.73 2.25 11.31
5/14/2023 9:00:00 AM 12.15 53.87 0.059 7.78 2.28 11.32
5/14/2023 9:15:00 AM 12.33 54.194 0.059 7.82 2.32 11.29
5/14/2023 9:30:00 AM 12.53 54.554 0.059 7.81 2.2 11.29
5/14/2023 9:45:00 AM 12.77 54.986 0.059 7.9 2.24 11.25
5/14/2023 10:00:00 AM 13.06 55.508 0.059 7.98 2.31 11.22
5/14/2023 10:15:00 AM 13.37 56.066 0.059 8.04 2.29 11.18
5/14/2023 10:30:00 AM 13.72 56.696 0.06 8.09 2.38 11.13
5/14/2023 10:45:00 AM 14.1 57.38 0.061 8.15 2.29 11.08
5/14/2023 11:00:00 AM 14.47 58.046 0.061 8.22 2.34 11.02
5/14/2023 11:15:00 AM 14.84 58.712 0.061 8.28 2.31 10.97
5/14/2023 11:30:00 AM 15.22 59.396 0.06 8.31 2.27 10.91
5/14/2023 11:45:00 AM 15.6 60.08 0.06 8.39 2.29 10.86
5/14/2023 12:00:00 PM 15.95 60.71 0.06 8.44 2.27 10.8
5/14/2023 12:15:00 PM 16.3 61.34 0.06 8.49 2.31 10.75
5/14/2023 12:30:00 PM 16.64 61.952 0.059 8.54 2.3 10.71
5/14/2023 12:45:00 PM 16.9 62.42 0.059 8.56 2.32 10.66
5/14/2023 1:00:00 PM 17.15 62.87 0.059 8.59 2.22 10.62
5/14/2023 1:15:00 PM 17.36 63.248 0.059 8.68 2.24 10.58
5/14/2023 1:30:00 PM 17.51 63.518 0.059 8.66 2.29 10.55
5/14/2023 1:45:00 PM 17.67 63.806 0.059 8.74 2.2 10.52
5/14/2023 2:00:00 PM 17.81 64.058 0.059 8.76 2.2 10.47
5/14/2023 2:15:00 PM 17.88 64.184 0.059 8.78 2.27 10.43
5/14/2023 2:30:00 PM 17.83 64.094 0.059 8.8 2.24 10.41
5/14/2023 2:45:00 PM 17.78 64.004 0.059 8.81 2.23 10.37
5/14/2023 3:00:00 PM 17.77 63.986 0.059 8.83 2.21 10.36
5/14/2023 3:15:00 PM 17.77 63.986 0.059 8.79 2.25 10.33
5/14/2023 3:30:00 PM 17.73 63.914 0.059 8.82 2.24 10.31
5/14/2023 3:45:00 PM 17.7 63.86 0.059 8.79 2.3 10.28
5/14/2023 4:00:00 PM 17.65 63.77 0.059 8.83 2.25 10.25
5/14/2023 4:15:00 PM 17.6 63.68 0.059 8.79 2.39 10.2
5/14/2023 4:30:00 PM 17.56 63.608 0.059 8.74 2.35 10.14
5/14/2023 4:45:00 PM 17.46 63.428 0.059 8.67 2.38 10.07
5/14/2023 5:00:00 PM 17.36 63.248 0.059 8.56 2.34 10.02
5/14/2023 5:15:00 PM 17.27 63.086 0.059 8.46 2.23 9.97
5/14/2023 5:30:00 PM 17.17 62.906 0.059 8.35 2.28 9.93
5/14/2023 5:45:00 PM 17.06 62.708 0.059 8.15 2.37 9.86
5/14/2023 6:00:00 PM 16.94 62.492 0.059 8.07 2.3 9.82
5/14/2023 6:15:00 PM 16.84 62.312 0.059 7.93 2.25 9.77
5/14/2023 6:30:00 PM 16.74 62.132 0.06 7.79 2.26 9.71
5/14/2023 6:45:00 PM 16.61 61.898 0.06 7.66 2.2 9.64
5/14/2023 7:00:00 PM 16.47 61.646 0.06 7.57 2.27 9.54
5/14/2023 7:15:00 PM 16.32 61.376 0.06 7.46 2.21 9.46
5/14/2023 7:30:00 PM 16.16 61.088 0.061 7.4 2.25 9.38
5/14/2023 7:45:00 PM 15.99 60.782 0.061 7.34 2.26 9.33
5/14/2023 8:00:00 PM 15.82 60.476 0.061 7.3 2.26 9.31
5/14/2023 8:15:00 PM 15.65 60.17 0.062 7.26 2.41 9.3
5/14/2023 8:30:00 PM 15.48 59.864 0.062 7.25 2.36 9.31
5/14/2023 8:45:00 PM 15.3 59.54 0.062 7.23 2.48 9.34
5/14/2023 9:00:00 PM 15.12 59.216 0.062 7.23 2.36 9.36
5/14/2023 9:15:00 PM 14.94 58.892 0.062 7.21 2.41 9.4
5/14/2023 9:30:00 PM 14.77 58.586 0.062 7.2 2.45 9.44
5/14/2023 9:45:00 PM 14.59 58.262 0.062 7.2 2.45 9.48
5/14/2023 10:00:00 PM 14.42 57.956 0.062 7.15 2.38 9.52
5/14/2023 10:15:00 PM 14.26 57.668 0.063 7.16 2.34 9.56
5/14/2023 10:30:00 PM 14.09 57.362 0.063 7.18 2.48 9.6
5/14/2023 10:45:00 PM 13.93 57.074 0.063 7.18 2.37 9.63
5/14/2023 11:00:00 PM 13.77 56.786 0.063 7.18 2.43 9.67
5/14/2023 11:15:00 PM 13.62 56.516 0.063 7.17 2.46 9.71
5/14/2023 11:30:00 PM 13.47 56.246 0.063 7.15 2.36 9.75
5/14/2023 11:45:00 PM 13.32 55.976 0.063 7.15 2.41 9.78
5/15/2023 12:00:00 AM 13.18 55.724 0.063 7.16 2.35 9.83
5/15/2023 12:15:00 AM 13.04 55.472 0.063 7.16 2.4 9.86
5/15/2023 12:30:00 AM 12.9 55.22 0.063 7.15 2.32 9.9
5/15/2023 12:45:00 AM 12.76 54.968 0.063 7.17 2.29 9.93
5/15/2023 1:00:00 AM 12.62 54.716 0.063 7.11 2.44 9.96
5/15/2023 1:15:00 AM 12.49 54.482 0.063 7.17 2.28 10
5/15/2023 1:30:00 AM 12.36 54.248 0.063 7.14 2.32 10.04
5/15/2023 1:45:00 AM 12.23 54.014 0.063 7.17 2.46 10.06
5/15/2023 2:00:00 AM 12.1 53.78 0.062 7.17 2.34 10.11
5/15/2023 2:15:00 AM 11.97 53.546 0.062 7.16 2.36 10.14
5/15/2023 2:30:00 AM 11.84 53.312 0.062 7.16 2.35 10.17
5/15/2023 2:45:00 AM 11.71 53.078 0.062 7.08 2.41 10.21
5/15/2023 3:00:00 AM 11.59 52.862 0.062 7.14 2.4 10.24
5/15/2023 3:15:00 AM 11.46 52.628 0.062 7.16 2.4 10.28
5/15/2023 3:30:00 AM 11.32 52.376 0.062 7.15 2.36 10.31
5/15/2023 3:45:00 AM 11.19 52.142 0.062 7.08 2.35 10.35
5/15/2023 4:00:00 AM 11.07 51.926 0.062 7.17 2.35 10.38
5/15/2023 4:15:00 AM 10.94 51.692 0.062 7.16 2.33 10.42
5/15/2023 4:30:00 AM 10.82 51.476 0.062 7.06 2.41 10.45
5/15/2023 4:45:00 AM 10.69 51.242 0.062 7 2.42 10.49
5/15/2023 5:00:00 AM 10.56 51.008 0.062 7.02 2.35 10.54
5/15/2023 5:15:00 AM 10.44 50.792 0.062 7.05 2.3 10.61
5/15/2023 5:30:00 AM 10.33 50.594 0.062 7.08 2.28 10.72
5/15/2023 5:45:00 AM 10.23 50.414 0.062 7.08 2.28 10.84
5/15/2023 6:00:00 AM 10.14 50.252 0.062 7.1 2.21 10.96
5/15/2023 6:15:00 AM 10.05 50.09 0.062 7.18 2.22 11.09
5/15/2023 6:30:00 AM 9.99 49.982 0.062 7.18 2.27 11.22
5/15/2023 6:45:00 AM 9.93 49.874 0.062 7.27 2.18 11.33
5/15/2023 7:00:00 AM 9.9 49.82 0.062 7.32 2.19 11.45
5/15/2023 7:15:00 AM 9.9 49.82 0.061 7.38 2.33 11.53
5/15/2023 7:30:00 AM 9.91 49.838 0.061 7.44 2.17 11.62
5/15/2023 7:45:00 AM 9.95 49.91 0.061 7.49 2.23 11.67
5/15/2023 8:00:00 AM 10 50 0.061 7.55 2.23 11.73
5/15/2023 8:15:00 AM 10.08 50.144 0.061 7.58 2.24 11.77
5/15/2023 8:30:00 AM 10.18 50.324 0.061 7.64 2.14 11.8
5/15/2023 8:45:00 AM 10.31 50.558 0.061 7.71 2.25 11.8
5/15/2023 9:00:00 AM 10.47 50.846 0.061 7.77 2.28 11.81
5/15/2023 9:15:00 AM 10.67 51.206 0.061 7.83 2.42 11.8
5/15/2023 9:30:00 AM 10.89 51.602 0.061 7.88 2.21 11.78
5/15/2023 9:45:00 AM 11.16 52.088 0.061 7.96 2.23 11.75
5/15/2023 10:00:00 AM 11.48 52.664 0.061 8.02 2.2 11.7
5/15/2023 10:15:00 AM 11.83 53.294 0.062 8.08 2.2 11.64
5/15/2023 10:30:00 AM 12.2 53.96 0.063 8.13 2.1 11.58
5/15/2023 10:45:00 AM 12.62 54.716 0.063 8.22 2.18 11.5
5/15/2023 11:00:00 AM 13.04 55.472 0.063 8.27 2.18 11.43
5/15/2023 11:15:00 AM 13.47 56.246 0.062 8.35 2.13 11.36
5/15/2023 11:30:00 AM 13.89 57.002 0.062 8.41 2.36 11.29
5/15/2023 11:45:00 AM 14.3 57.74 0.061 8.49 2.22 11.22
5/15/2023 12:00:00 PM 14.73 58.514 0.061 8.55 2.13 11.16
5/15/2023 12:15:00 PM 15.13 59.234 0.061 8.56 2.19 11.1
5/15/2023 12:30:00 PM 15.51 59.918 0.061 8.67 2.16 11.03
5/15/2023 12:45:00 PM 15.86 60.548 0.061 8.71 2.27 10.97
5/15/2023 1:00:00 PM 16.19 61.142 0.061 8.75 2.22 10.9
5/15/2023 1:15:00 PM 16.48 61.664 0.061 8.78 2.14 10.84
5/15/2023 1:30:00 PM 16.74 62.132 0.061 8.81 2.16 10.79
5/15/2023 1:45:00 PM 16.98 62.564 0.061 8.85 2.16 10.73
5/15/2023 2:00:00 PM 17.2 62.96 0.061 8.82 2.21 10.66
5/15/2023 2:15:00 PM 17.39 63.302 0.061 8.89 2.16 10.6
5/15/2023 2:30:00 PM 17.56 63.608 0.061 8.9 2.05 10.54
5/15/2023 2:45:00 PM 17.69 63.842 0.061 8.9 2.1 10.49
5/15/2023 3:00:00 PM 17.78 64.004 0.061 8.91 2.17 10.42
5/15/2023 3:15:00 PM 17.87 64.166 0.061 8.91 2.05 10.34
5/15/2023 3:30:00 PM 17.91 64.238 0.06 8.92 2.11 10.28
5/15/2023 3:45:00 PM 17.97 64.346 0.06 8.84 2.21 10.23
5/15/2023 4:00:00 PM 17.96 64.328 0.06 8.88 2.22 10.16
5/15/2023 4:15:00 PM 17.91 64.238 0.06 8.8 2.22 10.11
5/15/2023 4:30:00 PM 17.82 64.076 0.06 8.81 2.15 10.05
5/15/2023 4:45:00 PM 17.69 63.842 0.06 8.72 2.16 10
5/15/2023 5:00:00 PM 17.57 63.626 0.06 8.63 2.14 9.93
5/15/2023 5:15:00 PM 17.49 63.482 0.06 8.45 2.08 9.86
5/15/2023 5:30:00 PM 17.43 63.374 0.06 8.38 2.08 9.79
5/15/2023 5:45:00 PM 17.36 63.248 0.06 8.17 2.12 9.7
5/15/2023 6:00:00 PM 17.28 63.104 0.06 8.02 2.02 9.62
5/15/2023 6:15:00 PM 17.19 62.942 0.061 7.85 2.19 9.54
5/15/2023 6:30:00 PM 17.09 62.762 0.061 7.72 2 9.47
5/15/2023 6:45:00 PM 16.98 62.564 0.061 7.62 2.23 9.39
5/15/2023 7:00:00 PM 16.87 62.366 0.062 7.49 2.1 9.31
5/15/2023 7:15:00 PM 16.73 62.114 0.062 7.46 2.07 9.24
5/15/2023 7:30:00 PM 16.58 61.844 0.062 7.37 2.05 9.17
5/15/2023 7:45:00 PM 16.41 61.538 0.062 7.35 2.22 9.12
5/15/2023 8:00:00 PM 16.22 61.196 0.063 7.31 2.44 9.09
5/15/2023 8:15:00 PM 16.03 60.854 0.063 7.27 2.35 9.09
5/15/2023 8:30:00 PM 15.84 60.512 0.063 7.27 2.21 9.1
5/15/2023 8:45:00 PM 15.64 60.152 0.063 7.24 2.33 9.13
5/15/2023 9:00:00 PM 15.43 59.774 0.064 7.23 2.28 9.17
5/15/2023 9:15:00 PM 15.23 59.414 0.064 7.22 2.31 9.21
5/15/2023 9:30:00 PM 15.02 59.036 0.064 7.21 2.35 9.26
5/15/2023 9:45:00 PM 14.82 58.676 0.064 7.21 2.34 9.3
5/15/2023 10:00:00 PM 14.61 58.298 0.064 7.19 2.34 9.35
5/15/2023 10:15:00 PM 14.41 57.938 0.064 7.2 2.29 9.4
5/15/2023 10:30:00 PM 14.2 57.56 0.064 7.2 2.3 9.45
5/15/2023 10:45:00 PM 13.99 57.182 0.064 7.18 2.28 9.5
5/15/2023 11:00:00 PM 13.78 56.804 0.064 7.19 2.32 9.55
5/15/2023 11:15:00 PM 13.59 56.462 0.064 7.17 2.33 9.59
5/15/2023 11:30:00 PM 13.4 56.12 0.064 7.18 2.35 9.64
5/15/2023 11:45:00 PM 13.22 55.796 0.064 7.18 2.3 9.69
5/16/2023 12:00:00 AM 13.04 55.472 0.064 7.11 2.24 9.73
5/16/2023 12:15:00 AM 12.87 55.166 0.064 7.19 2.42 9.77
5/16/2023 12:30:00 AM 12.7 54.86 0.064 7.18 2.24 9.81
5/16/2023 12:45:00 AM 12.54 54.572 0.064 7.18 2.28 9.85
5/16/2023 1:00:00 AM 12.38 54.284 0.064 7.17 2.33 9.9
5/16/2023 1:15:00 AM 12.23 54.014 0.064 7.16 2.26 9.94
5/16/2023 1:30:00 AM 12.07 53.726 0.064 7.09 2.24 9.98
5/16/2023 1:45:00 AM 11.93 53.474 0.064 7.15 2.29 10.01
5/16/2023 2:00:00 AM 11.78 53.204 0.064 7.17 2.37 10.05
5/16/2023 2:15:00 AM 11.64 52.952 0.064 7.17 2.29 10.09
5/16/2023 2:30:00 AM 11.5 52.7 0.064 7.17 2.29 10.13
5/16/2023 2:45:00 AM 11.37 52.466 0.064 7.17 2.28 10.16
5/16/2023 3:00:00 AM 11.23 52.214 0.064 7.16 2.27 10.2
5/16/2023 3:15:00 AM 11.1 51.98 0.064 7.11 2.17 10.23
5/16/2023 3:30:00 AM 10.96 51.728 0.064 7.17 2.32 10.27
5/16/2023 3:45:00 AM 10.84 51.512 0.064 7.16 2.33 10.3
5/16/2023 4:00:00 AM 10.7 51.26 0.064 7.17 2.25 10.34
5/16/2023 4:15:00 AM 10.57 51.026 0.064 7.17 2.24 10.37
5/16/2023 4:30:00 AM 10.44 50.792 0.064 7.17 2.19 10.41
5/16/2023 4:45:00 AM 10.31 50.558 0.064 7.17 2.09 10.44
5/16/2023 5:00:00 AM 10.19 50.342 0.065 7.17 2.17 10.49
5/16/2023 5:15:00 AM 10.07 50.126 0.066 7.19 2.09 10.59
5/16/2023 5:30:00 AM 9.96 49.928 0.066 7.18 2.07 10.69
5/16/2023 5:45:00 AM 9.86 49.748 0.065 7.12 2.06 10.81
5/16/2023 6:00:00 AM 9.77 49.586 0.065 7.18 2.12 10.92
5/16/2023 6:15:00 AM 9.69 49.442 0.064 7.22 2.05 11.05
5/16/2023 6:30:00 AM 9.63 49.334 0.064 7.24 2.1 11.19
5/16/2023 6:45:00 AM 9.58 49.244 0.063 7.28 2.05 11.29
5/16/2023 7:00:00 AM 9.55 49.19 0.063 7.36 2.08 11.4
5/16/2023 7:15:00 AM 9.55 49.19 0.063 7.4 2.06 11.49
5/16/2023 7:30:00 AM 9.57 49.226 0.063 7.45 2.03 11.57
5/16/2023 7:45:00 AM 9.62 49.316 0.063 7.51 2.07 11.64
5/16/2023 8:00:00 AM 9.69 49.442 0.062 7.53 2.04 11.7
5/16/2023 8:15:00 AM 9.78 49.604 0.062 7.6 2.05 11.72
5/16/2023 8:30:00 AM 9.9 49.82 0.062 7.65 2.06 11.74
5/16/2023 8:45:00 AM 10.04 50.072 0.062 7.74 2 11.75
5/16/2023 9:00:00 AM 10.21 50.378 0.062 7.78 1.98 11.76
5/16/2023 9:15:00 AM 10.41 50.738 0.062 7.82 2.03 11.74
5/16/2023 9:30:00 AM 10.66 51.188 0.062 7.93 2.03 11.72
5/16/2023 9:45:00 AM 10.93 51.674 0.062 8.01 1.98 11.69
5/16/2023 10:00:00 AM 11.24 52.232 0.062 8.11 2 11.66
5/16/2023 10:15:00 AM 11.62 52.916 0.061 8.19 2.05 11.61
5/16/2023 10:30:00 AM 11.94 53.492 0.061 8.28 2.08 11.54
5/16/2023 10:45:00 AM 12.31 54.158 0.061 8.36 2.09 11.48
5/16/2023 11:00:00 AM 12.66 54.788 0.061 8.47 2.02 11.43
5/16/2023 11:15:00 AM 12.88 55.184 0.061 8.51 2.07 11.36
5/16/2023 11:30:00 AM 13.14 55.652 0.061 8.6 2.11 11.32
5/16/2023 11:45:00 AM 13.6 56.48 0.061 8.62 2.03 11.27
5/16/2023 12:00:00 PM 13.94 57.092 0.061 8.71 2.1 11.19
5/16/2023 12:15:00 PM 14.1 57.38 0.062 8.7 2.14 11.15
5/16/2023 12:30:00 PM 14.36 57.848 0.062 8.79 2.13 11.11
5/16/2023 12:45:00 PM 14.69 58.442 0.062 8.79 2.12 11.05
5/16/2023 1:00:00 PM 14.97 58.946 0.062 8.83 2.16 11
5/16/2023 1:15:00 PM 15.13 59.234 0.062 8.9 2.14 10.95
5/16/2023 1:30:00 PM 15.24 59.432 0.062 8.93 2.12 10.89
5/16/2023 1:45:00 PM 15.33 59.594 0.062 8.95 2.1 10.86
5/16/2023 2:00:00 PM 15.42 59.756 0.062 8.97 2.08 10.83
5/16/2023 2:15:00 PM 15.57 60.026 0.061 8.99 2 10.78
5/16/2023 2:30:00 PM 15.75 60.35 0.061 9.01 2.03 10.74
5/16/2023 2:45:00 PM 15.94 60.692 0.061 9.02 2.06 10.7
5/16/2023 3:00:00 PM 16.06 60.908 0.061 9.04 1.99 10.66
5/16/2023 3:15:00 PM 16.11 60.998 0.061 9.03 2.11 10.61
5/16/2023 3:30:00 PM 16.2 61.16 0.061 9.05 2.03 10.57
5/16/2023 3:45:00 PM 16.27 61.286 0.061 9.05 2.11 10.51
5/16/2023 4:00:00 PM 16.28 61.304 0.061 9.02 2.07 10.46
5/16/2023 4:15:00 PM 16.27 61.286 0.061 9.03 2.07 10.4
5/16/2023 4:30:00 PM 16.31 61.358 0.061 9.01 1.99 10.35
5/16/2023 4:45:00 PM 16.28 61.304 0.061 8.93 2.14 10.28
5/16/2023 5:00:00 PM 16.25 61.25 0.061 8.93 2.1 10.23
5/16/2023 5:15:00 PM 16.16 61.088 0.061 8.84 2.08 10.13
5/16/2023 5:30:00 PM 16.08 60.944 0.061 8.72 2.08 10.03
5/16/2023 5:45:00 PM 16.03 60.854 0.061 8.57 2.1 9.92
5/16/2023 6:00:00 PM 15.96 60.728 0.061 8.38 2 9.84
5/16/2023 6:15:00 PM 15.89 60.602 0.061 8.15 2.03 9.76
5/16/2023 6:30:00 PM 15.81 60.458 0.061 7.94 2.06 9.67
5/16/2023 6:45:00 PM 15.73 60.314 0.062 7.77 2.01 9.59
5/16/2023 7:00:00 PM 15.66 60.188 0.062 7.65 2.06 9.5
5/16/2023 7:15:00 PM 15.55 59.99 0.062 7.53 2.02 9.4
5/16/2023 7:30:00 PM 15.43 59.774 0.063 7.45 2.01 9.32
5/16/2023 7:45:00 PM 15.3 59.54 0.063 7.3 2.08 9.24
5/16/2023 8:00:00 PM 15.16 59.288 0.063 7.34 2.2 9.21
5/16/2023 8:15:00 PM 15.03 59.054 0.064 7.31 2.18 9.19
5/16/2023 8:30:00 PM 14.89 58.802 0.064 7.29 2.16 9.19
5/16/2023 8:45:00 PM 14.76 58.568 0.064 7.27 2.31 9.2
5/16/2023 9:00:00 PM 14.62 58.316 0.064 7.25 2.2 9.22
5/16/2023 9:15:00 PM 14.49 58.082 0.064 7.24 2.17 9.24
5/16/2023 9:30:00 PM 14.35 57.83 0.065 7.19 2.23 9.27
5/16/2023 9:45:00 PM 14.22 57.596 0.065 7.23 2.18 9.3
5/16/2023 10:00:00 PM 14.08 57.344 0.065 7.22 2.17 9.33
5/16/2023 10:15:00 PM 13.94 57.092 0.065 7.21 2.2 9.35
5/16/2023 10:30:00 PM 13.8 56.84 0.065 7.21 2.19 9.39
5/16/2023 10:45:00 PM 13.66 56.588 0.065 7.2 2.15 9.43
5/16/2023 11:00:00 PM 13.51 56.318 0.065 7.2 2.16 9.46
5/16/2023 11:15:00 PM 13.38 56.084 0.065 7.2 2.17 9.5
5/16/2023 11:30:00 PM 13.24 55.832 0.065 7.2 2.25 9.54
5/16/2023 11:45:00 PM 13.11 55.598 0.066 7.2 2.22 9.57
5/17/2023 12:00:00 AM 12.98 55.364 0.067 7.09 2.25 9.61
5/17/2023 12:15:00 AM 12.85 55.13 0.067 7.2 2.18 9.64
5/17/2023 12:30:00 AM 12.73 54.914 0.067 7.19 2.19 9.67
5/17/2023 12:45:00 AM 12.61 54.698 0.066 7.19 2.17 9.7
5/17/2023 1:00:00 AM 12.49 54.482 0.066 7.18 2.23 9.74
5/17/2023 1:15:00 AM 12.37 54.266 0.065 7.18 2.19 9.77
5/17/2023 1:30:00 AM 12.25 54.05 0.065 7.19 2.22 9.81
5/17/2023 1:45:00 AM 12.15 53.87 0.065 7.18 2.5 9.83
5/17/2023 2:00:00 AM 12.03 53.654 0.065 7.19 2.29 9.87
5/17/2023 2:15:00 AM 11.92 53.456 0.065 7.18 2.23 9.9
5/17/2023 2:30:00 AM 11.82 53.276 0.065 7.17 2.18 9.92
5/17/2023 2:45:00 AM 11.71 53.078 0.065 7.18 2.05 9.95
5/17/2023 3:00:00 AM 11.62 52.916 0.065 7.17 2.45 9.98
5/17/2023 3:15:00 AM 11.52 52.736 0.065 7.17 2.54 10.02
5/17/2023 3:30:00 AM 11.44 52.592 0.065 7.18 2.12 10.04
5/17/2023 3:45:00 AM 11.33 52.394 0.065 7.17 2.12 10.07
5/17/2023 4:00:00 AM 11.24 52.232 0.065 7.17 2.15 10.1
5/17/2023 4:15:00 AM 11.14 52.052 0.065 7.17 2.09 10.13
5/17/2023 4:30:00 AM 11.04 51.872 0.065 7.17 2.12 10.16
5/17/2023 4:45:00 AM 10.94 51.692 0.065 7.17 2.03 10.19
5/17/2023 5:00:00 AM 10.87 51.566 0.065 7.18 2.05 10.24
5/17/2023 5:15:00 AM 10.82 51.476 0.065 7.19 2.08 10.3
5/17/2023 5:30:00 AM 10.77 51.386 0.065 7.2 1.98 10.39
5/17/2023 5:45:00 AM 10.74 51.332 0.064 7.23 2.04 10.49
5/17/2023 6:00:00 AM 10.71 51.278 0.064 7.27 2.12 10.62
5/17/2023 6:15:00 AM 10.69 51.242 0.064 7.32 2.01 10.77
5/17/2023 6:30:00 AM 10.66 51.188 0.064 7.36 2.04 10.88
5/17/2023 6:45:00 AM 10.69 51.242 0.064 7.42 2.21 11.03
5/17/2023 7:00:00 AM 10.69 51.242 0.064 7.49 2.06 11.14
5/17/2023 7:15:00 AM 10.69 51.242 0.063 7.54 2.14 11.2
5/17/2023 7:30:00 AM 10.71 51.278 0.063 7.58 4.3 11.26
5/17/2023 7:45:00 AM 10.73 51.314 0.063 7.64 2.13 11.31
5/17/2023 8:00:00 AM 10.79 51.422 0.063 7.67 2.04 11.36
5/17/2023 8:15:00 AM 10.85 51.53 0.063 7.74 2.15 11.39
5/17/2023 8:30:00 AM 10.92 51.656 0.063 7.79 2.14 11.42
5/17/2023 8:45:00 AM 11.01 51.818 0.063 7.84 2.03 11.44
5/17/2023 9:00:00 AM 11.12 52.016 0.063 7.9 2.1 11.46
5/17/2023 9:15:00 AM 11.26 52.268 0.062 7.95 1.97 11.47
5/17/2023 9:30:00 AM 11.44 52.592 0.062 8.01 2.12 11.47
5/17/2023 9:45:00 AM 11.67 53.006 0.062 8.08 2.1 11.45
5/17/2023 10:00:00 AM 11.94 53.492 0.062 8.16 2.13 11.42
5/17/2023 10:15:00 AM 12.25 54.05 0.062 8.24 2.01 11.39
5/17/2023 10:30:00 AM 12.57 54.626 0.062 8.3 2.02 11.35
5/17/2023 10:45:00 AM 12.94 55.292 0.062 8.38 2.25 11.3
5/17/2023 11:00:00 AM 13.33 55.994 0.062 8.45 2.08 11.24
5/17/2023 11:15:00 AM 13.72 56.696 0.062 8.52 2.08 11.19
5/17/2023 11:30:00 AM 14.14 57.452 0.062 8.6 2.1 11.13
5/17/2023 11:45:00 AM 14.52 58.136 0.062 8.64 1.98 11.09
5/17/2023 12:00:00 PM 14.92 58.856 0.062 8.7 2.04 11.02
5/17/2023 12:15:00 PM 15.28 59.504 0.062 8.75 2.21 10.97
5/17/2023 12:30:00 PM 15.65 60.17 0.062 8.8 2.24 10.92
5/17/2023 12:45:00 PM 15.99 60.782 0.062 8.83 2.12 10.86
5/17/2023 1:00:00 PM 16.31 61.358 0.062 8.8 1.91 10.81
5/17/2023 1:15:00 PM 16.6 61.88 0.062 8.9 2.07 10.74
5/17/2023 1:30:00 PM 16.85 62.33 0.062 8.91 1.97 10.7
5/17/2023 1:45:00 PM 17.03 62.654 0.062 8.89 1.96 10.66
5/17/2023 2:00:00 PM 17.15 62.87 0.062 8.94 2.06 10.63
5/17/2023 2:15:00 PM 17.23 63.014 0.062 8.99 2.07 10.59
5/17/2023 2:30:00 PM 17.28 63.104 0.062 8.97 2.18 10.57
5/17/2023 2:45:00 PM 17.31 63.158 0.062 9.01 2.12 10.52
5/17/2023 3:00:00 PM 17.3 63.14 0.062 9.06 2.02 10.5
5/17/2023 3:15:00 PM 17.27 63.086 0.062 9.07 2.11 10.47
5/17/2023 3:30:00 PM 17.23 63.014 0.062 9.02 2.08 10.43
5/17/2023 3:45:00 PM 17.16 62.888 0.062 9.08 2.1 10.39
5/17/2023 4:00:00 PM 17.06 62.708 0.062 9.07 2.15 10.37
5/17/2023 4:15:00 PM 16.95 62.51 0.062 9.06 2.14 10.34
5/17/2023 4:30:00 PM 16.81 62.258 0.062 9.04 2.17 10.31
5/17/2023 4:45:00 PM 16.64 61.952 0.062 8.96 2.06 10.28
5/17/2023 5:00:00 PM 16.45 61.61 0.062 8.96 2.33 10.24
5/17/2023 5:15:00 PM 16.28 61.304 0.062 8.9 2.24 10.19
5/17/2023 5:30:00 PM 16.15 61.07 0.062 8.82 2.3 10.12
5/17/2023 5:45:00 PM 16.02 60.836 0.062 8.71 2.2 10.05
5/17/2023 6:00:00 PM 15.87 60.566 0.062 8.58 2.04 9.99
5/17/2023 6:15:00 PM 15.73 60.314 0.062 8.38 2.01 9.91
5/17/2023 6:30:00 PM 15.59 60.062 0.063 8.15 2.05 9.83
5/17/2023 6:45:00 PM 15.45 59.81 0.064 7.92 2.15 9.75
5/17/2023 7:00:00 PM 15.31 59.558 0.064 7.75 2.58 9.67
5/17/2023 7:15:00 PM 15.14 59.252 0.064 7.62 2.2 9.6
5/17/2023 7:30:00 PM 14.95 58.91 0.064 7.52 2.79 9.52
5/17/2023 7:45:00 PM 14.76 58.568 0.064 7.45 2.3 9.46
5/17/2023 8:00:00 PM 14.57 58.226 0.064 7.39 2.24 9.43
5/17/2023 8:15:00 PM 14.37 57.866 0.065 7.35 2.32 9.43
5/17/2023 8:30:00 PM 14.16 57.488 0.065 7.34 2.24 9.44
5/17/2023 8:45:00 PM 13.96 57.128 0.065 7.31 2.39 9.47
5/17/2023 9:00:00 PM 13.74 56.732 0.065 7.29 2.33 9.51
5/17/2023 9:15:00 PM 13.54 56.372 0.065 7.28 2.34 9.55
5/17/2023 9:30:00 PM 13.33 55.994 0.066 7.27 2.34 9.6
5/17/2023 9:45:00 PM 13.12 55.616 0.066 7.26 2.27 9.65
5/17/2023 10:00:00 PM 12.91 55.238 0.066 7.26 2.29 9.71
5/17/2023 10:15:00 PM 12.71 54.878 0.066 7.25 2.41 9.76
5/17/2023 10:30:00 PM 12.5 54.5 0.066 7.25 2.32 9.82
5/17/2023 10:45:00 PM 12.29 54.122 0.066 7.25 2.34 9.87
5/17/2023 11:00:00 PM 12.09 53.762 0.066 7.24 2.32 9.94
5/17/2023 11:15:00 PM 11.89 53.402 0.066 7.22 2.34 9.99
5/17/2023 11:30:00 PM 11.7 53.06 0.066 7.24 2.3 10.05
5/17/2023 11:45:00 PM 11.51 52.718 0.066 7.2 2.36 10.1
5/18/2023 12:00:00 AM 11.33 52.394 0.066 7.23 2.23 10.15
5/18/2023 12:15:00 AM 11.15 52.07 0.066 7.22 2.25 10.2
5/18/2023 12:30:00 AM 10.98 51.764 0.066 7.22 2.29 10.26
5/18/2023 12:45:00 AM 10.8 51.44 0.066 7.21 2.17 10.31
5/18/2023 1:00:00 AM 10.64 51.152 0.066 7.21 2.3 10.35
5/18/2023 1:15:00 AM 10.48 50.864 0.066 7.22 2.28 10.4
5/18/2023 1:30:00 AM 10.32 50.576 0.066 7.22 2.15 10.45
5/18/2023 1:45:00 AM 10.18 50.324 0.066 7.2 2.21 10.5
5/18/2023 2:00:00 AM 10.03 50.054 0.066 7.21 2.18 10.54
5/18/2023 2:15:00 AM 9.88 49.784 0.066 7.2 2.26 10.59
5/18/2023 2:30:00 AM 9.74 49.532 0.066 7.17 2.25 10.62
5/18/2023 2:45:00 AM 9.6 49.28 0.066 7.15 2.15 10.67
5/18/2023 3:00:00 AM 9.46 49.028 0.066 7.16 2.19 10.72
5/18/2023 3:15:00 AM 9.33 48.794 0.066 7.12 2.18 10.76
5/18/2023 3:30:00 AM 9.2 48.56 0.066 7.05 2.16 10.79
5/18/2023 3:45:00 AM 9.07 48.326 0.066 7.1 2.17 10.83
5/18/2023 4:00:00 AM 8.96 48.128 0.066 7.1 2.15 10.87
5/18/2023 4:15:00 AM 8.83 47.894 0.066 7.09 2.14 10.91
5/18/2023 4:30:00 AM 8.71 47.678 0.066 7.1 1.94 10.94
5/18/2023 4:45:00 AM 8.6 47.48 0.066 7.06 2.01 10.99
5/18/2023 5:00:00 AM 8.48 47.264 0.066 7.11 2.03 11.04
5/18/2023 5:15:00 AM 8.38 47.084 0.066 7.11 2.02 11.11
5/18/2023 5:30:00 AM 8.28 46.904 0.065 7.14 1.98 11.22
5/18/2023 5:45:00 AM 8.18 46.724 0.065 7.16 1.97 11.34
5/18/2023 6:00:00 AM 8.1 46.58 0.065 7.19 1.99 11.49
5/18/2023 6:15:00 AM 8.04 46.472 0.065 7.24 2.03 11.64
5/18/2023 6:30:00 AM 7.99 46.382 0.065 7.25 2 11.78
5/18/2023 6:45:00 AM 7.95 46.31 0.065 7.34 2.02 11.9
5/18/2023 7:00:00 AM 7.93 46.274 0.065 7.39 2.01 12.01
5/18/2023 7:15:00 AM 7.93 46.274 0.064 7.45 2.16 12.1
5/18/2023 7:30:00 AM 7.96 46.328 0.064 7.5 1.98 12.17
5/18/2023 7:45:00 AM 8.01 46.418 0.064 7.55 1.95 12.23
5/18/2023 8:00:00 AM 8.08 46.544 0.064 7.6 2.11 12.28
5/18/2023 8:15:00 AM 8.18 46.724 0.064 7.66 1.97 12.31
5/18/2023 8:30:00 AM 8.31 46.958 0.063 7.69 1.91 12.33
5/18/2023 8:45:00 AM 8.46 47.228 0.063 7.76 1.94 12.34
5/18/2023 9:00:00 AM 8.63 47.534 0.063 7.81 1.99 12.34
5/18/2023 9:15:00 AM 8.83 47.894 0.063 7.86 1.96 12.32
5/18/2023 9:30:00 AM 9.06 48.308 0.063 7.91 1.97 12.28
5/18/2023 9:45:00 AM 9.32 48.776 0.063 7.96 1.97 12.24
5/18/2023 10:00:00 AM 9.63 49.334 0.063 8.01 1.97 12.2
5/18/2023 10:15:00 AM 9.99 49.982 0.063 8.07 2.07 12.12
5/18/2023 10:30:00 AM 10.38 50.684 0.063 8.15 2.14 12.04
5/18/2023 10:45:00 AM 10.82 51.476 0.062 8.21 2.02 11.97
5/18/2023 11:00:00 AM 11.3 52.34 0.063 8.28 2.19 11.88
5/18/2023 11:15:00 AM 11.78 53.204 0.063 8.34 2.05 11.78
5/18/2023 11:30:00 AM 12.28 54.104 0.063 8.42 2.07 11.7
5/18/2023 11:45:00 AM 12.78 55.004 0.063 8.5 1.97 11.6
5/18/2023 12:00:00 PM 13.27 55.886 0.063 8.57 2.23 11.52
5/18/2023 12:15:00 PM 13.76 56.768 0.063 8.64 1.92 11.43
5/18/2023 12:30:00 PM 14.24 57.632 0.063 8.69 1.96 11.34
5/18/2023 12:45:00 PM 14.68 58.424 0.063 8.75 2.23 11.26
5/18/2023 1:00:00 PM 15.08 59.144 0.063 8.8 2.03 11.18
5/18/2023 1:15:00 PM 15.45 59.81 0.063 8.85 2.09 11.11
5/18/2023 1:30:00 PM 15.76 60.368 0.063 8.89 1.91 11.05
5/18/2023 1:45:00 PM 16.01 60.818 0.063 8.92 1.9 10.98
5/18/2023 2:00:00 PM 16.23 61.214 0.063 8.95 1.92 10.92
5/18/2023 2:15:00 PM 16.4 61.52 0.064 8.92 1.97 10.87
5/18/2023 2:30:00 PM 16.55 61.79 0.064 9 1.87 10.82
5/18/2023 2:45:00 PM 16.67 62.006 0.064 9.01 1.87 10.75
5/18/2023 3:00:00 PM 16.74 62.132 0.064 9.03 1.94 10.7
5/18/2023 3:15:00 PM 16.76 62.168 0.064 9.04 1.85 10.63
5/18/2023 3:30:00 PM 16.78 62.204 0.064 9.02 1.86 10.59
5/18/2023 3:45:00 PM 16.79 62.222 0.064 9.03 2.03 10.52
5/18/2023 4:00:00 PM 16.77 62.186 0.064 9.02 2.14 10.46
5/18/2023 4:15:00 PM 16.73 62.114 0.064 9 2.05 10.41
5/18/2023 4:30:00 PM 16.63 61.934 0.064 8.94 1.89 10.34
5/18/2023 4:45:00 PM 16.47 61.646 0.064 8.89 1.92 10.28
5/18/2023 5:00:00 PM 16.3 61.34 0.064 8.79 2 10.21
5/18/2023 5:15:00 PM 16.15 61.07 0.064 8.66 1.92 10.12
5/18/2023 5:30:00 PM 16.02 60.836 0.064 8.52 1.99 10.04
5/18/2023 5:45:00 PM 15.93 60.674 0.064 8.35 1.92 9.99
5/18/2023 6:00:00 PM 15.85 60.53 0.064 8.17 1.92 9.92
5/18/2023 6:15:00 PM 15.76 60.368 0.064 8.01 1.89 9.86
5/18/2023 6:30:00 PM 15.69 60.242 0.065 7.86 1.93 9.79
5/18/2023 6:45:00 PM 15.62 60.116 0.066 7.74 1.86 9.72
5/18/2023 7:00:00 PM 15.54 59.972 0.067 7.65 1.9 9.64

These are provisional data and have not been subject to a quality assurance process, but rather are the raw data reported by the instrument.
H: value is above sensor operating range
L: value is below sensor operating range
Offline: station is not reporting data
NC: parameter is not collected at site

Data Availability & Limitations

Uncertainty and potential for error can be associated with environmental monitoring data. Provisional data have not been subject to a quality assurance process, but rather are the raw data reported by the instrument. Data users are cautioned to consider carefully the provisional nature of the information before using it for decisions that concern personal or public safety or the conduct of business that involves substantial monetary or operational consequences.

Approved data are currently available by request by emailing: [email protected]. Approved data have been subject to a quality assurance process to correct for equipment or fouling drift. Data recorded during equipment malfunctions have been removed.

View Historical Stations that have been discontinued.